<?xml version="1.0" encoding="UTF-8" standalone="no" ?>
<gpx xmlns="http://www.topografix.com/GPX/1/1" xmlns:xsi="http://www.w3.org/2001/XMLSchema-instance" xsi:schemaLocation="http://www.topografix.com/GPX/1/1 http://www.topografix.com/GPX/1/1/gpx.xsd" version="1.1" creator="VisuGPX - https://www.visugpx.com">
  <metadata>
    <name>Alpes d'Huez</name>
  </metadata>
  <trk>
    <name><![CDATA[Alpes d'Huez_2]]></name>
    <trkseg>
      <trkpt lat="45.09584" lon="6.07015">
        <ele>1851.7</ele>
        <time>2020-08-05T10:04:52Z</time>
      </trkpt>
      <trkpt lat="45.09581" lon="6.07017">
        <ele>1851.6</ele>
        <time>2020-08-05T10:04:53Z</time>
      </trkpt>
      <trkpt lat="45.09574" lon="6.07021">
        <ele>1851.1</ele>
        <time>2020-08-05T10:04:55Z</time>
      </trkpt>
      <trkpt lat="45.09569" lon="6.07028">
        <ele>1850.8</ele>
        <time>2020-08-05T10:04:56Z</time>
      </trkpt>
      <trkpt lat="45.09559" lon="6.07038">
        <ele>1850.1</ele>
        <time>2020-08-05T10:04:58Z</time>
      </trkpt>
      <trkpt lat="45.09552" lon="6.07044">
        <ele>1849.7</ele>
        <time>2020-08-05T10:05:01Z</time>
      </trkpt>
      <trkpt lat="45.09549" lon="6.07046">
        <ele>1849.5</ele>
        <time>2020-08-05T10:05:02Z</time>
      </trkpt>
      <trkpt lat="45.09541" lon="6.07054">
        <ele>1849</ele>
        <time>2020-08-05T10:05:05Z</time>
      </trkpt>
      <trkpt lat="45.09537" lon="6.07057">
        <ele>1848.8</ele>
        <time>2020-08-05T10:05:07Z</time>
      </trkpt>
      <trkpt lat="45.0953" lon="6.0706">
        <ele>1848.4</ele>
        <time>2020-08-05T10:05:09Z</time>
      </trkpt>
      <trkpt lat="45.09524" lon="6.07062">
        <ele>1848</ele>
        <time>2020-08-05T10:05:12Z</time>
      </trkpt>
      <trkpt lat="45.0952" lon="6.07064">
        <ele>1847.8</ele>
        <time>2020-08-05T10:05:13Z</time>
      </trkpt>
      <trkpt lat="45.09507" lon="6.07069">
        <ele>1847.1</ele>
        <time>2020-08-05T10:05:15Z</time>
      </trkpt>
      <trkpt lat="45.09501" lon="6.07071">
        <ele>1846.8</ele>
        <time>2020-08-05T10:05:17Z</time>
      </trkpt>
      <trkpt lat="45.09497" lon="6.07073">
        <ele>1846.6</ele>
        <time>2020-08-05T10:05:18Z</time>
      </trkpt>
      <trkpt lat="45.09492" lon="6.07075">
        <ele>1846.3</ele>
        <time>2020-08-05T10:05:21Z</time>
      </trkpt>
      <trkpt lat="45.09487" lon="6.07076">
        <ele>1846.1</ele>
        <time>2020-08-05T10:05:23Z</time>
      </trkpt>
      <trkpt lat="45.09485" lon="6.07076">
        <ele>1846</ele>
        <time>2020-08-05T10:05:24Z</time>
      </trkpt>
      <trkpt lat="45.09484" lon="6.07076">
        <ele>1845.9</ele>
        <time>2020-08-05T10:05:26Z</time>
      </trkpt>
      <trkpt lat="45.09484" lon="6.07075">
        <ele>1845.9</ele>
        <time>2020-08-05T10:05:27Z</time>
      </trkpt>
      <trkpt lat="45.09484" lon="6.07075">
        <ele>1845.9</ele>
        <time>2020-08-05T10:05:30Z</time>
      </trkpt>
      <trkpt lat="45.09484" lon="6.07075">
        <ele>1845.9</ele>
        <time>2020-08-05T10:05:31Z</time>
      </trkpt>
      <trkpt lat="45.09484" lon="6.07075">
        <ele>1845.9</ele>
        <time>2020-08-05T10:05:32Z</time>
      </trkpt>
      <trkpt lat="45.09484" lon="6.07076">
        <ele>1845.8</ele>
        <time>2020-08-05T10:05:34Z</time>
      </trkpt>
      <trkpt lat="45.09481" lon="6.07077">
        <ele>1845.7</ele>
        <time>2020-08-05T10:10:01Z</time>
      </trkpt>
      <trkpt lat="45.09479" lon="6.07078">
        <ele>1845.6</ele>
        <time>2020-08-05T10:10:02Z</time>
      </trkpt>
      <trkpt lat="45.09475" lon="6.0708">
        <ele>1845.3</ele>
        <time>2020-08-05T10:10:04Z</time>
      </trkpt>
      <trkpt lat="45.09472" lon="6.0708">
        <ele>1845.1</ele>
        <time>2020-08-05T10:10:06Z</time>
      </trkpt>
      <trkpt lat="45.09473" lon="6.07078">
        <ele>1845</ele>
        <time>2020-08-05T10:10:09Z</time>
      </trkpt>
      <trkpt lat="45.09472" lon="6.07076">
        <ele>1844.9</ele>
        <time>2020-08-05T10:10:11Z</time>
      </trkpt>
      <trkpt lat="45.09466" lon="6.07067">
        <ele>1844.4</ele>
        <time>2020-08-05T10:10:13Z</time>
      </trkpt>
      <trkpt lat="45.09463" lon="6.07064">
        <ele>1844.2</ele>
        <time>2020-08-05T10:10:14Z</time>
      </trkpt>
      <trkpt lat="45.0946" lon="6.07062">
        <ele>1844</ele>
        <time>2020-08-05T10:10:15Z</time>
      </trkpt>
      <trkpt lat="45.09459" lon="6.07062">
        <ele>1843.9</ele>
        <time>2020-08-05T10:10:16Z</time>
      </trkpt>
      <trkpt lat="45.09459" lon="6.07065">
        <ele>1843.7</ele>
        <time>2020-08-05T10:10:17Z</time>
      </trkpt>
      <trkpt lat="45.09459" lon="6.07066">
        <ele>1843.6</ele>
        <time>2020-08-05T10:10:19Z</time>
      </trkpt>
      <trkpt lat="45.0946" lon="6.0707">
        <ele>1843.5</ele>
        <time>2020-08-05T10:10:21Z</time>
      </trkpt>
      <trkpt lat="45.09463" lon="6.07072">
        <ele>1843.3</ele>
        <time>2020-08-05T10:10:22Z</time>
      </trkpt>
      <trkpt lat="45.09465" lon="6.07076">
        <ele>1843.1</ele>
        <time>2020-08-05T10:10:23Z</time>
      </trkpt>
      <trkpt lat="45.09466" lon="6.07078">
        <ele>1842.9</ele>
        <time>2020-08-05T10:10:25Z</time>
      </trkpt>
      <trkpt lat="45.09468" lon="6.0708">
        <ele>1842.8</ele>
        <time>2020-08-05T10:10:27Z</time>
      </trkpt>
      <trkpt lat="45.09469" lon="6.07083">
        <ele>1842.7</ele>
        <time>2020-08-05T10:10:28Z</time>
      </trkpt>
      <trkpt lat="45.0947" lon="6.07085">
        <ele>1842.6</ele>
        <time>2020-08-05T10:10:29Z</time>
      </trkpt>
      <trkpt lat="45.09471" lon="6.07087">
        <ele>1842.4</ele>
        <time>2020-08-05T10:10:32Z</time>
      </trkpt>
      <trkpt lat="45.09473" lon="6.07089">
        <ele>1842.3</ele>
        <time>2020-08-05T10:10:33Z</time>
      </trkpt>
      <trkpt lat="45.09474" lon="6.07091">
        <ele>1842.2</ele>
        <time>2020-08-05T10:10:34Z</time>
      </trkpt>
      <trkpt lat="45.09475" lon="6.07094">
        <ele>1842</ele>
        <time>2020-08-05T10:35:55Z</time>
      </trkpt>
      <trkpt lat="45.09476" lon="6.07096">
        <ele>1841.9</ele>
        <time>2020-08-05T10:35:56Z</time>
      </trkpt>
      <trkpt lat="45.09476" lon="6.07095">
        <ele>1841.8</ele>
        <time>2020-08-05T10:35:58Z</time>
      </trkpt>
      <trkpt lat="45.09475" lon="6.07095">
        <ele>1841.8</ele>
        <time>2020-08-05T10:35:59Z</time>
      </trkpt>
      <trkpt lat="45.09475" lon="6.07094">
        <ele>1841.8</ele>
        <time>2020-08-05T10:36:00Z</time>
      </trkpt>
      <trkpt lat="45.09475" lon="6.07093">
        <ele>1841.7</ele>
        <time>2020-08-05T10:36:01Z</time>
      </trkpt>
      <trkpt lat="45.09475" lon="6.07092">
        <ele>1841.6</ele>
        <time>2020-08-05T10:36:04Z</time>
      </trkpt>
      <trkpt lat="45.09475" lon="6.07091">
        <ele>1841.6</ele>
        <time>2020-08-05T10:36:06Z</time>
      </trkpt>
      <trkpt lat="45.09475" lon="6.07091">
        <ele>1841.6</ele>
        <time>2020-08-05T10:36:08Z</time>
      </trkpt>
      <trkpt lat="45.09469" lon="6.07098">
        <ele>1841</ele>
        <time>2020-08-05T10:36:24Z</time>
      </trkpt>
      <trkpt lat="45.09458" lon="6.07102">
        <ele>1840.1</ele>
        <time>2020-08-05T10:36:26Z</time>
      </trkpt>
      <trkpt lat="45.09453" lon="6.07104">
        <ele>1839.7</ele>
        <time>2020-08-05T10:36:27Z</time>
      </trkpt>
      <trkpt lat="45.09442" lon="6.07108">
        <ele>1838.8</ele>
        <time>2020-08-05T10:36:29Z</time>
      </trkpt>
      <trkpt lat="45.09437" lon="6.07111">
        <ele>1838.3</ele>
        <time>2020-08-05T10:36:30Z</time>
      </trkpt>
      <trkpt lat="45.09434" lon="6.07113">
        <ele>1838.1</ele>
        <time>2020-08-05T10:36:31Z</time>
      </trkpt>
      <trkpt lat="45.09428" lon="6.07116">
        <ele>1837.5</ele>
        <time>2020-08-05T10:36:33Z</time>
      </trkpt>
      <trkpt lat="45.09425" lon="6.07117">
        <ele>1837.2</ele>
        <time>2020-08-05T10:36:34Z</time>
      </trkpt>
      <trkpt lat="45.09423" lon="6.07118">
        <ele>1837.1</ele>
        <time>2020-08-05T10:36:35Z</time>
      </trkpt>
      <trkpt lat="45.09422" lon="6.07119">
        <ele>1836.9</ele>
        <time>2020-08-05T10:36:36Z</time>
      </trkpt>
      <trkpt lat="45.09421" lon="6.0712">
        <ele>1836.8</ele>
        <time>2020-08-05T10:36:38Z</time>
      </trkpt>
      <trkpt lat="45.09422" lon="6.07119">
        <ele>1836.7</ele>
        <time>2020-08-05T10:36:40Z</time>
      </trkpt>
      <trkpt lat="45.09422" lon="6.07119">
        <ele>1836.7</ele>
        <time>2020-08-05T10:36:41Z</time>
      </trkpt>
      <trkpt lat="45.09422" lon="6.07119">
        <ele>1836.7</ele>
        <time>2020-08-05T10:36:43Z</time>
      </trkpt>
      <trkpt lat="45.09422" lon="6.07119">
        <ele>1836.7</ele>
        <time>2020-08-05T10:36:44Z</time>
      </trkpt>
      <trkpt lat="45.09422" lon="6.07119">
        <ele>1836.7</ele>
        <time>2020-08-05T10:36:46Z</time>
      </trkpt>
      <trkpt lat="45.09419" lon="6.07121">
        <ele>1836.3</ele>
        <time>2020-08-05T10:40:07Z</time>
      </trkpt>
      <trkpt lat="45.09417" lon="6.07122">
        <ele>1836.1</ele>
        <time>2020-08-05T10:40:08Z</time>
      </trkpt>
      <trkpt lat="45.09412" lon="6.07124">
        <ele>1835.5</ele>
        <time>2020-08-05T10:40:10Z</time>
      </trkpt>
      <trkpt lat="45.0941" lon="6.07125">
        <ele>1835.2</ele>
        <time>2020-08-05T10:40:11Z</time>
      </trkpt>
      <trkpt lat="45.09403" lon="6.07131">
        <ele>1834.5</ele>
        <time>2020-08-05T10:40:13Z</time>
      </trkpt>
      <trkpt lat="45.09403" lon="6.07134">
        <ele>1834.4</ele>
        <time>2020-08-05T10:40:14Z</time>
      </trkpt>
      <trkpt lat="45.09404" lon="6.07135">
        <ele>1834.3</ele>
        <time>2020-08-05T10:40:15Z</time>
      </trkpt>
      <trkpt lat="45.09403" lon="6.07137">
        <ele>1834.1</ele>
        <time>2020-08-05T10:40:17Z</time>
      </trkpt>
      <trkpt lat="45.09401" lon="6.07138">
        <ele>1833.9</ele>
        <time>2020-08-05T10:40:19Z</time>
      </trkpt>
      <trkpt lat="45.094" lon="6.07139">
        <ele>1833.9</ele>
        <time>2020-08-05T10:40:20Z</time>
      </trkpt>
      <trkpt lat="45.09394" lon="6.07142">
        <ele>1833.4</ele>
        <time>2020-08-05T10:40:22Z</time>
      </trkpt>
      <trkpt lat="45.09391" lon="6.07144">
        <ele>1833</ele>
        <time>2020-08-05T10:40:23Z</time>
      </trkpt>
      <trkpt lat="45.09385" lon="6.07147">
        <ele>1832.5</ele>
        <time>2020-08-05T10:40:26Z</time>
      </trkpt>
      <trkpt lat="45.09382" lon="6.07149">
        <ele>1832.2</ele>
        <time>2020-08-05T10:40:27Z</time>
      </trkpt>
      <trkpt lat="45.09377" lon="6.07151">
        <ele>1831.8</ele>
        <time>2020-08-05T10:40:29Z</time>
      </trkpt>
      <trkpt lat="45.09374" lon="6.07152">
        <ele>1831.5</ele>
        <time>2020-08-05T10:40:30Z</time>
      </trkpt>
      <trkpt lat="45.09368" lon="6.07153">
        <ele>1831.1</ele>
        <time>2020-08-05T10:40:31Z</time>
      </trkpt>
      <trkpt lat="45.09365" lon="6.07153">
        <ele>1831.1</ele>
        <time>2020-08-05T10:40:32Z</time>
      </trkpt>
      <trkpt lat="45.09361" lon="6.07155">
        <ele>1831</ele>
        <time>2020-08-05T10:40:33Z</time>
      </trkpt>
      <trkpt lat="45.09356" lon="6.07162">
        <ele>1830.9</ele>
        <time>2020-08-05T10:40:36Z</time>
      </trkpt>
      <trkpt lat="45.09357" lon="6.07166">
        <ele>1830.9</ele>
        <time>2020-08-05T10:40:37Z</time>
      </trkpt>
      <trkpt lat="45.0936" lon="6.07169">
        <ele>1830.8</ele>
        <time>2020-08-05T10:40:39Z</time>
      </trkpt>
      <trkpt lat="45.09362" lon="6.07168">
        <ele>1830.8</ele>
        <time>2020-08-05T10:40:41Z</time>
      </trkpt>
      <trkpt lat="45.09364" lon="6.07163">
        <ele>1830.7</ele>
        <time>2020-08-05T10:40:42Z</time>
      </trkpt>
      <trkpt lat="45.09366" lon="6.07162">
        <ele>1830.8</ele>
        <time>2020-08-05T10:40:43Z</time>
      </trkpt>
      <trkpt lat="45.09371" lon="6.07159">
        <ele>1831.2</ele>
        <time>2020-08-05T10:40:45Z</time>
      </trkpt>
      <trkpt lat="45.09374" lon="6.07158">
        <ele>1831.4</ele>
        <time>2020-08-05T10:40:47Z</time>
      </trkpt>
      <trkpt lat="45.09375" lon="6.07158">
        <ele>1831.5</ele>
        <time>2020-08-05T10:40:48Z</time>
      </trkpt>
      <trkpt lat="45.09379" lon="6.07157">
        <ele>1831.9</ele>
        <time>2020-08-05T10:40:50Z</time>
      </trkpt>
      <trkpt lat="45.09382" lon="6.07157">
        <ele>1832.2</ele>
        <time>2020-08-05T10:40:52Z</time>
      </trkpt>
      <trkpt lat="45.09383" lon="6.07156">
        <ele>1832.3</ele>
        <time>2020-08-05T10:40:53Z</time>
      </trkpt>
      <trkpt lat="45.09387" lon="6.07155">
        <ele>1832.6</ele>
        <time>2020-08-05T10:40:55Z</time>
      </trkpt>
      <trkpt lat="45.09393" lon="6.07152">
        <ele>1833.2</ele>
        <time>2020-08-05T10:40:58Z</time>
      </trkpt>
      <trkpt lat="45.09394" lon="6.07151">
        <ele>1833.1</ele>
        <time>2020-08-05T10:41:00Z</time>
      </trkpt>
      <trkpt lat="45.09396" lon="6.07151">
        <ele>1833.1</ele>
        <time>2020-08-05T10:41:01Z</time>
      </trkpt>
      <trkpt lat="45.09398" lon="6.0715">
        <ele>1833</ele>
        <time>2020-08-05T10:41:02Z</time>
      </trkpt>
      <trkpt lat="45.09399" lon="6.07149">
        <ele>1833</ele>
        <time>2020-08-05T10:41:03Z</time>
      </trkpt>
      <trkpt lat="45.09403" lon="6.07149">
        <ele>1832.9</ele>
        <time>2020-08-05T10:41:05Z</time>
      </trkpt>
      <trkpt lat="45.09404" lon="6.07148">
        <ele>1832.9</ele>
        <time>2020-08-05T10:41:06Z</time>
      </trkpt>
      <trkpt lat="45.09406" lon="6.07148">
        <ele>1832.8</ele>
        <time>2020-08-05T10:41:09Z</time>
      </trkpt>
      <trkpt lat="45.09406" lon="6.07147">
        <ele>1832.8</ele>
        <time>2020-08-05T10:41:11Z</time>
      </trkpt>
      <trkpt lat="45.09406" lon="6.07147">
        <ele>1832.8</ele>
        <time>2020-08-05T10:41:12Z</time>
      </trkpt>
      <trkpt lat="45.09406" lon="6.07147">
        <ele>1832.8</ele>
        <time>2020-08-05T10:41:14Z</time>
      </trkpt>
      <trkpt lat="45.09406" lon="6.07148">
        <ele>1832.8</ele>
        <time>2020-08-05T10:41:16Z</time>
      </trkpt>
      <trkpt lat="45.09406" lon="6.0715">
        <ele>1832.7</ele>
        <time>2020-08-05T10:41:18Z</time>
      </trkpt>
      <trkpt lat="45.09406" lon="6.07151">
        <ele>1832.7</ele>
        <time>2020-08-05T10:41:20Z</time>
      </trkpt>
      <trkpt lat="45.09405" lon="6.07152">
        <ele>1832.7</ele>
        <time>2020-08-05T10:41:22Z</time>
      </trkpt>
      <trkpt lat="45.09405" lon="6.07152">
        <ele>1832.7</ele>
        <time>2020-08-05T10:41:25Z</time>
      </trkpt>
      <trkpt lat="45.09405" lon="6.07152">
        <ele>1832.7</ele>
        <time>2020-08-05T10:41:27Z</time>
      </trkpt>
      <trkpt lat="45.09405" lon="6.07152">
        <ele>1832.7</ele>
        <time>2020-08-05T10:41:29Z</time>
      </trkpt>
      <trkpt lat="45.09405" lon="6.07152">
        <ele>1832.7</ele>
        <time>2020-08-05T10:41:30Z</time>
      </trkpt>
      <trkpt lat="45.09405" lon="6.07152">
        <ele>1832.7</ele>
        <time>2020-08-05T10:41:31Z</time>
      </trkpt>
      <trkpt lat="45.09405" lon="6.07152">
        <ele>1832.6</ele>
        <time>2020-08-05T10:41:33Z</time>
      </trkpt>
      <trkpt lat="45.09405" lon="6.07151">
        <ele>1832.6</ele>
        <time>2020-08-05T10:41:36Z</time>
      </trkpt>
      <trkpt lat="45.09405" lon="6.07152">
        <ele>1832.6</ele>
        <time>2020-08-05T10:41:37Z</time>
      </trkpt>
      <trkpt lat="45.09404" lon="6.07152">
        <ele>1832.6</ele>
        <time>2020-08-05T10:41:38Z</time>
      </trkpt>
      <trkpt lat="45.09404" lon="6.07152">
        <ele>1832.6</ele>
        <time>2020-08-05T10:41:39Z</time>
      </trkpt>
      <trkpt lat="45.09404" lon="6.07152">
        <ele>1832.6</ele>
        <time>2020-08-05T10:41:42Z</time>
      </trkpt>
      <trkpt lat="45.09404" lon="6.07152">
        <ele>1832.6</ele>
        <time>2020-08-05T10:41:44Z</time>
      </trkpt>
      <trkpt lat="45.09404" lon="6.07152">
        <ele>1832.6</ele>
        <time>2020-08-05T10:41:45Z</time>
      </trkpt>
      <trkpt lat="45.09404" lon="6.07152">
        <ele>1832.6</ele>
        <time>2020-08-05T10:41:47Z</time>
      </trkpt>
      <trkpt lat="45.09404" lon="6.07151">
        <ele>1832.6</ele>
        <time>2020-08-05T10:41:49Z</time>
      </trkpt>
      <trkpt lat="45.09396" lon="6.07147">
        <ele>1832.3</ele>
        <time>2020-08-05T10:44:33Z</time>
      </trkpt>
      <trkpt lat="45.09385" lon="6.07147">
        <ele>1832</ele>
        <time>2020-08-05T10:44:36Z</time>
      </trkpt>
      <trkpt lat="45.09387" lon="6.07145">
        <ele>1832</ele>
        <time>2020-08-05T10:44:38Z</time>
      </trkpt>
      <trkpt lat="45.09384" lon="6.07143">
        <ele>1831.9</ele>
        <time>2020-08-05T10:44:39Z</time>
      </trkpt>
      <trkpt lat="45.09376" lon="6.0714">
        <ele>1831.6</ele>
        <time>2020-08-05T10:44:40Z</time>
      </trkpt>
      <trkpt lat="45.0937" lon="6.07139">
        <ele>1831.5</ele>
        <time>2020-08-05T10:44:41Z</time>
      </trkpt>
      <trkpt lat="45.09358" lon="6.07141">
        <ele>1830.7</ele>
        <time>2020-08-05T10:44:44Z</time>
      </trkpt>
      <trkpt lat="45.09346" lon="6.07147">
        <ele>1829.7</ele>
        <time>2020-08-05T10:44:46Z</time>
      </trkpt>
      <trkpt lat="45.09339" lon="6.0715">
        <ele>1829.1</ele>
        <time>2020-08-05T10:44:47Z</time>
      </trkpt>
      <trkpt lat="45.09325" lon="6.07159">
        <ele>1828</ele>
        <time>2020-08-05T10:44:49Z</time>
      </trkpt>
      <trkpt lat="45.0931" lon="6.07168">
        <ele>1826.9</ele>
        <time>2020-08-05T10:44:51Z</time>
      </trkpt>
      <trkpt lat="45.09297" lon="6.07175">
        <ele>1826</ele>
        <time>2020-08-05T10:44:53Z</time>
      </trkpt>
      <trkpt lat="45.09287" lon="6.0718">
        <ele>1825.3</ele>
        <time>2020-08-05T10:44:55Z</time>
      </trkpt>
      <trkpt lat="45.09276" lon="6.07184">
        <ele>1824.9</ele>
        <time>2020-08-05T10:44:57Z</time>
      </trkpt>
      <trkpt lat="45.09264" lon="6.07187">
        <ele>1824.8</ele>
        <time>2020-08-05T10:44:59Z</time>
      </trkpt>
      <trkpt lat="45.09258" lon="6.07188">
        <ele>1824.8</ele>
        <time>2020-08-05T10:45:00Z</time>
      </trkpt>
      <trkpt lat="45.09249" lon="6.07197">
        <ele>1823.3</ele>
        <time>2020-08-05T10:45:02Z</time>
      </trkpt>
      <trkpt lat="45.09245" lon="6.07203">
        <ele>1822.9</ele>
        <time>2020-08-05T10:45:03Z</time>
      </trkpt>
      <trkpt lat="45.09237" lon="6.07218">
        <ele>1821.8</ele>
        <time>2020-08-05T10:45:05Z</time>
      </trkpt>
      <trkpt lat="45.09226" lon="6.07232">
        <ele>1820.7</ele>
        <time>2020-08-05T10:45:07Z</time>
      </trkpt>
      <trkpt lat="45.0922" lon="6.07237">
        <ele>1820.1</ele>
        <time>2020-08-05T10:45:08Z</time>
      </trkpt>
      <trkpt lat="45.09208" lon="6.0725">
        <ele>1818.8</ele>
        <time>2020-08-05T10:45:10Z</time>
      </trkpt>
      <trkpt lat="45.09196" lon="6.07263">
        <ele>1817.5</ele>
        <time>2020-08-05T10:45:12Z</time>
      </trkpt>
      <trkpt lat="45.09183" lon="6.07276">
        <ele>1816.2</ele>
        <time>2020-08-05T10:45:14Z</time>
      </trkpt>
      <trkpt lat="45.09169" lon="6.07289">
        <ele>1814.9</ele>
        <time>2020-08-05T10:45:16Z</time>
      </trkpt>
      <trkpt lat="45.09162" lon="6.07296">
        <ele>1814.2</ele>
        <time>2020-08-05T10:45:17Z</time>
      </trkpt>
      <trkpt lat="45.09155" lon="6.07303">
        <ele>1813.5</ele>
        <time>2020-08-05T10:45:18Z</time>
      </trkpt>
      <trkpt lat="45.09149" lon="6.0731">
        <ele>1812.9</ele>
        <time>2020-08-05T10:45:19Z</time>
      </trkpt>
      <trkpt lat="45.09136" lon="6.07323">
        <ele>1811.4</ele>
        <time>2020-08-05T10:45:21Z</time>
      </trkpt>
      <trkpt lat="45.09129" lon="6.0733">
        <ele>1810.5</ele>
        <time>2020-08-05T10:45:22Z</time>
      </trkpt>
      <trkpt lat="45.09116" lon="6.07344">
        <ele>1809.2</ele>
        <time>2020-08-05T10:45:24Z</time>
      </trkpt>
      <trkpt lat="45.09101" lon="6.07359">
        <ele>1807.7</ele>
        <time>2020-08-05T10:45:26Z</time>
      </trkpt>
      <trkpt lat="45.09094" lon="6.07367">
        <ele>1807.2</ele>
        <time>2020-08-05T10:45:27Z</time>
      </trkpt>
      <trkpt lat="45.0908" lon="6.07379">
        <ele>1806.5</ele>
        <time>2020-08-05T10:45:29Z</time>
      </trkpt>
      <trkpt lat="45.09064" lon="6.07385">
        <ele>1806.2</ele>
        <time>2020-08-05T10:45:31Z</time>
      </trkpt>
      <trkpt lat="45.09057" lon="6.07385">
        <ele>1806.2</ele>
        <time>2020-08-05T10:45:32Z</time>
      </trkpt>
      <trkpt lat="45.09044" lon="6.07382">
        <ele>1806.2</ele>
        <time>2020-08-05T10:45:34Z</time>
      </trkpt>
      <trkpt lat="45.09038" lon="6.07379">
        <ele>1806.3</ele>
        <time>2020-08-05T10:45:35Z</time>
      </trkpt>
      <trkpt lat="45.09027" lon="6.07373">
        <ele>1805.7</ele>
        <time>2020-08-05T10:45:37Z</time>
      </trkpt>
      <trkpt lat="45.09021" lon="6.07372">
        <ele>1805.2</ele>
        <time>2020-08-05T10:45:38Z</time>
      </trkpt>
      <trkpt lat="45.0901" lon="6.07374">
        <ele>1804.5</ele>
        <time>2020-08-05T10:45:40Z</time>
      </trkpt>
      <trkpt lat="45.08999" lon="6.07378">
        <ele>1803.7</ele>
        <time>2020-08-05T10:45:42Z</time>
      </trkpt>
      <trkpt lat="45.08989" lon="6.07382">
        <ele>1802.9</ele>
        <time>2020-08-05T10:45:44Z</time>
      </trkpt>
      <trkpt lat="45.08984" lon="6.07385">
        <ele>1802.4</ele>
        <time>2020-08-05T10:45:45Z</time>
      </trkpt>
      <trkpt lat="45.08973" lon="6.07393">
        <ele>1801.3</ele>
        <time>2020-08-05T10:45:47Z</time>
      </trkpt>
      <trkpt lat="45.08969" lon="6.07397">
        <ele>1800.8</ele>
        <time>2020-08-05T10:45:48Z</time>
      </trkpt>
      <trkpt lat="45.08966" lon="6.074">
        <ele>1800.4</ele>
        <time>2020-08-05T10:45:49Z</time>
      </trkpt>
      <trkpt lat="45.08962" lon="6.07403">
        <ele>1799.9</ele>
        <time>2020-08-05T10:45:50Z</time>
      </trkpt>
      <trkpt lat="45.08954" lon="6.07414">
        <ele>1799.2</ele>
        <time>2020-08-05T10:45:52Z</time>
      </trkpt>
      <trkpt lat="45.08951" lon="6.07421">
        <ele>1798.7</ele>
        <time>2020-08-05T10:45:53Z</time>
      </trkpt>
      <trkpt lat="45.08947" lon="6.07429">
        <ele>1798.2</ele>
        <time>2020-08-05T10:45:54Z</time>
      </trkpt>
      <trkpt lat="45.0894" lon="6.07447">
        <ele>1797.2</ele>
        <time>2020-08-05T10:45:56Z</time>
      </trkpt>
      <trkpt lat="45.08937" lon="6.07456">
        <ele>1796.6</ele>
        <time>2020-08-05T10:45:57Z</time>
      </trkpt>
      <trkpt lat="45.08933" lon="6.07465">
        <ele>1796.1</ele>
        <time>2020-08-05T10:45:58Z</time>
      </trkpt>
      <trkpt lat="45.08926" lon="6.0748">
        <ele>1795.1</ele>
        <time>2020-08-05T10:46:00Z</time>
      </trkpt>
      <trkpt lat="45.08921" lon="6.07486">
        <ele>1794.5</ele>
        <time>2020-08-05T10:46:01Z</time>
      </trkpt>
      <trkpt lat="45.0891" lon="6.07494">
        <ele>1793.9</ele>
        <time>2020-08-05T10:46:03Z</time>
      </trkpt>
      <trkpt lat="45.08904" lon="6.07495">
        <ele>1793.7</ele>
        <time>2020-08-05T10:46:04Z</time>
      </trkpt>
      <trkpt lat="45.08893" lon="6.07496">
        <ele>1793</ele>
        <time>2020-08-05T10:46:06Z</time>
      </trkpt>
      <trkpt lat="45.08884" lon="6.07495">
        <ele>1792.2</ele>
        <time>2020-08-05T10:46:08Z</time>
      </trkpt>
      <trkpt lat="45.08879" lon="6.07492">
        <ele>1791.8</ele>
        <time>2020-08-05T10:46:09Z</time>
      </trkpt>
      <trkpt lat="45.08871" lon="6.07483">
        <ele>1791</ele>
        <time>2020-08-05T10:46:11Z</time>
      </trkpt>
      <trkpt lat="45.08867" lon="6.07478">
        <ele>1790.6</ele>
        <time>2020-08-05T10:46:12Z</time>
      </trkpt>
      <trkpt lat="45.08863" lon="6.07471">
        <ele>1790</ele>
        <time>2020-08-05T10:46:14Z</time>
      </trkpt>
      <trkpt lat="45.0886" lon="6.07466">
        <ele>1789.6</ele>
        <time>2020-08-05T10:46:15Z</time>
      </trkpt>
      <trkpt lat="45.08855" lon="6.07455">
        <ele>1788.8</ele>
        <time>2020-08-05T10:46:17Z</time>
      </trkpt>
      <trkpt lat="45.0885" lon="6.07442">
        <ele>1787.8</ele>
        <time>2020-08-05T10:46:19Z</time>
      </trkpt>
      <trkpt lat="45.08844" lon="6.07429">
        <ele>1786.7</ele>
        <time>2020-08-05T10:46:21Z</time>
      </trkpt>
      <trkpt lat="45.08837" lon="6.07417">
        <ele>1785.5</ele>
        <time>2020-08-05T10:46:23Z</time>
      </trkpt>
      <trkpt lat="45.08833" lon="6.0741">
        <ele>1785</ele>
        <time>2020-08-05T10:46:24Z</time>
      </trkpt>
      <trkpt lat="45.0883" lon="6.07404">
        <ele>1784.5</ele>
        <time>2020-08-05T10:46:25Z</time>
      </trkpt>
      <trkpt lat="45.08823" lon="6.07392">
        <ele>1783.4</ele>
        <time>2020-08-05T10:46:27Z</time>
      </trkpt>
      <trkpt lat="45.08819" lon="6.07386">
        <ele>1782.8</ele>
        <time>2020-08-05T10:46:28Z</time>
      </trkpt>
      <trkpt lat="45.0881" lon="6.07374">
        <ele>1781.5</ele>
        <time>2020-08-05T10:46:30Z</time>
      </trkpt>
      <trkpt lat="45.088" lon="6.07363">
        <ele>1780</ele>
        <time>2020-08-05T10:46:32Z</time>
      </trkpt>
      <trkpt lat="45.08791" lon="6.07353">
        <ele>1778.7</ele>
        <time>2020-08-05T10:46:34Z</time>
      </trkpt>
      <trkpt lat="45.08779" lon="6.07343">
        <ele>1777.2</ele>
        <time>2020-08-05T10:46:36Z</time>
      </trkpt>
      <trkpt lat="45.08773" lon="6.07338">
        <ele>1776.4</ele>
        <time>2020-08-05T10:46:37Z</time>
      </trkpt>
      <trkpt lat="45.08758" lon="6.07328">
        <ele>1774.7</ele>
        <time>2020-08-05T10:46:39Z</time>
      </trkpt>
      <trkpt lat="45.0875" lon="6.07323">
        <ele>1773.8</ele>
        <time>2020-08-05T10:46:40Z</time>
      </trkpt>
      <trkpt lat="45.08733" lon="6.07309">
        <ele>1771.9</ele>
        <time>2020-08-05T10:46:42Z</time>
      </trkpt>
      <trkpt lat="45.08715" lon="6.07294">
        <ele>1770</ele>
        <time>2020-08-05T10:46:44Z</time>
      </trkpt>
      <trkpt lat="45.08704" lon="6.07287">
        <ele>1769</ele>
        <time>2020-08-05T10:46:45Z</time>
      </trkpt>
      <trkpt lat="45.08693" lon="6.0728">
        <ele>1768</ele>
        <time>2020-08-05T10:46:46Z</time>
      </trkpt>
      <trkpt lat="45.08673" lon="6.07265">
        <ele>1765.8</ele>
        <time>2020-08-05T10:46:48Z</time>
      </trkpt>
      <trkpt lat="45.08665" lon="6.07253">
        <ele>1764.5</ele>
        <time>2020-08-05T10:46:49Z</time>
      </trkpt>
      <trkpt lat="45.08658" lon="6.07239">
        <ele>1763.3</ele>
        <time>2020-08-05T10:46:50Z</time>
      </trkpt>
      <trkpt lat="45.08645" lon="6.07211">
        <ele>1761.1</ele>
        <time>2020-08-05T10:46:52Z</time>
      </trkpt>
      <trkpt lat="45.08638" lon="6.072">
        <ele>1760.3</ele>
        <time>2020-08-05T10:46:53Z</time>
      </trkpt>
      <trkpt lat="45.08623" lon="6.07184">
        <ele>1759</ele>
        <time>2020-08-05T10:46:55Z</time>
      </trkpt>
      <trkpt lat="45.08604" lon="6.07175">
        <ele>1758.1</ele>
        <time>2020-08-05T10:46:57Z</time>
      </trkpt>
      <trkpt lat="45.08588" lon="6.07171">
        <ele>1757.5</ele>
        <time>2020-08-05T10:46:59Z</time>
      </trkpt>
      <trkpt lat="45.08583" lon="6.07168">
        <ele>1757.2</ele>
        <time>2020-08-05T10:47:00Z</time>
      </trkpt>
      <trkpt lat="45.08578" lon="6.07162">
        <ele>1756.8</ele>
        <time>2020-08-05T10:47:01Z</time>
      </trkpt>
      <trkpt lat="45.08576" lon="6.07144">
        <ele>1755.5</ele>
        <time>2020-08-05T10:47:03Z</time>
      </trkpt>
      <trkpt lat="45.08584" lon="6.07124">
        <ele>1753.6</ele>
        <time>2020-08-05T10:47:05Z</time>
      </trkpt>
      <trkpt lat="45.08589" lon="6.07113">
        <ele>1752.6</ele>
        <time>2020-08-05T10:47:06Z</time>
      </trkpt>
      <trkpt lat="45.08592" lon="6.07102">
        <ele>1751.6</ele>
        <time>2020-08-05T10:47:07Z</time>
      </trkpt>
      <trkpt lat="45.08594" lon="6.07076">
        <ele>1749.7</ele>
        <time>2020-08-05T10:47:09Z</time>
      </trkpt>
      <trkpt lat="45.08592" lon="6.07048">
        <ele>1747.9</ele>
        <time>2020-08-05T10:47:11Z</time>
      </trkpt>
      <trkpt lat="45.08587" lon="6.0702">
        <ele>1746.1</ele>
        <time>2020-08-05T10:47:13Z</time>
      </trkpt>
      <trkpt lat="45.08579" lon="6.06993">
        <ele>1744.1</ele>
        <time>2020-08-05T10:47:15Z</time>
      </trkpt>
      <trkpt lat="45.08574" lon="6.06979">
        <ele>1743.2</ele>
        <time>2020-08-05T10:47:16Z</time>
      </trkpt>
      <trkpt lat="45.08562" lon="6.06952">
        <ele>1741.3</ele>
        <time>2020-08-05T10:47:18Z</time>
      </trkpt>
      <trkpt lat="45.08545" lon="6.0693">
        <ele>1739.4</ele>
        <time>2020-08-05T10:47:20Z</time>
      </trkpt>
      <trkpt lat="45.08536" lon="6.06919">
        <ele>1738.4</ele>
        <time>2020-08-05T10:47:21Z</time>
      </trkpt>
      <trkpt lat="45.08517" lon="6.06896">
        <ele>1736.4</ele>
        <time>2020-08-05T10:47:23Z</time>
      </trkpt>
      <trkpt lat="45.08506" lon="6.06886">
        <ele>1735.4</ele>
        <time>2020-08-05T10:47:24Z</time>
      </trkpt>
      <trkpt lat="45.08496" lon="6.06877">
        <ele>1734.4</ele>
        <time>2020-08-05T10:47:25Z</time>
      </trkpt>
      <trkpt lat="45.08477" lon="6.06855">
        <ele>1732.6</ele>
        <time>2020-08-05T10:47:27Z</time>
      </trkpt>
      <trkpt lat="45.08469" lon="6.06843">
        <ele>1731.9</ele>
        <time>2020-08-05T10:47:28Z</time>
      </trkpt>
      <trkpt lat="45.08458" lon="6.06815">
        <ele>1730.5</ele>
        <time>2020-08-05T10:47:30Z</time>
      </trkpt>
      <trkpt lat="45.08456" lon="6.06799">
        <ele>1729.5</ele>
        <time>2020-08-05T10:47:31Z</time>
      </trkpt>
      <trkpt lat="45.08457" lon="6.06781">
        <ele>1728.3</ele>
        <time>2020-08-05T10:47:32Z</time>
      </trkpt>
      <trkpt lat="45.08467" lon="6.06747">
        <ele>1725.5</ele>
        <time>2020-08-05T10:47:34Z</time>
      </trkpt>
      <trkpt lat="45.08483" lon="6.06719">
        <ele>1722.9</ele>
        <time>2020-08-05T10:47:36Z</time>
      </trkpt>
      <trkpt lat="45.08494" lon="6.06708">
        <ele>1721.6</ele>
        <time>2020-08-05T10:47:37Z</time>
      </trkpt>
      <trkpt lat="45.08519" lon="6.06692">
        <ele>1719</ele>
        <time>2020-08-05T10:47:39Z</time>
      </trkpt>
      <trkpt lat="45.08539" lon="6.06665">
        <ele>1716.7</ele>
        <time>2020-08-05T10:47:41Z</time>
      </trkpt>
      <trkpt lat="45.08544" lon="6.06647">
        <ele>1715.4</ele>
        <time>2020-08-05T10:47:42Z</time>
      </trkpt>
      <trkpt lat="45.08551" lon="6.06609">
        <ele>1713</ele>
        <time>2020-08-05T10:47:44Z</time>
      </trkpt>
      <trkpt lat="45.08555" lon="6.0659">
        <ele>1712</ele>
        <time>2020-08-05T10:47:45Z</time>
      </trkpt>
      <trkpt lat="45.08565" lon="6.06551">
        <ele>1709.8</ele>
        <time>2020-08-05T10:47:47Z</time>
      </trkpt>
      <trkpt lat="45.08577" lon="6.06513">
        <ele>1707.2</ele>
        <time>2020-08-05T10:47:49Z</time>
      </trkpt>
      <trkpt lat="45.08583" lon="6.06494">
        <ele>1706.1</ele>
        <time>2020-08-05T10:47:50Z</time>
      </trkpt>
      <trkpt lat="45.08588" lon="6.06456">
        <ele>1703.6</ele>
        <time>2020-08-05T10:47:52Z</time>
      </trkpt>
      <trkpt lat="45.08588" lon="6.06417">
        <ele>1701</ele>
        <time>2020-08-05T10:47:54Z</time>
      </trkpt>
      <trkpt lat="45.08592" lon="6.06397">
        <ele>1699.7</ele>
        <time>2020-08-05T10:47:55Z</time>
      </trkpt>
      <trkpt lat="45.08598" lon="6.06379">
        <ele>1698.3</ele>
        <time>2020-08-05T10:47:56Z</time>
      </trkpt>
      <trkpt lat="45.08605" lon="6.06361">
        <ele>1696.9</ele>
        <time>2020-08-05T10:47:57Z</time>
      </trkpt>
      <trkpt lat="45.0862" lon="6.06326">
        <ele>1694.5</ele>
        <time>2020-08-05T10:47:59Z</time>
      </trkpt>
      <trkpt lat="45.08639" lon="6.06294">
        <ele>1691.5</ele>
        <time>2020-08-05T10:48:01Z</time>
      </trkpt>
      <trkpt lat="45.08662" lon="6.06267">
        <ele>1689</ele>
        <time>2020-08-05T10:48:03Z</time>
      </trkpt>
      <trkpt lat="45.08687" lon="6.06242">
        <ele>1687.2</ele>
        <time>2020-08-05T10:48:05Z</time>
      </trkpt>
      <trkpt lat="45.08699" lon="6.06234">
        <ele>1686.5</ele>
        <time>2020-08-05T10:48:06Z</time>
      </trkpt>
      <trkpt lat="45.08723" lon="6.06229">
        <ele>1685.4</ele>
        <time>2020-08-05T10:48:08Z</time>
      </trkpt>
      <trkpt lat="45.08733" lon="6.06228">
        <ele>1685.2</ele>
        <time>2020-08-05T10:48:09Z</time>
      </trkpt>
      <trkpt lat="45.08742" lon="6.06226">
        <ele>1685</ele>
        <time>2020-08-05T10:48:10Z</time>
      </trkpt>
      <trkpt lat="45.08752" lon="6.0621">
        <ele>1684.4</ele>
        <time>2020-08-05T10:48:12Z</time>
      </trkpt>
      <trkpt lat="45.08751" lon="6.06197">
        <ele>1684</ele>
        <time>2020-08-05T10:48:13Z</time>
      </trkpt>
      <trkpt lat="45.08745" lon="6.06188">
        <ele>1683.4</ele>
        <time>2020-08-05T10:48:14Z</time>
      </trkpt>
      <trkpt lat="45.08737" lon="6.06182">
        <ele>1682.6</ele>
        <time>2020-08-05T10:48:15Z</time>
      </trkpt>
      <trkpt lat="45.08718" lon="6.06189">
        <ele>1681.1</ele>
        <time>2020-08-05T10:48:17Z</time>
      </trkpt>
      <trkpt lat="45.08701" lon="6.062">
        <ele>1679.6</ele>
        <time>2020-08-05T10:48:19Z</time>
      </trkpt>
      <trkpt lat="45.08692" lon="6.06205">
        <ele>1678.7</ele>
        <time>2020-08-05T10:48:20Z</time>
      </trkpt>
      <trkpt lat="45.08683" lon="6.06211">
        <ele>1677.9</ele>
        <time>2020-08-05T10:48:21Z</time>
      </trkpt>
      <trkpt lat="45.08662" lon="6.06221">
        <ele>1676</ele>
        <time>2020-08-05T10:48:23Z</time>
      </trkpt>
      <trkpt lat="45.0865" lon="6.06226">
        <ele>1675</ele>
        <time>2020-08-05T10:48:24Z</time>
      </trkpt>
      <trkpt lat="45.08627" lon="6.06237">
        <ele>1672.9</ele>
        <time>2020-08-05T10:48:26Z</time>
      </trkpt>
      <trkpt lat="45.08603" lon="6.0625">
        <ele>1670.6</ele>
        <time>2020-08-05T10:48:28Z</time>
      </trkpt>
      <trkpt lat="45.08592" lon="6.0626">
        <ele>1669.4</ele>
        <time>2020-08-05T10:48:29Z</time>
      </trkpt>
      <trkpt lat="45.08571" lon="6.06283">
        <ele>1667</ele>
        <time>2020-08-05T10:48:31Z</time>
      </trkpt>
      <trkpt lat="45.08551" lon="6.06311">
        <ele>1664.6</ele>
        <time>2020-08-05T10:48:33Z</time>
      </trkpt>
      <trkpt lat="45.08533" lon="6.06342">
        <ele>1662</ele>
        <time>2020-08-05T10:48:35Z</time>
      </trkpt>
      <trkpt lat="45.08522" lon="6.06381">
        <ele>1659</ele>
        <time>2020-08-05T10:48:37Z</time>
      </trkpt>
      <trkpt lat="45.08516" lon="6.064">
        <ele>1657.6</ele>
        <time>2020-08-05T10:48:38Z</time>
      </trkpt>
      <trkpt lat="45.08501" lon="6.06437">
        <ele>1654.9</ele>
        <time>2020-08-05T10:48:40Z</time>
      </trkpt>
      <trkpt lat="45.08492" lon="6.06455">
        <ele>1653.8</ele>
        <time>2020-08-05T10:48:41Z</time>
      </trkpt>
      <trkpt lat="45.08484" lon="6.06473">
        <ele>1652.7</ele>
        <time>2020-08-05T10:48:42Z</time>
      </trkpt>
      <trkpt lat="45.08468" lon="6.0651">
        <ele>1651</ele>
        <time>2020-08-05T10:48:44Z</time>
      </trkpt>
      <trkpt lat="45.08459" lon="6.06544">
        <ele>1650.2</ele>
        <time>2020-08-05T10:48:46Z</time>
      </trkpt>
      <trkpt lat="45.08456" lon="6.06561">
        <ele>1650</ele>
        <time>2020-08-05T10:48:47Z</time>
      </trkpt>
      <trkpt lat="45.08449" lon="6.06586">
        <ele>1649.8</ele>
        <time>2020-08-05T10:48:49Z</time>
      </trkpt>
      <trkpt lat="45.08434" lon="6.0659">
        <ele>1649.2</ele>
        <time>2020-08-05T10:48:51Z</time>
      </trkpt>
      <trkpt lat="45.08427" lon="6.06581">
        <ele>1648.6</ele>
        <time>2020-08-05T10:48:52Z</time>
      </trkpt>
      <trkpt lat="45.08427" lon="6.06558">
        <ele>1647.3</ele>
        <time>2020-08-05T10:48:54Z</time>
      </trkpt>
      <trkpt lat="45.08439" lon="6.06538">
        <ele>1645.6</ele>
        <time>2020-08-05T10:48:56Z</time>
      </trkpt>
      <trkpt lat="45.08451" lon="6.06514">
        <ele>1643.8</ele>
        <time>2020-08-05T10:48:58Z</time>
      </trkpt>
      <trkpt lat="45.0846" lon="6.06487">
        <ele>1641.8</ele>
        <time>2020-08-05T10:49:00Z</time>
      </trkpt>
      <trkpt lat="45.08466" lon="6.06454">
        <ele>1639.6</ele>
        <time>2020-08-05T10:49:02Z</time>
      </trkpt>
      <trkpt lat="45.08469" lon="6.06437">
        <ele>1638.4</ele>
        <time>2020-08-05T10:49:03Z</time>
      </trkpt>
      <trkpt lat="45.08476" lon="6.06402">
        <ele>1635.8</ele>
        <time>2020-08-05T10:49:05Z</time>
      </trkpt>
      <trkpt lat="45.08478" lon="6.06383">
        <ele>1634.4</ele>
        <time>2020-08-05T10:49:06Z</time>
      </trkpt>
      <trkpt lat="45.0848" lon="6.06363">
        <ele>1632.9</ele>
        <time>2020-08-05T10:49:07Z</time>
      </trkpt>
      <trkpt lat="45.08482" lon="6.06323">
        <ele>1630.1</ele>
        <time>2020-08-05T10:49:09Z</time>
      </trkpt>
      <trkpt lat="45.08488" lon="6.06283">
        <ele>1628.2</ele>
        <time>2020-08-05T10:49:11Z</time>
      </trkpt>
      <trkpt lat="45.08493" lon="6.06262">
        <ele>1627</ele>
        <time>2020-08-05T10:49:12Z</time>
      </trkpt>
      <trkpt lat="45.08497" lon="6.06242">
        <ele>1625.5</ele>
        <time>2020-08-05T10:49:13Z</time>
      </trkpt>
      <trkpt lat="45.085" lon="6.06221">
        <ele>1624</ele>
        <time>2020-08-05T10:49:14Z</time>
      </trkpt>
      <trkpt lat="45.08508" lon="6.06181">
        <ele>1621.4</ele>
        <time>2020-08-05T10:49:16Z</time>
      </trkpt>
      <trkpt lat="45.08516" lon="6.06163">
        <ele>1619.9</ele>
        <time>2020-08-05T10:49:17Z</time>
      </trkpt>
      <trkpt lat="45.08525" lon="6.06147">
        <ele>1618.3</ele>
        <time>2020-08-05T10:49:18Z</time>
      </trkpt>
      <trkpt lat="45.08547" lon="6.06115">
        <ele>1615.1</ele>
        <time>2020-08-05T10:49:20Z</time>
      </trkpt>
      <trkpt lat="45.08558" lon="6.06098">
        <ele>1613.6</ele>
        <time>2020-08-05T10:49:21Z</time>
      </trkpt>
      <trkpt lat="45.08568" lon="6.06081">
        <ele>1612</ele>
        <time>2020-08-05T10:49:22Z</time>
      </trkpt>
      <trkpt lat="45.08586" lon="6.06045">
        <ele>1609.5</ele>
        <time>2020-08-05T10:49:24Z</time>
      </trkpt>
      <trkpt lat="45.08602" lon="6.0601">
        <ele>1608.5</ele>
        <time>2020-08-05T10:49:26Z</time>
      </trkpt>
      <trkpt lat="45.08616" lon="6.05981">
        <ele>1605.9</ele>
        <time>2020-08-05T10:49:28Z</time>
      </trkpt>
      <trkpt lat="45.08623" lon="6.05969">
        <ele>1604.6</ele>
        <time>2020-08-05T10:49:29Z</time>
      </trkpt>
      <trkpt lat="45.0864" lon="6.0595">
        <ele>1602.4</ele>
        <time>2020-08-05T10:49:31Z</time>
      </trkpt>
      <trkpt lat="45.08649" lon="6.05942">
        <ele>1601.4</ele>
        <time>2020-08-05T10:49:32Z</time>
      </trkpt>
      <trkpt lat="45.08664" lon="6.05929">
        <ele>1600</ele>
        <time>2020-08-05T10:49:34Z</time>
      </trkpt>
      <trkpt lat="45.08669" lon="6.05922">
        <ele>1599.5</ele>
        <time>2020-08-05T10:49:35Z</time>
      </trkpt>
      <trkpt lat="45.08672" lon="6.05913">
        <ele>1599</ele>
        <time>2020-08-05T10:49:36Z</time>
      </trkpt>
      <trkpt lat="45.0867" lon="6.05894">
        <ele>1598.1</ele>
        <time>2020-08-05T10:49:38Z</time>
      </trkpt>
      <trkpt lat="45.08667" lon="6.05887">
        <ele>1597.6</ele>
        <time>2020-08-05T10:49:39Z</time>
      </trkpt>
      <trkpt lat="45.08664" lon="6.05881">
        <ele>1597.2</ele>
        <time>2020-08-05T10:49:40Z</time>
      </trkpt>
      <trkpt lat="45.0866" lon="6.05877">
        <ele>1596.4</ele>
        <time>2020-08-05T10:49:41Z</time>
      </trkpt>
      <trkpt lat="45.0865" lon="6.05875">
        <ele>1592.2</ele>
        <time>2020-08-05T10:49:43Z</time>
      </trkpt>
      <trkpt lat="45.08638" lon="6.05882">
        <ele>1591.9</ele>
        <time>2020-08-05T10:49:45Z</time>
      </trkpt>
      <trkpt lat="45.08624" lon="6.05896">
        <ele>1589.7</ele>
        <time>2020-08-05T10:49:47Z</time>
      </trkpt>
      <trkpt lat="45.0861" lon="6.05913">
        <ele>1587.6</ele>
        <time>2020-08-05T10:49:49Z</time>
      </trkpt>
      <trkpt lat="45.08594" lon="6.0593">
        <ele>1585.5</ele>
        <time>2020-08-05T10:49:51Z</time>
      </trkpt>
      <trkpt lat="45.08577" lon="6.05948">
        <ele>1583.8</ele>
        <time>2020-08-05T10:49:53Z</time>
      </trkpt>
      <trkpt lat="45.0857" lon="6.05956">
        <ele>1583.2</ele>
        <time>2020-08-05T10:49:54Z</time>
      </trkpt>
      <trkpt lat="45.08564" lon="6.05962">
        <ele>1582.8</ele>
        <time>2020-08-05T10:49:55Z</time>
      </trkpt>
      <trkpt lat="45.08554" lon="6.0597">
        <ele>1582.2</ele>
        <time>2020-08-05T10:49:57Z</time>
      </trkpt>
      <trkpt lat="45.08549" lon="6.05973">
        <ele>1581.8</ele>
        <time>2020-08-05T10:49:58Z</time>
      </trkpt>
      <trkpt lat="45.08539" lon="6.05979">
        <ele>1581</ele>
        <time>2020-08-05T10:50:00Z</time>
      </trkpt>
      <trkpt lat="45.08534" lon="6.05982">
        <ele>1580.6</ele>
        <time>2020-08-05T10:50:01Z</time>
      </trkpt>
      <trkpt lat="45.08522" lon="6.0599">
        <ele>1580</ele>
        <time>2020-08-05T10:50:03Z</time>
      </trkpt>
      <trkpt lat="45.08508" lon="6.05998">
        <ele>1579.5</ele>
        <time>2020-08-05T10:50:05Z</time>
      </trkpt>
      <trkpt lat="45.08502" lon="6.06001">
        <ele>1578.9</ele>
        <time>2020-08-05T10:50:06Z</time>
      </trkpt>
      <trkpt lat="45.08488" lon="6.06008">
        <ele>1577.1</ele>
        <time>2020-08-05T10:50:08Z</time>
      </trkpt>
      <trkpt lat="45.08481" lon="6.0601">
        <ele>1576.1</ele>
        <time>2020-08-05T10:50:09Z</time>
      </trkpt>
      <trkpt lat="45.08473" lon="6.06013">
        <ele>1575</ele>
        <time>2020-08-05T10:50:10Z</time>
      </trkpt>
      <trkpt lat="45.08456" lon="6.06017">
        <ele>1572.3</ele>
        <time>2020-08-05T10:50:12Z</time>
      </trkpt>
      <trkpt lat="45.08446" lon="6.06019">
        <ele>1571.4</ele>
        <time>2020-08-05T10:50:13Z</time>
      </trkpt>
      <trkpt lat="45.08426" lon="6.06027">
        <ele>1569.5</ele>
        <time>2020-08-05T10:50:15Z</time>
      </trkpt>
      <trkpt lat="45.08416" lon="6.06033">
        <ele>1568.5</ele>
        <time>2020-08-05T10:50:16Z</time>
      </trkpt>
      <trkpt lat="45.08397" lon="6.06051">
        <ele>1566.6</ele>
        <time>2020-08-05T10:50:18Z</time>
      </trkpt>
      <trkpt lat="45.08384" lon="6.06075">
        <ele>1564.7</ele>
        <time>2020-08-05T10:50:20Z</time>
      </trkpt>
      <trkpt lat="45.08373" lon="6.06102">
        <ele>1562.6</ele>
        <time>2020-08-05T10:50:22Z</time>
      </trkpt>
      <trkpt lat="45.08362" lon="6.06131">
        <ele>1560.7</ele>
        <time>2020-08-05T10:50:24Z</time>
      </trkpt>
      <trkpt lat="45.08357" lon="6.06158">
        <ele>1559</ele>
        <time>2020-08-05T10:50:26Z</time>
      </trkpt>
      <trkpt lat="45.08356" lon="6.06184">
        <ele>1557.3</ele>
        <time>2020-08-05T10:50:28Z</time>
      </trkpt>
      <trkpt lat="45.08356" lon="6.06196">
        <ele>1556.7</ele>
        <time>2020-08-05T10:50:29Z</time>
      </trkpt>
      <trkpt lat="45.08357" lon="6.06206">
        <ele>1556.3</ele>
        <time>2020-08-05T10:50:30Z</time>
      </trkpt>
      <trkpt lat="45.08357" lon="6.06214">
        <ele>1555.9</ele>
        <time>2020-08-05T10:50:31Z</time>
      </trkpt>
      <trkpt lat="45.08358" lon="6.06224">
        <ele>1555.6</ele>
        <time>2020-08-05T10:50:33Z</time>
      </trkpt>
      <trkpt lat="45.08361" lon="6.06234">
        <ele>1555.3</ele>
        <time>2020-08-05T10:50:35Z</time>
      </trkpt>
      <trkpt lat="45.08363" lon="6.0624">
        <ele>1555.2</ele>
        <time>2020-08-05T10:50:36Z</time>
      </trkpt>
      <trkpt lat="45.08364" lon="6.06251">
        <ele>1555</ele>
        <time>2020-08-05T10:50:38Z</time>
      </trkpt>
      <trkpt lat="45.08363" lon="6.06256">
        <ele>1554.8</ele>
        <time>2020-08-05T10:50:40Z</time>
      </trkpt>
      <trkpt lat="45.08361" lon="6.06257">
        <ele>1554.7</ele>
        <time>2020-08-05T10:50:41Z</time>
      </trkpt>
      <trkpt lat="45.0836" lon="6.06258">
        <ele>1554.7</ele>
        <time>2020-08-05T10:50:44Z</time>
      </trkpt>
      <trkpt lat="45.08361" lon="6.06258">
        <ele>1554.7</ele>
        <time>2020-08-05T10:50:46Z</time>
      </trkpt>
      <trkpt lat="45.08361" lon="6.06258">
        <ele>1554.7</ele>
        <time>2020-08-05T10:50:47Z</time>
      </trkpt>
      <trkpt lat="45.08361" lon="6.06258">
        <ele>1554.7</ele>
        <time>2020-08-05T10:50:49Z</time>
      </trkpt>
      <trkpt lat="45.0836" lon="6.06258">
        <ele>1554.7</ele>
        <time>2020-08-05T10:50:51Z</time>
      </trkpt>
      <trkpt lat="45.08354" lon="6.06254">
        <ele>1554.3</ele>
        <time>2020-08-05T10:53:06Z</time>
      </trkpt>
      <trkpt lat="45.08353" lon="6.06252">
        <ele>1554.2</ele>
        <time>2020-08-05T10:53:07Z</time>
      </trkpt>
      <trkpt lat="45.08352" lon="6.06244">
        <ele>1553.9</ele>
        <time>2020-08-05T10:53:09Z</time>
      </trkpt>
      <trkpt lat="45.08352" lon="6.0624">
        <ele>1553.6</ele>
        <time>2020-08-05T10:53:10Z</time>
      </trkpt>
      <trkpt lat="45.08352" lon="6.06233">
        <ele>1553.3</ele>
        <time>2020-08-05T10:53:11Z</time>
      </trkpt>
      <trkpt lat="45.08351" lon="6.06227">
        <ele>1552.9</ele>
        <time>2020-08-05T10:53:12Z</time>
      </trkpt>
      <trkpt lat="45.0835" lon="6.0621">
        <ele>1551.8</ele>
        <time>2020-08-05T10:53:14Z</time>
      </trkpt>
      <trkpt lat="45.08346" lon="6.0619">
        <ele>1550.4</ele>
        <time>2020-08-05T10:53:16Z</time>
      </trkpt>
      <trkpt lat="45.08341" lon="6.06167">
        <ele>1548.7</ele>
        <time>2020-08-05T10:53:18Z</time>
      </trkpt>
      <trkpt lat="45.08338" lon="6.06154">
        <ele>1547.8</ele>
        <time>2020-08-05T10:53:19Z</time>
      </trkpt>
      <trkpt lat="45.08332" lon="6.06127">
        <ele>1545.8</ele>
        <time>2020-08-05T10:53:21Z</time>
      </trkpt>
      <trkpt lat="45.0833" lon="6.06112">
        <ele>1544.6</ele>
        <time>2020-08-05T10:53:22Z</time>
      </trkpt>
      <trkpt lat="45.08323" lon="6.06081">
        <ele>1542.4</ele>
        <time>2020-08-05T10:53:24Z</time>
      </trkpt>
      <trkpt lat="45.0832" lon="6.06064">
        <ele>1541.2</ele>
        <time>2020-08-05T10:53:25Z</time>
      </trkpt>
      <trkpt lat="45.08314" lon="6.06033">
        <ele>1538.8</ele>
        <time>2020-08-05T10:53:27Z</time>
      </trkpt>
      <trkpt lat="45.08308" lon="6.06003">
        <ele>1535.9</ele>
        <time>2020-08-05T10:53:29Z</time>
      </trkpt>
      <trkpt lat="45.08305" lon="6.05971">
        <ele>1532.6</ele>
        <time>2020-08-05T10:53:31Z</time>
      </trkpt>
      <trkpt lat="45.08303" lon="6.05937">
        <ele>1529.2</ele>
        <time>2020-08-05T10:53:33Z</time>
      </trkpt>
      <trkpt lat="45.08302" lon="6.0592">
        <ele>1527.5</ele>
        <time>2020-08-05T10:53:34Z</time>
      </trkpt>
      <trkpt lat="45.08303" lon="6.05887">
        <ele>1523.9</ele>
        <time>2020-08-05T10:53:36Z</time>
      </trkpt>
      <trkpt lat="45.08305" lon="6.0587">
        <ele>1522.6</ele>
        <time>2020-08-05T10:53:37Z</time>
      </trkpt>
      <trkpt lat="45.08309" lon="6.05853">
        <ele>1521.4</ele>
        <time>2020-08-05T10:53:38Z</time>
      </trkpt>
      <trkpt lat="45.08321" lon="6.05823">
        <ele>1519</ele>
        <time>2020-08-05T10:53:40Z</time>
      </trkpt>
      <trkpt lat="45.08328" lon="6.05811">
        <ele>1517.9</ele>
        <time>2020-08-05T10:53:41Z</time>
      </trkpt>
      <trkpt lat="45.08342" lon="6.05793">
        <ele>1516.1</ele>
        <time>2020-08-05T10:53:43Z</time>
      </trkpt>
      <trkpt lat="45.08355" lon="6.05783">
        <ele>1514.7</ele>
        <time>2020-08-05T10:53:45Z</time>
      </trkpt>
      <trkpt lat="45.08361" lon="6.05779">
        <ele>1514.1</ele>
        <time>2020-08-05T10:53:46Z</time>
      </trkpt>
      <trkpt lat="45.08368" lon="6.05769">
        <ele>1513.4</ele>
        <time>2020-08-05T10:53:48Z</time>
      </trkpt>
      <trkpt lat="45.0837" lon="6.05762">
        <ele>1513</ele>
        <time>2020-08-05T10:53:49Z</time>
      </trkpt>
      <trkpt lat="45.08368" lon="6.05755">
        <ele>1512.6</ele>
        <time>2020-08-05T10:53:50Z</time>
      </trkpt>
      <trkpt lat="45.08357" lon="6.05747">
        <ele>1511.6</ele>
        <time>2020-08-05T10:53:52Z</time>
      </trkpt>
      <trkpt lat="45.08351" lon="6.05747">
        <ele>1511.1</ele>
        <time>2020-08-05T10:53:53Z</time>
      </trkpt>
      <trkpt lat="45.08337" lon="6.0575">
        <ele>1509.9</ele>
        <time>2020-08-05T10:53:55Z</time>
      </trkpt>
      <trkpt lat="45.0833" lon="6.05752">
        <ele>1509.2</ele>
        <time>2020-08-05T10:53:56Z</time>
      </trkpt>
      <trkpt lat="45.08322" lon="6.05754">
        <ele>1508.5</ele>
        <time>2020-08-05T10:53:57Z</time>
      </trkpt>
      <trkpt lat="45.08305" lon="6.05757">
        <ele>1506.9</ele>
        <time>2020-08-05T10:53:59Z</time>
      </trkpt>
      <trkpt lat="45.08295" lon="6.05757">
        <ele>1506.1</ele>
        <time>2020-08-05T10:54:00Z</time>
      </trkpt>
      <trkpt lat="45.08275" lon="6.05759">
        <ele>1504.3</ele>
        <time>2020-08-05T10:54:02Z</time>
      </trkpt>
      <trkpt lat="45.08265" lon="6.0576">
        <ele>1503.3</ele>
        <time>2020-08-05T10:54:03Z</time>
      </trkpt>
      <trkpt lat="45.08244" lon="6.05767">
        <ele>1501.3</ele>
        <time>2020-08-05T10:54:05Z</time>
      </trkpt>
      <trkpt lat="45.08228" lon="6.05785">
        <ele>1500.2</ele>
        <time>2020-08-05T10:54:07Z</time>
      </trkpt>
      <trkpt lat="45.08221" lon="6.0581">
        <ele>1500.4</ele>
        <time>2020-08-05T10:54:09Z</time>
      </trkpt>
      <trkpt lat="45.08219" lon="6.05824">
        <ele>1500.5</ele>
        <time>2020-08-05T10:54:10Z</time>
      </trkpt>
      <trkpt lat="45.08219" lon="6.05851">
        <ele>1501</ele>
        <time>2020-08-05T10:54:12Z</time>
      </trkpt>
      <trkpt lat="45.08219" lon="6.05877">
        <ele>1501.1</ele>
        <time>2020-08-05T10:54:14Z</time>
      </trkpt>
      <trkpt lat="45.08218" lon="6.059">
        <ele>1500.8</ele>
        <time>2020-08-05T10:54:16Z</time>
      </trkpt>
      <trkpt lat="45.08218" lon="6.05922">
        <ele>1500.3</ele>
        <time>2020-08-05T10:54:18Z</time>
      </trkpt>
      <trkpt lat="45.08218" lon="6.05932">
        <ele>1500.1</ele>
        <time>2020-08-05T10:54:19Z</time>
      </trkpt>
      <trkpt lat="45.08218" lon="6.0595">
        <ele>1499.7</ele>
        <time>2020-08-05T10:54:21Z</time>
      </trkpt>
      <trkpt lat="45.08217" lon="6.05957">
        <ele>1499.6</ele>
        <time>2020-08-05T10:54:22Z</time>
      </trkpt>
      <trkpt lat="45.08217" lon="6.05964">
        <ele>1499.5</ele>
        <time>2020-08-05T10:54:23Z</time>
      </trkpt>
      <trkpt lat="45.08214" lon="6.0597">
        <ele>1498.6</ele>
        <time>2020-08-05T10:54:25Z</time>
      </trkpt>
      <trkpt lat="45.08212" lon="6.0597">
        <ele>1498.5</ele>
        <time>2020-08-05T10:54:26Z</time>
      </trkpt>
      <trkpt lat="45.08209" lon="6.05965">
        <ele>1498.2</ele>
        <time>2020-08-05T10:54:28Z</time>
      </trkpt>
      <trkpt lat="45.08205" lon="6.05962">
        <ele>1497.9</ele>
        <time>2020-08-05T10:54:30Z</time>
      </trkpt>
      <trkpt lat="45.08204" lon="6.05963">
        <ele>1497.8</ele>
        <time>2020-08-05T10:54:31Z</time>
      </trkpt>
      <trkpt lat="45.08205" lon="6.05966">
        <ele>1497.6</ele>
        <time>2020-08-05T10:54:33Z</time>
      </trkpt>
      <trkpt lat="45.08205" lon="6.05965">
        <ele>1497.5</ele>
        <time>2020-08-05T10:54:35Z</time>
      </trkpt>
      <trkpt lat="45.08206" lon="6.05966">
        <ele>1497.5</ele>
        <time>2020-08-05T10:54:36Z</time>
      </trkpt>
      <trkpt lat="45.08206" lon="6.05966">
        <ele>1497.5</ele>
        <time>2020-08-05T10:54:37Z</time>
      </trkpt>
      <trkpt lat="45.08206" lon="6.05967">
        <ele>1497.4</ele>
        <time>2020-08-05T10:54:39Z</time>
      </trkpt>
      <trkpt lat="45.08207" lon="6.05969">
        <ele>1497.3</ele>
        <time>2020-08-05T10:54:40Z</time>
      </trkpt>
      <trkpt lat="45.08208" lon="6.0597">
        <ele>1497.3</ele>
        <time>2020-08-05T10:54:43Z</time>
      </trkpt>
      <trkpt lat="45.08209" lon="6.0597">
        <ele>1497.2</ele>
        <time>2020-08-05T10:54:45Z</time>
      </trkpt>
      <trkpt lat="45.08211" lon="6.05971">
        <ele>1497.1</ele>
        <time>2020-08-05T10:54:47Z</time>
      </trkpt>
      <trkpt lat="45.08211" lon="6.05971">
        <ele>1497.1</ele>
        <time>2020-08-05T10:54:50Z</time>
      </trkpt>
      <trkpt lat="45.08211" lon="6.05971">
        <ele>1497.1</ele>
        <time>2020-08-05T10:54:51Z</time>
      </trkpt>
      <trkpt lat="45.08212" lon="6.05971">
        <ele>1497.1</ele>
        <time>2020-08-05T10:54:53Z</time>
      </trkpt>
      <trkpt lat="45.0821" lon="6.05964">
        <ele>1496.8</ele>
        <time>2020-08-05T10:54:59Z</time>
      </trkpt>
      <trkpt lat="45.08207" lon="6.05946">
        <ele>1496.1</ele>
        <time>2020-08-05T10:55:02Z</time>
      </trkpt>
      <trkpt lat="45.08206" lon="6.05936">
        <ele>1495.7</ele>
        <time>2020-08-05T10:55:03Z</time>
      </trkpt>
      <trkpt lat="45.08203" lon="6.05926">
        <ele>1495.3</ele>
        <time>2020-08-05T10:55:04Z</time>
      </trkpt>
      <trkpt lat="45.08201" lon="6.05916">
        <ele>1495</ele>
        <time>2020-08-05T10:55:05Z</time>
      </trkpt>
      <trkpt lat="45.08196" lon="6.05894">
        <ele>1494.2</ele>
        <time>2020-08-05T10:55:07Z</time>
      </trkpt>
      <trkpt lat="45.08194" lon="6.05883">
        <ele>1493.8</ele>
        <time>2020-08-05T10:55:08Z</time>
      </trkpt>
      <trkpt lat="45.08186" lon="6.0586">
        <ele>1491.4</ele>
        <time>2020-08-05T10:55:10Z</time>
      </trkpt>
      <trkpt lat="45.08178" lon="6.05843">
        <ele>1489</ele>
        <time>2020-08-05T10:55:12Z</time>
      </trkpt>
      <trkpt lat="45.08174" lon="6.05834">
        <ele>1487.8</ele>
        <time>2020-08-05T10:55:13Z</time>
      </trkpt>
      <trkpt lat="45.0817" lon="6.05824">
        <ele>1486.6</ele>
        <time>2020-08-05T10:55:14Z</time>
      </trkpt>
      <trkpt lat="45.08164" lon="6.05804">
        <ele>1484.4</ele>
        <time>2020-08-05T10:55:16Z</time>
      </trkpt>
      <trkpt lat="45.08163" lon="6.05794">
        <ele>1483.9</ele>
        <time>2020-08-05T10:55:17Z</time>
      </trkpt>
      <trkpt lat="45.08163" lon="6.05784">
        <ele>1483.4</ele>
        <time>2020-08-05T10:55:18Z</time>
      </trkpt>
      <trkpt lat="45.08163" lon="6.05767">
        <ele>1481.8</ele>
        <time>2020-08-05T10:55:20Z</time>
      </trkpt>
      <trkpt lat="45.08163" lon="6.05761">
        <ele>1481.1</ele>
        <time>2020-08-05T10:55:21Z</time>
      </trkpt>
      <trkpt lat="45.08161" lon="6.0575">
        <ele>1479.8</ele>
        <time>2020-08-05T10:55:23Z</time>
      </trkpt>
      <trkpt lat="45.0816" lon="6.05741">
        <ele>1479</ele>
        <time>2020-08-05T10:55:25Z</time>
      </trkpt>
      <trkpt lat="45.08161" lon="6.05735">
        <ele>1478.7</ele>
        <time>2020-08-05T10:55:26Z</time>
      </trkpt>
      <trkpt lat="45.0817" lon="6.05717">
        <ele>1478.2</ele>
        <time>2020-08-05T10:55:28Z</time>
      </trkpt>
      <trkpt lat="45.08172" lon="6.05724">
        <ele>1478.3</ele>
        <time>2020-08-05T10:55:31Z</time>
      </trkpt>
      <trkpt lat="45.08177" lon="6.05705">
        <ele>1477.8</ele>
        <time>2020-08-05T10:55:34Z</time>
      </trkpt>
      <trkpt lat="45.08181" lon="6.05682">
        <ele>1477.2</ele>
        <time>2020-08-05T10:55:36Z</time>
      </trkpt>
      <trkpt lat="45.08185" lon="6.05674">
        <ele>1477</ele>
        <time>2020-08-05T10:55:38Z</time>
      </trkpt>
      <trkpt lat="45.08188" lon="6.05671">
        <ele>1476.8</ele>
        <time>2020-08-05T10:55:40Z</time>
      </trkpt>
      <trkpt lat="45.0819" lon="6.05669">
        <ele>1476.7</ele>
        <time>2020-08-05T10:55:41Z</time>
      </trkpt>
      <trkpt lat="45.08196" lon="6.05665">
        <ele>1476.3</ele>
        <time>2020-08-05T10:55:43Z</time>
      </trkpt>
      <trkpt lat="45.08198" lon="6.05662">
        <ele>1476.2</ele>
        <time>2020-08-05T10:55:44Z</time>
      </trkpt>
      <trkpt lat="45.08199" lon="6.05653">
        <ele>1475.9</ele>
        <time>2020-08-05T10:55:45Z</time>
      </trkpt>
      <trkpt lat="45.08201" lon="6.05642">
        <ele>1475.5</ele>
        <time>2020-08-05T10:55:46Z</time>
      </trkpt>
      <trkpt lat="45.08203" lon="6.0564">
        <ele>1475.8</ele>
        <time>2020-08-05T10:55:48Z</time>
      </trkpt>
      <trkpt lat="45.08204" lon="6.05639">
        <ele>1475.9</ele>
        <time>2020-08-05T10:55:49Z</time>
      </trkpt>
      <trkpt lat="45.08207" lon="6.05638">
        <ele>1476.3</ele>
        <time>2020-08-05T10:55:51Z</time>
      </trkpt>
      <trkpt lat="45.08209" lon="6.05637">
        <ele>1476.5</ele>
        <time>2020-08-05T10:55:52Z</time>
      </trkpt>
      <trkpt lat="45.08213" lon="6.05637">
        <ele>1477.1</ele>
        <time>2020-08-05T10:55:54Z</time>
      </trkpt>
      <trkpt lat="45.08216" lon="6.05638">
        <ele>1477.5</ele>
        <time>2020-08-05T10:55:55Z</time>
      </trkpt>
      <trkpt lat="45.08231" lon="6.05636">
        <ele>1479.3</ele>
        <time>2020-08-05T10:55:57Z</time>
      </trkpt>
      <trkpt lat="45.08241" lon="6.05633">
        <ele>1480.6</ele>
        <time>2020-08-05T10:56:00Z</time>
      </trkpt>
      <trkpt lat="45.08247" lon="6.05631">
        <ele>1481.5</ele>
        <time>2020-08-05T10:56:01Z</time>
      </trkpt>
      <trkpt lat="45.08254" lon="6.0563">
        <ele>1482.5</ele>
        <time>2020-08-05T10:56:04Z</time>
      </trkpt>
      <trkpt lat="45.08262" lon="6.05629">
        <ele>1483.8</ele>
        <time>2020-08-05T10:56:06Z</time>
      </trkpt>
      <trkpt lat="45.08273" lon="6.05632">
        <ele>1485.4</ele>
        <time>2020-08-05T10:56:07Z</time>
      </trkpt>
      <trkpt lat="45.08278" lon="6.0563">
        <ele>1486.3</ele>
        <time>2020-08-05T10:56:09Z</time>
      </trkpt>
      <trkpt lat="45.08282" lon="6.05627">
        <ele>1486.9</ele>
        <time>2020-08-05T10:56:10Z</time>
      </trkpt>
      <trkpt lat="45.08286" lon="6.0561">
        <ele>1488.5</ele>
        <time>2020-08-05T10:56:12Z</time>
      </trkpt>
      <trkpt lat="45.08286" lon="6.05601">
        <ele>1488.7</ele>
        <time>2020-08-05T10:56:15Z</time>
      </trkpt>
      <trkpt lat="45.08283" lon="6.05584">
        <ele>1489.2</ele>
        <time>2020-08-05T10:56:17Z</time>
      </trkpt>
      <trkpt lat="45.08281" lon="6.05574">
        <ele>1489.4</ele>
        <time>2020-08-05T10:56:20Z</time>
      </trkpt>
      <trkpt lat="45.08281" lon="6.0557">
        <ele>1489.5</ele>
        <time>2020-08-05T10:56:21Z</time>
      </trkpt>
      <trkpt lat="45.0828" lon="6.05566">
        <ele>1489.7</ele>
        <time>2020-08-05T10:56:23Z</time>
      </trkpt>
      <trkpt lat="45.08278" lon="6.05558">
        <ele>1489.9</ele>
        <time>2020-08-05T10:56:25Z</time>
      </trkpt>
      <trkpt lat="45.08277" lon="6.05554">
        <ele>1490</ele>
        <time>2020-08-05T10:56:26Z</time>
      </trkpt>
      <trkpt lat="45.08276" lon="6.05549">
        <ele>1490.2</ele>
        <time>2020-08-05T10:56:27Z</time>
      </trkpt>
      <trkpt lat="45.08271" lon="6.05537">
        <ele>1490.7</ele>
        <time>2020-08-05T10:56:29Z</time>
      </trkpt>
      <trkpt lat="45.0827" lon="6.05532">
        <ele>1490.9</ele>
        <time>2020-08-05T10:56:32Z</time>
      </trkpt>
      <trkpt lat="45.08268" lon="6.05526">
        <ele>1491.1</ele>
        <time>2020-08-05T10:56:34Z</time>
      </trkpt>
      <trkpt lat="45.08267" lon="6.05522">
        <ele>1491.3</ele>
        <time>2020-08-05T10:56:35Z</time>
      </trkpt>
      <trkpt lat="45.08265" lon="6.05517">
        <ele>1491.5</ele>
        <time>2020-08-05T10:56:37Z</time>
      </trkpt>
      <trkpt lat="45.08263" lon="6.05513">
        <ele>1491.7</ele>
        <time>2020-08-05T10:56:38Z</time>
      </trkpt>
      <trkpt lat="45.08262" lon="6.05512">
        <ele>1491.8</ele>
        <time>2020-08-05T10:56:39Z</time>
      </trkpt>
      <trkpt lat="45.08259" lon="6.05505">
        <ele>1492.1</ele>
        <time>2020-08-05T10:56:41Z</time>
      </trkpt>
      <trkpt lat="45.08257" lon="6.05498">
        <ele>1492.4</ele>
        <time>2020-08-05T10:56:43Z</time>
      </trkpt>
      <trkpt lat="45.08254" lon="6.05494">
        <ele>1492.6</ele>
        <time>2020-08-05T10:56:45Z</time>
      </trkpt>
      <trkpt lat="45.08252" lon="6.05491">
        <ele>1492.8</ele>
        <time>2020-08-05T10:56:47Z</time>
      </trkpt>
      <trkpt lat="45.08249" lon="6.05487">
        <ele>1493</ele>
        <time>2020-08-05T10:56:49Z</time>
      </trkpt>
      <trkpt lat="45.08246" lon="6.05484">
        <ele>1493.1</ele>
        <time>2020-08-05T10:56:51Z</time>
      </trkpt>
      <trkpt lat="45.08243" lon="6.05481">
        <ele>1493.3</ele>
        <time>2020-08-05T10:56:53Z</time>
      </trkpt>
      <trkpt lat="45.08239" lon="6.05477">
        <ele>1493.5</ele>
        <time>2020-08-05T10:56:55Z</time>
      </trkpt>
      <trkpt lat="45.08239" lon="6.05478">
        <ele>1493.5</ele>
        <time>2020-08-05T10:56:56Z</time>
      </trkpt>
      <trkpt lat="45.08237" lon="6.05476">
        <ele>1493.6</ele>
        <time>2020-08-05T10:56:58Z</time>
      </trkpt>
      <trkpt lat="45.08239" lon="6.05478">
        <ele>1493.7</ele>
        <time>2020-08-05T10:57:01Z</time>
      </trkpt>
      <trkpt lat="45.08235" lon="6.05471">
        <ele>1493.9</ele>
        <time>2020-08-05T10:57:03Z</time>
      </trkpt>
      <trkpt lat="45.08231" lon="6.05465">
        <ele>1494</ele>
        <time>2020-08-05T10:57:05Z</time>
      </trkpt>
      <trkpt lat="45.08223" lon="6.05449">
        <ele>1494.3</ele>
        <time>2020-08-05T10:57:07Z</time>
      </trkpt>
      <trkpt lat="45.08216" lon="6.05435">
        <ele>1494.5</ele>
        <time>2020-08-05T10:57:08Z</time>
      </trkpt>
      <trkpt lat="45.08214" lon="6.05429">
        <ele>1494.6</ele>
        <time>2020-08-05T10:57:10Z</time>
      </trkpt>
      <trkpt lat="45.08211" lon="6.05424">
        <ele>1494.7</ele>
        <time>2020-08-05T10:57:11Z</time>
      </trkpt>
      <trkpt lat="45.08208" lon="6.05416">
        <ele>1494.7</ele>
        <time>2020-08-05T10:57:13Z</time>
      </trkpt>
      <trkpt lat="45.08206" lon="6.0541">
        <ele>1494.8</ele>
        <time>2020-08-05T10:57:15Z</time>
      </trkpt>
      <trkpt lat="45.08203" lon="6.05404">
        <ele>1494.9</ele>
        <time>2020-08-05T10:57:17Z</time>
      </trkpt>
      <trkpt lat="45.082" lon="6.05397">
        <ele>1495</ele>
        <time>2020-08-05T10:57:19Z</time>
      </trkpt>
      <trkpt lat="45.08197" lon="6.05392">
        <ele>1495.1</ele>
        <time>2020-08-05T10:57:21Z</time>
      </trkpt>
      <trkpt lat="45.08194" lon="6.05383">
        <ele>1495.3</ele>
        <time>2020-08-05T10:57:23Z</time>
      </trkpt>
      <trkpt lat="45.08191" lon="6.05369">
        <ele>1495.4</ele>
        <time>2020-08-05T10:57:25Z</time>
      </trkpt>
      <trkpt lat="45.0819" lon="6.05363">
        <ele>1495.5</ele>
        <time>2020-08-05T10:57:28Z</time>
      </trkpt>
      <trkpt lat="45.0819" lon="6.05358">
        <ele>1495.5</ele>
        <time>2020-08-05T10:57:29Z</time>
      </trkpt>
      <trkpt lat="45.0819" lon="6.05348">
        <ele>1495.7</ele>
        <time>2020-08-05T10:57:31Z</time>
      </trkpt>
      <trkpt lat="45.0819" lon="6.05338">
        <ele>1495.8</ele>
        <time>2020-08-05T10:57:33Z</time>
      </trkpt>
      <trkpt lat="45.08192" lon="6.0532">
        <ele>1496</ele>
        <time>2020-08-05T10:57:35Z</time>
      </trkpt>
      <trkpt lat="45.08193" lon="6.05314">
        <ele>1496.1</ele>
        <time>2020-08-05T10:57:36Z</time>
      </trkpt>
      <trkpt lat="45.08193" lon="6.05303">
        <ele>1496.2</ele>
        <time>2020-08-05T10:57:39Z</time>
      </trkpt>
      <trkpt lat="45.08194" lon="6.05299">
        <ele>1496.3</ele>
        <time>2020-08-05T10:57:40Z</time>
      </trkpt>
      <trkpt lat="45.08195" lon="6.05292">
        <ele>1496.3</ele>
        <time>2020-08-05T10:57:41Z</time>
      </trkpt>
      <trkpt lat="45.08196" lon="6.05284">
        <ele>1496.4</ele>
        <time>2020-08-05T10:57:44Z</time>
      </trkpt>
      <trkpt lat="45.08196" lon="6.05273">
        <ele>1496.4</ele>
        <time>2020-08-05T10:57:45Z</time>
      </trkpt>
      <trkpt lat="45.08195" lon="6.05265">
        <ele>1496.4</ele>
        <time>2020-08-05T10:57:48Z</time>
      </trkpt>
      <trkpt lat="45.08191" lon="6.05256">
        <ele>1496.4</ele>
        <time>2020-08-05T10:57:50Z</time>
      </trkpt>
      <trkpt lat="45.08185" lon="6.05251">
        <ele>1496.4</ele>
        <time>2020-08-05T10:57:52Z</time>
      </trkpt>
      <trkpt lat="45.08176" lon="6.05256">
        <ele>1496.2</ele>
        <time>2020-08-05T10:57:53Z</time>
      </trkpt>
      <trkpt lat="45.08171" lon="6.0526">
        <ele>1496.1</ele>
        <time>2020-08-05T10:57:55Z</time>
      </trkpt>
      <trkpt lat="45.08167" lon="6.05263">
        <ele>1495.9</ele>
        <time>2020-08-05T10:57:56Z</time>
      </trkpt>
      <trkpt lat="45.08162" lon="6.05264">
        <ele>1495.8</ele>
        <time>2020-08-05T10:57:57Z</time>
      </trkpt>
      <trkpt lat="45.08147" lon="6.05266">
        <ele>1495.3</ele>
        <time>2020-08-05T10:58:00Z</time>
      </trkpt>
      <trkpt lat="45.08137" lon="6.05267">
        <ele>1494.9</ele>
        <time>2020-08-05T10:58:03Z</time>
      </trkpt>
      <trkpt lat="45.08126" lon="6.05269">
        <ele>1494.6</ele>
        <time>2020-08-05T10:58:05Z</time>
      </trkpt>
      <trkpt lat="45.08117" lon="6.05271">
        <ele>1494.3</ele>
        <time>2020-08-05T10:58:07Z</time>
      </trkpt>
      <trkpt lat="45.08106" lon="6.05273">
        <ele>1494.1</ele>
        <time>2020-08-05T10:58:09Z</time>
      </trkpt>
      <trkpt lat="45.08101" lon="6.05274">
        <ele>1494</ele>
        <time>2020-08-05T10:58:10Z</time>
      </trkpt>
      <trkpt lat="45.0809" lon="6.05275">
        <ele>1493.9</ele>
        <time>2020-08-05T10:58:12Z</time>
      </trkpt>
      <trkpt lat="45.08084" lon="6.05276">
        <ele>1493.9</ele>
        <time>2020-08-05T10:58:13Z</time>
      </trkpt>
      <trkpt lat="45.08074" lon="6.05274">
        <ele>1493.9</ele>
        <time>2020-08-05T10:58:15Z</time>
      </trkpt>
      <trkpt lat="45.08064" lon="6.05272">
        <ele>1494</ele>
        <time>2020-08-05T10:58:17Z</time>
      </trkpt>
      <trkpt lat="45.08056" lon="6.05271">
        <ele>1494.1</ele>
        <time>2020-08-05T10:58:19Z</time>
      </trkpt>
      <trkpt lat="45.08048" lon="6.0527">
        <ele>1494.2</ele>
        <time>2020-08-05T10:58:21Z</time>
      </trkpt>
      <trkpt lat="45.0804" lon="6.05268">
        <ele>1494.4</ele>
        <time>2020-08-05T10:58:23Z</time>
      </trkpt>
      <trkpt lat="45.08036" lon="6.0527">
        <ele>1494.5</ele>
        <time>2020-08-05T10:58:24Z</time>
      </trkpt>
      <trkpt lat="45.08033" lon="6.05272">
        <ele>1494.6</ele>
        <time>2020-08-05T10:58:25Z</time>
      </trkpt>
      <trkpt lat="45.08028" lon="6.05269">
        <ele>1494.7</ele>
        <time>2020-08-05T10:58:27Z</time>
      </trkpt>
      <trkpt lat="45.0802" lon="6.05264">
        <ele>1494.9</ele>
        <time>2020-08-05T10:58:28Z</time>
      </trkpt>
      <trkpt lat="45.08014" lon="6.0526">
        <ele>1495</ele>
        <time>2020-08-05T10:58:30Z</time>
      </trkpt>
      <trkpt lat="45.08009" lon="6.05258">
        <ele>1495.2</ele>
        <time>2020-08-05T10:58:31Z</time>
      </trkpt>
      <trkpt lat="45.08005" lon="6.05256">
        <ele>1495.3</ele>
        <time>2020-08-05T10:58:32Z</time>
      </trkpt>
      <trkpt lat="45.07996" lon="6.05249">
        <ele>1495.6</ele>
        <time>2020-08-05T10:58:33Z</time>
      </trkpt>
      <trkpt lat="45.07993" lon="6.05244">
        <ele>1495.7</ele>
        <time>2020-08-05T10:58:35Z</time>
      </trkpt>
      <trkpt lat="45.07991" lon="6.05239">
        <ele>1495.7</ele>
        <time>2020-08-05T10:58:37Z</time>
      </trkpt>
      <trkpt lat="45.07989" lon="6.05229">
        <ele>1495.8</ele>
        <time>2020-08-05T10:58:38Z</time>
      </trkpt>
      <trkpt lat="45.07988" lon="6.05223">
        <ele>1495.9</ele>
        <time>2020-08-05T10:58:39Z</time>
      </trkpt>
      <trkpt lat="45.07988" lon="6.05207">
        <ele>1496.1</ele>
        <time>2020-08-05T10:58:41Z</time>
      </trkpt>
      <trkpt lat="45.07988" lon="6.05199">
        <ele>1496.2</ele>
        <time>2020-08-05T10:58:43Z</time>
      </trkpt>
      <trkpt lat="45.07989" lon="6.05193">
        <ele>1496.2</ele>
        <time>2020-08-05T10:58:45Z</time>
      </trkpt>
      <trkpt lat="45.07989" lon="6.05188">
        <ele>1496.2</ele>
        <time>2020-08-05T10:58:46Z</time>
      </trkpt>
      <trkpt lat="45.0799" lon="6.05179">
        <ele>1496.4</ele>
        <time>2020-08-05T10:58:47Z</time>
      </trkpt>
      <trkpt lat="45.07995" lon="6.05163">
        <ele>1496.7</ele>
        <time>2020-08-05T10:58:50Z</time>
      </trkpt>
      <trkpt lat="45.07997" lon="6.05156">
        <ele>1496.8</ele>
        <time>2020-08-05T10:58:52Z</time>
      </trkpt>
      <trkpt lat="45.08001" lon="6.05145">
        <ele>1496.9</ele>
        <time>2020-08-05T10:58:54Z</time>
      </trkpt>
      <trkpt lat="45.08003" lon="6.0514">
        <ele>1497</ele>
        <time>2020-08-05T10:58:56Z</time>
      </trkpt>
      <trkpt lat="45.08005" lon="6.05133">
        <ele>1497</ele>
        <time>2020-08-05T10:58:57Z</time>
      </trkpt>
      <trkpt lat="45.08007" lon="6.05129">
        <ele>1497.1</ele>
        <time>2020-08-05T10:58:58Z</time>
      </trkpt>
      <trkpt lat="45.08009" lon="6.05122">
        <ele>1497.2</ele>
        <time>2020-08-05T10:59:00Z</time>
      </trkpt>
      <trkpt lat="45.08011" lon="6.05116">
        <ele>1497.3</ele>
        <time>2020-08-05T10:59:02Z</time>
      </trkpt>
      <trkpt lat="45.08015" lon="6.05107">
        <ele>1497.5</ele>
        <time>2020-08-05T10:59:03Z</time>
      </trkpt>
      <trkpt lat="45.08017" lon="6.05099">
        <ele>1497.7</ele>
        <time>2020-08-05T10:59:06Z</time>
      </trkpt>
      <trkpt lat="45.0802" lon="6.05087">
        <ele>1497.9</ele>
        <time>2020-08-05T10:59:07Z</time>
      </trkpt>
      <trkpt lat="45.08021" lon="6.05082">
        <ele>1498</ele>
        <time>2020-08-05T10:59:08Z</time>
      </trkpt>
      <trkpt lat="45.08024" lon="6.05068">
        <ele>1498.2</ele>
        <time>2020-08-05T10:59:11Z</time>
      </trkpt>
      <trkpt lat="45.08026" lon="6.05063">
        <ele>1498.3</ele>
        <time>2020-08-05T10:59:13Z</time>
      </trkpt>
      <trkpt lat="45.08027" lon="6.05058">
        <ele>1498.4</ele>
        <time>2020-08-05T10:59:15Z</time>
      </trkpt>
      <trkpt lat="45.0803" lon="6.05049">
        <ele>1498.6</ele>
        <time>2020-08-05T10:59:17Z</time>
      </trkpt>
      <trkpt lat="45.08032" lon="6.05045">
        <ele>1498.8</ele>
        <time>2020-08-05T10:59:18Z</time>
      </trkpt>
      <trkpt lat="45.08037" lon="6.05031">
        <ele>1499.2</ele>
        <time>2020-08-05T10:59:20Z</time>
      </trkpt>
      <trkpt lat="45.08038" lon="6.05026">
        <ele>1499.3</ele>
        <time>2020-08-05T10:59:22Z</time>
      </trkpt>
      <trkpt lat="45.08042" lon="6.05013">
        <ele>1499.5</ele>
        <time>2020-08-05T10:59:24Z</time>
      </trkpt>
      <trkpt lat="45.08047" lon="6.05001">
        <ele>1499.7</ele>
        <time>2020-08-05T10:59:27Z</time>
      </trkpt>
      <trkpt lat="45.08049" lon="6.04995">
        <ele>1499.9</ele>
        <time>2020-08-05T10:59:28Z</time>
      </trkpt>
      <trkpt lat="45.08052" lon="6.04989">
        <ele>1500</ele>
        <time>2020-08-05T10:59:31Z</time>
      </trkpt>
      <trkpt lat="45.08055" lon="6.04981">
        <ele>1500.3</ele>
        <time>2020-08-05T10:59:33Z</time>
      </trkpt>
      <trkpt lat="45.08057" lon="6.04976">
        <ele>1500.4</ele>
        <time>2020-08-05T10:59:34Z</time>
      </trkpt>
      <trkpt lat="45.0806" lon="6.04966">
        <ele>1500.6</ele>
        <time>2020-08-05T10:59:36Z</time>
      </trkpt>
      <trkpt lat="45.08064" lon="6.04953">
        <ele>1500.7</ele>
        <time>2020-08-05T10:59:37Z</time>
      </trkpt>
      <trkpt lat="45.08065" lon="6.04946">
        <ele>1500.8</ele>
        <time>2020-08-05T10:59:39Z</time>
      </trkpt>
      <trkpt lat="45.08065" lon="6.04933">
        <ele>1500.9</ele>
        <time>2020-08-05T10:59:41Z</time>
      </trkpt>
      <trkpt lat="45.08065" lon="6.04924">
        <ele>1500.9</ele>
        <time>2020-08-05T10:59:44Z</time>
      </trkpt>
      <trkpt lat="45.08066" lon="6.04914">
        <ele>1501</ele>
        <time>2020-08-05T10:59:46Z</time>
      </trkpt>
      <trkpt lat="45.08068" lon="6.049">
        <ele>1501.1</ele>
        <time>2020-08-05T10:59:48Z</time>
      </trkpt>
      <trkpt lat="45.0807" lon="6.04888">
        <ele>1501.3</ele>
        <time>2020-08-05T10:59:49Z</time>
      </trkpt>
      <trkpt lat="45.0807" lon="6.04878">
        <ele>1501.4</ele>
        <time>2020-08-05T10:59:51Z</time>
      </trkpt>
      <trkpt lat="45.08065" lon="6.04862">
        <ele>1501.5</ele>
        <time>2020-08-05T10:59:53Z</time>
      </trkpt>
      <trkpt lat="45.08062" lon="6.04856">
        <ele>1501.5</ele>
        <time>2020-08-05T10:59:55Z</time>
      </trkpt>
      <trkpt lat="45.0806" lon="6.04849">
        <ele>1501.5</ele>
        <time>2020-08-05T10:59:57Z</time>
      </trkpt>
      <trkpt lat="45.08058" lon="6.04845">
        <ele>1501.5</ele>
        <time>2020-08-05T10:59:58Z</time>
      </trkpt>
      <trkpt lat="45.08056" lon="6.04841">
        <ele>1501.6</ele>
        <time>2020-08-05T10:59:59Z</time>
      </trkpt>
      <trkpt lat="45.08053" lon="6.04836">
        <ele>1501.6</ele>
        <time>2020-08-05T11:00:00Z</time>
      </trkpt>
      <trkpt lat="45.08049" lon="6.04827">
        <ele>1501.6</ele>
        <time>2020-08-05T11:00:02Z</time>
      </trkpt>
      <trkpt lat="45.08047" lon="6.04817">
        <ele>1501.6</ele>
        <time>2020-08-05T11:00:03Z</time>
      </trkpt>
      <trkpt lat="45.08045" lon="6.04803">
        <ele>1501.7</ele>
        <time>2020-08-05T11:00:05Z</time>
      </trkpt>
      <trkpt lat="45.0804" lon="6.04792">
        <ele>1501.7</ele>
        <time>2020-08-05T11:00:07Z</time>
      </trkpt>
      <trkpt lat="45.0804" lon="6.04786">
        <ele>1501.7</ele>
        <time>2020-08-05T11:00:09Z</time>
      </trkpt>
      <trkpt lat="45.08036" lon="6.04782">
        <ele>1501.8</ele>
        <time>2020-08-05T11:00:10Z</time>
      </trkpt>
      <trkpt lat="45.08029" lon="6.04773">
        <ele>1501.8</ele>
        <time>2020-08-05T11:00:12Z</time>
      </trkpt>
      <trkpt lat="45.08022" lon="6.04765">
        <ele>1502</ele>
        <time>2020-08-05T11:00:13Z</time>
      </trkpt>
      <trkpt lat="45.08022" lon="6.0476">
        <ele>1502</ele>
        <time>2020-08-05T11:00:15Z</time>
      </trkpt>
      <trkpt lat="45.08021" lon="6.04759">
        <ele>1502.1</ele>
        <time>2020-08-05T11:00:17Z</time>
      </trkpt>
      <trkpt lat="45.0802" lon="6.04759">
        <ele>1502.1</ele>
        <time>2020-08-05T11:00:18Z</time>
      </trkpt>
      <trkpt lat="45.08021" lon="6.04759">
        <ele>1502.1</ele>
        <time>2020-08-05T11:00:20Z</time>
      </trkpt>
      <trkpt lat="45.08021" lon="6.0476">
        <ele>1502.1</ele>
        <time>2020-08-05T11:00:22Z</time>
      </trkpt>
      <trkpt lat="45.08021" lon="6.0476">
        <ele>1502.1</ele>
        <time>2020-08-05T11:00:23Z</time>
      </trkpt>
      <trkpt lat="45.08021" lon="6.0476">
        <ele>1502.1</ele>
        <time>2020-08-05T11:00:24Z</time>
      </trkpt>
      <trkpt lat="45.08021" lon="6.0476">
        <ele>1502.1</ele>
        <time>2020-08-05T11:00:26Z</time>
      </trkpt>
      <trkpt lat="45.08021" lon="6.04763">
        <ele>1502.1</ele>
        <time>2020-08-05T11:00:27Z</time>
      </trkpt>
      <trkpt lat="45.08021" lon="6.04763">
        <ele>1502.2</ele>
        <time>2020-08-05T11:00:30Z</time>
      </trkpt>
      <trkpt lat="45.08021" lon="6.04763">
        <ele>1502.2</ele>
        <time>2020-08-05T11:00:31Z</time>
      </trkpt>
      <trkpt lat="45.08021" lon="6.04764">
        <ele>1502.2</ele>
        <time>2020-08-05T11:00:33Z</time>
      </trkpt>
      <trkpt lat="45.08021" lon="6.04764">
        <ele>1502.2</ele>
        <time>2020-08-05T11:00:35Z</time>
      </trkpt>
      <trkpt lat="45.08021" lon="6.04764">
        <ele>1502.2</ele>
        <time>2020-08-05T11:00:36Z</time>
      </trkpt>
      <trkpt lat="45.08021" lon="6.04764">
        <ele>1502.2</ele>
        <time>2020-08-05T11:00:38Z</time>
      </trkpt>
      <trkpt lat="45.08023" lon="6.04764">
        <ele>1502.2</ele>
        <time>2020-08-05T11:01:03Z</time>
      </trkpt>
      <trkpt lat="45.08025" lon="6.0476">
        <ele>1502.3</ele>
        <time>2020-08-05T11:01:05Z</time>
      </trkpt>
      <trkpt lat="45.08023" lon="6.04757">
        <ele>1502.3</ele>
        <time>2020-08-05T11:01:07Z</time>
      </trkpt>
      <trkpt lat="45.08023" lon="6.04757">
        <ele>1502.3</ele>
        <time>2020-08-05T11:01:10Z</time>
      </trkpt>
      <trkpt lat="45.08023" lon="6.04757">
        <ele>1502.3</ele>
        <time>2020-08-05T11:01:12Z</time>
      </trkpt>
      <trkpt lat="45.08023" lon="6.04757">
        <ele>1502.3</ele>
        <time>2020-08-05T11:01:14Z</time>
      </trkpt>
      <trkpt lat="45.08023" lon="6.04757">
        <ele>1502.3</ele>
        <time>2020-08-05T11:01:16Z</time>
      </trkpt>
      <trkpt lat="45.08023" lon="6.04757">
        <ele>1502.3</ele>
        <time>2020-08-05T11:01:18Z</time>
      </trkpt>
      <trkpt lat="45.08023" lon="6.04755">
        <ele>1502.4</ele>
        <time>2020-08-05T11:04:04Z</time>
      </trkpt>
      <trkpt lat="45.08025" lon="6.04753">
        <ele>1502.4</ele>
        <time>2020-08-05T11:04:05Z</time>
      </trkpt>
      <trkpt lat="45.08026" lon="6.04751">
        <ele>1502.4</ele>
        <time>2020-08-05T11:04:07Z</time>
      </trkpt>
      <trkpt lat="45.08028" lon="6.04747">
        <ele>1502.5</ele>
        <time>2020-08-05T11:04:09Z</time>
      </trkpt>
      <trkpt lat="45.08029" lon="6.04743">
        <ele>1502.5</ele>
        <time>2020-08-05T11:04:11Z</time>
      </trkpt>
      <trkpt lat="45.08032" lon="6.04738">
        <ele>1502.6</ele>
        <time>2020-08-05T11:04:13Z</time>
      </trkpt>
      <trkpt lat="45.08038" lon="6.04728">
        <ele>1502.7</ele>
        <time>2020-08-05T11:04:15Z</time>
      </trkpt>
      <trkpt lat="45.08043" lon="6.04719">
        <ele>1502.8</ele>
        <time>2020-08-05T11:04:17Z</time>
      </trkpt>
      <trkpt lat="45.08048" lon="6.04713">
        <ele>1502.9</ele>
        <time>2020-08-05T11:04:19Z</time>
      </trkpt>
      <trkpt lat="45.08052" lon="6.04705">
        <ele>1503</ele>
        <time>2020-08-05T11:04:21Z</time>
      </trkpt>
      <trkpt lat="45.08054" lon="6.047">
        <ele>1503.1</ele>
        <time>2020-08-05T11:04:22Z</time>
      </trkpt>
      <trkpt lat="45.08056" lon="6.0469">
        <ele>1503.2</ele>
        <time>2020-08-05T11:04:24Z</time>
      </trkpt>
      <trkpt lat="45.08058" lon="6.04683">
        <ele>1503.4</ele>
        <time>2020-08-05T11:04:26Z</time>
      </trkpt>
      <trkpt lat="45.08061" lon="6.04675">
        <ele>1503.6</ele>
        <time>2020-08-05T11:04:28Z</time>
      </trkpt>
      <trkpt lat="45.08064" lon="6.04669">
        <ele>1503.8</ele>
        <time>2020-08-05T11:04:30Z</time>
      </trkpt>
      <trkpt lat="45.08066" lon="6.04665">
        <ele>1504</ele>
        <time>2020-08-05T11:04:31Z</time>
      </trkpt>
      <trkpt lat="45.08069" lon="6.04658">
        <ele>1504.2</ele>
        <time>2020-08-05T11:04:33Z</time>
      </trkpt>
      <trkpt lat="45.08071" lon="6.04655">
        <ele>1504.3</ele>
        <time>2020-08-05T11:04:34Z</time>
      </trkpt>
      <trkpt lat="45.08073" lon="6.04652">
        <ele>1504.5</ele>
        <time>2020-08-05T11:04:35Z</time>
      </trkpt>
      <trkpt lat="45.08077" lon="6.04646">
        <ele>1504.7</ele>
        <time>2020-08-05T11:04:37Z</time>
      </trkpt>
      <trkpt lat="45.08079" lon="6.04642">
        <ele>1504.7</ele>
        <time>2020-08-05T11:04:38Z</time>
      </trkpt>
      <trkpt lat="45.0808" lon="6.04638">
        <ele>1504.8</ele>
        <time>2020-08-05T11:04:39Z</time>
      </trkpt>
      <trkpt lat="45.08081" lon="6.04629">
        <ele>1504.9</ele>
        <time>2020-08-05T11:04:41Z</time>
      </trkpt>
      <trkpt lat="45.08079" lon="6.0462">
        <ele>1505.1</ele>
        <time>2020-08-05T11:04:43Z</time>
      </trkpt>
      <trkpt lat="45.08077" lon="6.04616">
        <ele>1505.1</ele>
        <time>2020-08-05T11:04:44Z</time>
      </trkpt>
      <trkpt lat="45.08072" lon="6.04606">
        <ele>1505.3</ele>
        <time>2020-08-05T11:04:46Z</time>
      </trkpt>
      <trkpt lat="45.08078" lon="6.04592">
        <ele>1505.5</ele>
        <time>2020-08-05T11:04:48Z</time>
      </trkpt>
      <trkpt lat="45.08086" lon="6.04583">
        <ele>1505.6</ele>
        <time>2020-08-05T11:04:50Z</time>
      </trkpt>
      <trkpt lat="45.0809" lon="6.04579">
        <ele>1505.6</ele>
        <time>2020-08-05T11:04:51Z</time>
      </trkpt>
      <trkpt lat="45.08094" lon="6.04576">
        <ele>1505.6</ele>
        <time>2020-08-05T11:04:52Z</time>
      </trkpt>
      <trkpt lat="45.08099" lon="6.04571">
        <ele>1505.6</ele>
        <time>2020-08-05T11:04:54Z</time>
      </trkpt>
      <trkpt lat="45.08102" lon="6.04569">
        <ele>1505.6</ele>
        <time>2020-08-05T11:04:55Z</time>
      </trkpt>
      <trkpt lat="45.08102" lon="6.04575">
        <ele>1505.6</ele>
        <time>2020-08-05T11:04:56Z</time>
      </trkpt>
      <trkpt lat="45.08096" lon="6.04592">
        <ele>1505.7</ele>
        <time>2020-08-05T11:04:58Z</time>
      </trkpt>
      <trkpt lat="45.08099" lon="6.04583">
        <ele>1505.9</ele>
        <time>2020-08-05T11:05:00Z</time>
      </trkpt>
      <trkpt lat="45.08102" lon="6.04573">
        <ele>1506</ele>
        <time>2020-08-05T11:05:01Z</time>
      </trkpt>
      <trkpt lat="45.08105" lon="6.04556">
        <ele>1506</ele>
        <time>2020-08-05T11:05:02Z</time>
      </trkpt>
      <trkpt lat="45.08108" lon="6.04538">
        <ele>1506.1</ele>
        <time>2020-08-05T11:05:04Z</time>
      </trkpt>
      <trkpt lat="45.08108" lon="6.04531">
        <ele>1506.1</ele>
        <time>2020-08-05T11:05:05Z</time>
      </trkpt>
      <trkpt lat="45.08109" lon="6.04522">
        <ele>1506.1</ele>
        <time>2020-08-05T11:05:07Z</time>
      </trkpt>
      <trkpt lat="45.08109" lon="6.0451">
        <ele>1506.2</ele>
        <time>2020-08-05T11:05:08Z</time>
      </trkpt>
      <trkpt lat="45.0811" lon="6.045">
        <ele>1506.3</ele>
        <time>2020-08-05T11:05:09Z</time>
      </trkpt>
      <trkpt lat="45.08111" lon="6.04493">
        <ele>1506.3</ele>
        <time>2020-08-05T11:05:11Z</time>
      </trkpt>
      <trkpt lat="45.08112" lon="6.04484">
        <ele>1506.4</ele>
        <time>2020-08-05T11:05:12Z</time>
      </trkpt>
      <trkpt lat="45.08111" lon="6.04477">
        <ele>1506.5</ele>
        <time>2020-08-05T11:05:14Z</time>
      </trkpt>
      <trkpt lat="45.08106" lon="6.04468">
        <ele>1506.6</ele>
        <time>2020-08-05T11:05:15Z</time>
      </trkpt>
      <trkpt lat="45.08103" lon="6.04464">
        <ele>1506.6</ele>
        <time>2020-08-05T11:05:16Z</time>
      </trkpt>
      <trkpt lat="45.08099" lon="6.04459">
        <ele>1506.7</ele>
        <time>2020-08-05T11:05:17Z</time>
      </trkpt>
      <trkpt lat="45.08095" lon="6.04453">
        <ele>1506.7</ele>
        <time>2020-08-05T11:05:20Z</time>
      </trkpt>
      <trkpt lat="45.08092" lon="6.04449">
        <ele>1506.7</ele>
        <time>2020-08-05T11:05:21Z</time>
      </trkpt>
      <trkpt lat="45.0809" lon="6.04445">
        <ele>1506.8</ele>
        <time>2020-08-05T11:05:22Z</time>
      </trkpt>
      <trkpt lat="45.08086" lon="6.04427">
        <ele>1506.8</ele>
        <time>2020-08-05T11:05:24Z</time>
      </trkpt>
      <trkpt lat="45.08086" lon="6.04419">
        <ele>1506.9</ele>
        <time>2020-08-05T11:05:27Z</time>
      </trkpt>
      <trkpt lat="45.08088" lon="6.04408">
        <ele>1506.9</ele>
        <time>2020-08-05T11:05:28Z</time>
      </trkpt>
      <trkpt lat="45.08089" lon="6.04402">
        <ele>1506.9</ele>
        <time>2020-08-05T11:05:29Z</time>
      </trkpt>
      <trkpt lat="45.08091" lon="6.04394">
        <ele>1507</ele>
        <time>2020-08-05T11:05:31Z</time>
      </trkpt>
      <trkpt lat="45.08092" lon="6.04388">
        <ele>1507.1</ele>
        <time>2020-08-05T11:05:32Z</time>
      </trkpt>
      <trkpt lat="45.08091" lon="6.04382">
        <ele>1507.1</ele>
        <time>2020-08-05T11:05:33Z</time>
      </trkpt>
      <trkpt lat="45.08087" lon="6.04372">
        <ele>1507.2</ele>
        <time>2020-08-05T11:05:34Z</time>
      </trkpt>
      <trkpt lat="45.08081" lon="6.04361">
        <ele>1507.3</ele>
        <time>2020-08-05T11:05:36Z</time>
      </trkpt>
      <trkpt lat="45.08076" lon="6.04355">
        <ele>1507.3</ele>
        <time>2020-08-05T11:05:39Z</time>
      </trkpt>
      <trkpt lat="45.08072" lon="6.04349">
        <ele>1507.4</ele>
        <time>2020-08-05T11:05:40Z</time>
      </trkpt>
      <trkpt lat="45.08068" lon="6.04339">
        <ele>1507.4</ele>
        <time>2020-08-05T11:05:42Z</time>
      </trkpt>
      <trkpt lat="45.08068" lon="6.04335">
        <ele>1507.4</ele>
        <time>2020-08-05T11:05:44Z</time>
      </trkpt>
      <trkpt lat="45.08068" lon="6.0433">
        <ele>1507.3</ele>
        <time>2020-08-05T11:05:46Z</time>
      </trkpt>
      <trkpt lat="45.08069" lon="6.04326">
        <ele>1507.3</ele>
        <time>2020-08-05T11:05:47Z</time>
      </trkpt>
      <trkpt lat="45.08069" lon="6.0431">
        <ele>1507.2</ele>
        <time>2020-08-05T11:05:49Z</time>
      </trkpt>
      <trkpt lat="45.08069" lon="6.04304">
        <ele>1507.2</ele>
        <time>2020-08-05T11:05:52Z</time>
      </trkpt>
      <trkpt lat="45.08069" lon="6.043">
        <ele>1507.2</ele>
        <time>2020-08-05T11:05:53Z</time>
      </trkpt>
      <trkpt lat="45.08064" lon="6.04292">
        <ele>1507.2</ele>
        <time>2020-08-05T11:05:54Z</time>
      </trkpt>
      <trkpt lat="45.08059" lon="6.04285">
        <ele>1507.2</ele>
        <time>2020-08-05T11:05:57Z</time>
      </trkpt>
      <trkpt lat="45.08056" lon="6.04281">
        <ele>1507.2</ele>
        <time>2020-08-05T11:05:58Z</time>
      </trkpt>
      <trkpt lat="45.08053" lon="6.04277">
        <ele>1507.2</ele>
        <time>2020-08-05T11:05:59Z</time>
      </trkpt>
      <trkpt lat="45.08051" lon="6.04272">
        <ele>1507.3</ele>
        <time>2020-08-05T11:06:00Z</time>
      </trkpt>
      <trkpt lat="45.08047" lon="6.04264">
        <ele>1507.3</ele>
        <time>2020-08-05T11:06:02Z</time>
      </trkpt>
      <trkpt lat="45.08045" lon="6.04258">
        <ele>1507.4</ele>
        <time>2020-08-05T11:06:04Z</time>
      </trkpt>
      <trkpt lat="45.08045" lon="6.04257">
        <ele>1507.4</ele>
        <time>2020-08-05T11:06:05Z</time>
      </trkpt>
      <trkpt lat="45.08044" lon="6.04256">
        <ele>1507.4</ele>
        <time>2020-08-05T11:06:06Z</time>
      </trkpt>
      <trkpt lat="45.08045" lon="6.04257">
        <ele>1507.4</ele>
        <time>2020-08-05T11:06:08Z</time>
      </trkpt>
      <trkpt lat="45.08045" lon="6.04254">
        <ele>1507.4</ele>
        <time>2020-08-05T11:06:09Z</time>
      </trkpt>
      <trkpt lat="45.08046" lon="6.04247">
        <ele>1507.5</ele>
        <time>2020-08-05T11:06:11Z</time>
      </trkpt>
      <trkpt lat="45.08045" lon="6.04244">
        <ele>1507.5</ele>
        <time>2020-08-05T11:06:12Z</time>
      </trkpt>
      <trkpt lat="45.08044" lon="6.04237">
        <ele>1507.5</ele>
        <time>2020-08-05T11:06:14Z</time>
      </trkpt>
      <trkpt lat="45.08039" lon="6.04221">
        <ele>1507.5</ele>
        <time>2020-08-05T11:06:16Z</time>
      </trkpt>
      <trkpt lat="45.08036" lon="6.04214">
        <ele>1507.5</ele>
        <time>2020-08-05T11:06:17Z</time>
      </trkpt>
      <trkpt lat="45.08033" lon="6.0421">
        <ele>1507.5</ele>
        <time>2020-08-05T11:06:18Z</time>
      </trkpt>
      <trkpt lat="45.08031" lon="6.042">
        <ele>1507.5</ele>
        <time>2020-08-05T11:06:19Z</time>
      </trkpt>
      <trkpt lat="45.08029" lon="6.0419">
        <ele>1507.5</ele>
        <time>2020-08-05T11:06:21Z</time>
      </trkpt>
      <trkpt lat="45.08028" lon="6.04184">
        <ele>1507.5</ele>
        <time>2020-08-05T11:06:22Z</time>
      </trkpt>
      <trkpt lat="45.08026" lon="6.04178">
        <ele>1507.5</ele>
        <time>2020-08-05T11:06:24Z</time>
      </trkpt>
      <trkpt lat="45.08024" lon="6.04175">
        <ele>1507.5</ele>
        <time>2020-08-05T11:06:25Z</time>
      </trkpt>
      <trkpt lat="45.08023" lon="6.04171">
        <ele>1507.4</ele>
        <time>2020-08-05T11:06:26Z</time>
      </trkpt>
      <trkpt lat="45.08021" lon="6.04167">
        <ele>1507.4</ele>
        <time>2020-08-05T11:06:27Z</time>
      </trkpt>
      <trkpt lat="45.08021" lon="6.04167">
        <ele>1507.4</ele>
        <time>2020-08-05T11:06:29Z</time>
      </trkpt>
      <trkpt lat="45.08021" lon="6.04167">
        <ele>1507.4</ele>
        <time>2020-08-05T11:06:31Z</time>
      </trkpt>
      <trkpt lat="45.08021" lon="6.04167">
        <ele>1507.4</ele>
        <time>2020-08-05T11:06:32Z</time>
      </trkpt>
      <trkpt lat="45.0802" lon="6.04166">
        <ele>1507.4</ele>
        <time>2020-08-05T11:06:35Z</time>
      </trkpt>
      <trkpt lat="45.08021" lon="6.04163">
        <ele>1507.4</ele>
        <time>2020-08-05T11:06:37Z</time>
      </trkpt>
      <trkpt lat="45.08021" lon="6.04162">
        <ele>1507.4</ele>
        <time>2020-08-05T11:06:39Z</time>
      </trkpt>
      <trkpt lat="45.08021" lon="6.04162">
        <ele>1507.4</ele>
        <time>2020-08-05T11:06:41Z</time>
      </trkpt>
      <trkpt lat="45.0802" lon="6.04163">
        <ele>1507.4</ele>
        <time>2020-08-05T11:06:43Z</time>
      </trkpt>
      <trkpt lat="45.08019" lon="6.04163">
        <ele>1507.4</ele>
        <time>2020-08-05T11:06:45Z</time>
      </trkpt>
      <trkpt lat="45.08019" lon="6.04163">
        <ele>1507.4</ele>
        <time>2020-08-05T11:06:47Z</time>
      </trkpt>
      <trkpt lat="45.08019" lon="6.04163">
        <ele>1507.4</ele>
        <time>2020-08-05T11:06:48Z</time>
      </trkpt>
      <trkpt lat="45.08019" lon="6.04162">
        <ele>1507.4</ele>
        <time>2020-08-05T11:06:49Z</time>
      </trkpt>
      <trkpt lat="45.08019" lon="6.04162">
        <ele>1507.4</ele>
        <time>2020-08-05T11:06:50Z</time>
      </trkpt>
      <trkpt lat="45.08019" lon="6.04162">
        <ele>1507.4</ele>
        <time>2020-08-05T11:06:52Z</time>
      </trkpt>
      <trkpt lat="45.08018" lon="6.04162">
        <ele>1507.5</ele>
        <time>2020-08-05T11:06:53Z</time>
      </trkpt>
      <trkpt lat="45.0802" lon="6.04163">
        <ele>1507.5</ele>
        <time>2020-08-05T11:07:06Z</time>
      </trkpt>
      <trkpt lat="45.08021" lon="6.04164">
        <ele>1507.5</ele>
        <time>2020-08-05T11:07:07Z</time>
      </trkpt>
      <trkpt lat="45.08022" lon="6.04164">
        <ele>1507.5</ele>
        <time>2020-08-05T11:07:09Z</time>
      </trkpt>
      <trkpt lat="45.08022" lon="6.04161">
        <ele>1507.5</ele>
        <time>2020-08-05T11:07:11Z</time>
      </trkpt>
      <trkpt lat="45.08022" lon="6.0416">
        <ele>1507.5</ele>
        <time>2020-08-05T11:07:14Z</time>
      </trkpt>
      <trkpt lat="45.08022" lon="6.04159">
        <ele>1507.5</ele>
        <time>2020-08-05T11:07:16Z</time>
      </trkpt>
      <trkpt lat="45.08021" lon="6.04159">
        <ele>1507.5</ele>
        <time>2020-08-05T11:07:17Z</time>
      </trkpt>
      <trkpt lat="45.08021" lon="6.04159">
        <ele>1507.5</ele>
        <time>2020-08-05T11:07:19Z</time>
      </trkpt>
      <trkpt lat="45.08021" lon="6.04158">
        <ele>1507.5</ele>
        <time>2020-08-05T11:07:21Z</time>
      </trkpt>
      <trkpt lat="45.08024" lon="6.04157">
        <ele>1507.5</ele>
        <time>2020-08-05T11:08:47Z</time>
      </trkpt>
      <trkpt lat="45.08025" lon="6.04155">
        <ele>1507.5</ele>
        <time>2020-08-05T11:08:48Z</time>
      </trkpt>
      <trkpt lat="45.08026" lon="6.04154">
        <ele>1507.5</ele>
        <time>2020-08-05T11:08:49Z</time>
      </trkpt>
      <trkpt lat="45.08024" lon="6.04155">
        <ele>1507.5</ele>
        <time>2020-08-05T11:08:51Z</time>
      </trkpt>
      <trkpt lat="45.08024" lon="6.04156">
        <ele>1507.5</ele>
        <time>2020-08-05T11:08:52Z</time>
      </trkpt>
      <trkpt lat="45.08024" lon="6.04156">
        <ele>1507.5</ele>
        <time>2020-08-05T11:08:55Z</time>
      </trkpt>
      <trkpt lat="45.08025" lon="6.04155">
        <ele>1507.5</ele>
        <time>2020-08-05T11:08:57Z</time>
      </trkpt>
      <trkpt lat="45.08025" lon="6.04155">
        <ele>1507.5</ele>
        <time>2020-08-05T11:08:59Z</time>
      </trkpt>
      <trkpt lat="45.08025" lon="6.04154">
        <ele>1507.5</ele>
        <time>2020-08-05T11:09:00Z</time>
      </trkpt>
      <trkpt lat="45.08025" lon="6.04154">
        <ele>1507.5</ele>
        <time>2020-08-05T11:09:01Z</time>
      </trkpt>
      <trkpt lat="45.08032" lon="6.04148">
        <ele>1507.4</ele>
        <time>2020-08-05T11:09:03Z</time>
      </trkpt>
      <trkpt lat="45.08036" lon="6.04145">
        <ele>1507.4</ele>
        <time>2020-08-05T11:09:05Z</time>
      </trkpt>
      <trkpt lat="45.08043" lon="6.04139">
        <ele>1507.4</ele>
        <time>2020-08-05T11:09:07Z</time>
      </trkpt>
      <trkpt lat="45.08048" lon="6.04137">
        <ele>1507.4</ele>
        <time>2020-08-05T11:09:08Z</time>
      </trkpt>
      <trkpt lat="45.08053" lon="6.04135">
        <ele>1507.4</ele>
        <time>2020-08-05T11:09:09Z</time>
      </trkpt>
      <trkpt lat="45.08064" lon="6.04131">
        <ele>1507.4</ele>
        <time>2020-08-05T11:09:11Z</time>
      </trkpt>
      <trkpt lat="45.0807" lon="6.0413">
        <ele>1507.4</ele>
        <time>2020-08-05T11:09:12Z</time>
      </trkpt>
      <trkpt lat="45.08082" lon="6.04127">
        <ele>1507.2</ele>
        <time>2020-08-05T11:09:14Z</time>
      </trkpt>
      <trkpt lat="45.08094" lon="6.04122">
        <ele>1507.1</ele>
        <time>2020-08-05T11:09:16Z</time>
      </trkpt>
      <trkpt lat="45.08106" lon="6.04116">
        <ele>1506.9</ele>
        <time>2020-08-05T11:09:18Z</time>
      </trkpt>
      <trkpt lat="45.08112" lon="6.04113">
        <ele>1506.8</ele>
        <time>2020-08-05T11:09:19Z</time>
      </trkpt>
      <trkpt lat="45.08118" lon="6.04109">
        <ele>1506.6</ele>
        <time>2020-08-05T11:09:20Z</time>
      </trkpt>
      <trkpt lat="45.08131" lon="6.04102">
        <ele>1506.4</ele>
        <time>2020-08-05T11:09:22Z</time>
      </trkpt>
      <trkpt lat="45.08147" lon="6.04096">
        <ele>1506</ele>
        <time>2020-08-05T11:09:24Z</time>
      </trkpt>
      <trkpt lat="45.08156" lon="6.04094">
        <ele>1505.8</ele>
        <time>2020-08-05T11:09:25Z</time>
      </trkpt>
      <trkpt lat="45.08173" lon="6.0409">
        <ele>1505.5</ele>
        <time>2020-08-05T11:09:27Z</time>
      </trkpt>
      <trkpt lat="45.08182" lon="6.04087">
        <ele>1505.4</ele>
        <time>2020-08-05T11:09:28Z</time>
      </trkpt>
      <trkpt lat="45.082" lon="6.04081">
        <ele>1505.2</ele>
        <time>2020-08-05T11:09:30Z</time>
      </trkpt>
      <trkpt lat="45.08217" lon="6.04074">
        <ele>1505</ele>
        <time>2020-08-05T11:09:32Z</time>
      </trkpt>
      <trkpt lat="45.08233" lon="6.04068">
        <ele>1504.8</ele>
        <time>2020-08-05T11:09:34Z</time>
      </trkpt>
      <trkpt lat="45.08241" lon="6.04064">
        <ele>1504.7</ele>
        <time>2020-08-05T11:09:35Z</time>
      </trkpt>
      <trkpt lat="45.08248" lon="6.04057">
        <ele>1504.6</ele>
        <time>2020-08-05T11:09:36Z</time>
      </trkpt>
      <trkpt lat="45.08263" lon="6.04043">
        <ele>1504.5</ele>
        <time>2020-08-05T11:09:38Z</time>
      </trkpt>
      <trkpt lat="45.0827" lon="6.04037">
        <ele>1504.5</ele>
        <time>2020-08-05T11:09:39Z</time>
      </trkpt>
      <trkpt lat="45.08286" lon="6.04028">
        <ele>1504.5</ele>
        <time>2020-08-05T11:09:41Z</time>
      </trkpt>
      <trkpt lat="45.08302" lon="6.04023">
        <ele>1504.7</ele>
        <time>2020-08-05T11:09:43Z</time>
      </trkpt>
      <trkpt lat="45.08318" lon="6.04015">
        <ele>1504.9</ele>
        <time>2020-08-05T11:09:45Z</time>
      </trkpt>
      <trkpt lat="45.0833" lon="6.04">
        <ele>1505.1</ele>
        <time>2020-08-05T11:09:47Z</time>
      </trkpt>
      <trkpt lat="45.08335" lon="6.03991">
        <ele>1505.2</ele>
        <time>2020-08-05T11:09:48Z</time>
      </trkpt>
      <trkpt lat="45.0834" lon="6.03981">
        <ele>1505.3</ele>
        <time>2020-08-05T11:09:49Z</time>
      </trkpt>
      <trkpt lat="45.08349" lon="6.03967">
        <ele>1505.4</ele>
        <time>2020-08-05T11:09:51Z</time>
      </trkpt>
      <trkpt lat="45.08363" lon="6.03964">
        <ele>1505.3</ele>
        <time>2020-08-05T11:09:53Z</time>
      </trkpt>
      <trkpt lat="45.08377" lon="6.03963">
        <ele>1505.1</ele>
        <time>2020-08-05T11:09:55Z</time>
      </trkpt>
      <trkpt lat="45.08383" lon="6.03958">
        <ele>1505</ele>
        <time>2020-08-05T11:09:56Z</time>
      </trkpt>
      <trkpt lat="45.08387" lon="6.03935">
        <ele>1504.7</ele>
        <time>2020-08-05T11:09:58Z</time>
      </trkpt>
      <trkpt lat="45.08385" lon="6.03922">
        <ele>1504.6</ele>
        <time>2020-08-05T11:09:59Z</time>
      </trkpt>
      <trkpt lat="45.08383" lon="6.0391">
        <ele>1504.5</ele>
        <time>2020-08-05T11:10:00Z</time>
      </trkpt>
      <trkpt lat="45.08385" lon="6.03898">
        <ele>1504.5</ele>
        <time>2020-08-05T11:10:01Z</time>
      </trkpt>
      <trkpt lat="45.08389" lon="6.03888">
        <ele>1504.5</ele>
        <time>2020-08-05T11:10:02Z</time>
      </trkpt>
      <trkpt lat="45.08402" lon="6.03871">
        <ele>1504.5</ele>
        <time>2020-08-05T11:10:04Z</time>
      </trkpt>
      <trkpt lat="45.08408" lon="6.03862">
        <ele>1504.6</ele>
        <time>2020-08-05T11:10:05Z</time>
      </trkpt>
      <trkpt lat="45.08419" lon="6.03842">
        <ele>1504.7</ele>
        <time>2020-08-05T11:10:07Z</time>
      </trkpt>
      <trkpt lat="45.08422" lon="6.0383">
        <ele>1504.7</ele>
        <time>2020-08-05T11:10:08Z</time>
      </trkpt>
      <trkpt lat="45.08426" lon="6.03805">
        <ele>1504.8</ele>
        <time>2020-08-05T11:10:10Z</time>
      </trkpt>
      <trkpt lat="45.08428" lon="6.0378">
        <ele>1504.7</ele>
        <time>2020-08-05T11:10:12Z</time>
      </trkpt>
      <trkpt lat="45.08428" lon="6.03767">
        <ele>1504.6</ele>
        <time>2020-08-05T11:10:13Z</time>
      </trkpt>
      <trkpt lat="45.08433" lon="6.03743">
        <ele>1504.2</ele>
        <time>2020-08-05T11:10:15Z</time>
      </trkpt>
      <trkpt lat="45.08443" lon="6.03723">
        <ele>1503.7</ele>
        <time>2020-08-05T11:10:17Z</time>
      </trkpt>
      <trkpt lat="45.08453" lon="6.03706">
        <ele>1502.8</ele>
        <time>2020-08-05T11:10:19Z</time>
      </trkpt>
      <trkpt lat="45.08456" lon="6.03695">
        <ele>1502.3</ele>
        <time>2020-08-05T11:10:20Z</time>
      </trkpt>
      <trkpt lat="45.08463" lon="6.03673">
        <ele>1501.1</ele>
        <time>2020-08-05T11:10:22Z</time>
      </trkpt>
      <trkpt lat="45.08469" lon="6.03664">
        <ele>1500.5</ele>
        <time>2020-08-05T11:10:23Z</time>
      </trkpt>
      <trkpt lat="45.08475" lon="6.03655">
        <ele>1499.9</ele>
        <time>2020-08-05T11:10:24Z</time>
      </trkpt>
      <trkpt lat="45.08488" lon="6.03636">
        <ele>1498.5</ele>
        <time>2020-08-05T11:10:26Z</time>
      </trkpt>
      <trkpt lat="45.08506" lon="6.03627">
        <ele>1496.8</ele>
        <time>2020-08-05T11:10:28Z</time>
      </trkpt>
      <trkpt lat="45.08528" lon="6.03625">
        <ele>1494.9</ele>
        <time>2020-08-05T11:10:30Z</time>
      </trkpt>
      <trkpt lat="45.08539" lon="6.03622">
        <ele>1494</ele>
        <time>2020-08-05T11:10:31Z</time>
      </trkpt>
      <trkpt lat="45.08559" lon="6.03604">
        <ele>1492.4</ele>
        <time>2020-08-05T11:10:33Z</time>
      </trkpt>
      <trkpt lat="45.08566" lon="6.03592">
        <ele>1491.5</ele>
        <time>2020-08-05T11:10:34Z</time>
      </trkpt>
      <trkpt lat="45.08579" lon="6.03575">
        <ele>1490</ele>
        <time>2020-08-05T11:10:36Z</time>
      </trkpt>
      <trkpt lat="45.08595" lon="6.03576">
        <ele>1488.4</ele>
        <time>2020-08-05T11:10:38Z</time>
      </trkpt>
      <trkpt lat="45.08614" lon="6.03589">
        <ele>1486.2</ele>
        <time>2020-08-05T11:10:40Z</time>
      </trkpt>
      <trkpt lat="45.08623" lon="6.03594">
        <ele>1485.1</ele>
        <time>2020-08-05T11:10:41Z</time>
      </trkpt>
      <trkpt lat="45.08644" lon="6.03605">
        <ele>1482.7</ele>
        <time>2020-08-05T11:10:43Z</time>
      </trkpt>
      <trkpt lat="45.08656" lon="6.03611">
        <ele>1481.5</ele>
        <time>2020-08-05T11:10:44Z</time>
      </trkpt>
      <trkpt lat="45.08681" lon="6.03617">
        <ele>1479.4</ele>
        <time>2020-08-05T11:10:46Z</time>
      </trkpt>
      <trkpt lat="45.08693" lon="6.03617">
        <ele>1478.4</ele>
        <time>2020-08-05T11:10:47Z</time>
      </trkpt>
      <trkpt lat="45.08718" lon="6.03614">
        <ele>1476.3</ele>
        <time>2020-08-05T11:10:49Z</time>
      </trkpt>
      <trkpt lat="45.08743" lon="6.03613">
        <ele>1474</ele>
        <time>2020-08-05T11:10:51Z</time>
      </trkpt>
      <trkpt lat="45.08768" lon="6.03614">
        <ele>1471.7</ele>
        <time>2020-08-05T11:10:53Z</time>
      </trkpt>
      <trkpt lat="45.08791" lon="6.03605">
        <ele>1469.6</ele>
        <time>2020-08-05T11:10:55Z</time>
      </trkpt>
      <trkpt lat="45.08809" lon="6.03579">
        <ele>1467.4</ele>
        <time>2020-08-05T11:10:57Z</time>
      </trkpt>
      <trkpt lat="45.08827" lon="6.03555">
        <ele>1465.1</ele>
        <time>2020-08-05T11:10:59Z</time>
      </trkpt>
      <trkpt lat="45.08839" lon="6.03548">
        <ele>1463.8</ele>
        <time>2020-08-05T11:11:00Z</time>
      </trkpt>
      <trkpt lat="45.08863" lon="6.03532">
        <ele>1461.4</ele>
        <time>2020-08-05T11:11:02Z</time>
      </trkpt>
      <trkpt lat="45.0888" lon="6.03502">
        <ele>1459.3</ele>
        <time>2020-08-05T11:11:04Z</time>
      </trkpt>
      <trkpt lat="45.08887" lon="6.03466">
        <ele>1457.4</ele>
        <time>2020-08-05T11:11:06Z</time>
      </trkpt>
      <trkpt lat="45.0889" lon="6.03449">
        <ele>1456.4</ele>
        <time>2020-08-05T11:11:07Z</time>
      </trkpt>
      <trkpt lat="45.08901" lon="6.03421">
        <ele>1454.7</ele>
        <time>2020-08-05T11:11:09Z</time>
      </trkpt>
      <trkpt lat="45.08909" lon="6.03408">
        <ele>1453.8</ele>
        <time>2020-08-05T11:11:10Z</time>
      </trkpt>
      <trkpt lat="45.08929" lon="6.03388">
        <ele>1452.2</ele>
        <time>2020-08-05T11:11:12Z</time>
      </trkpt>
      <trkpt lat="45.08951" lon="6.03374">
        <ele>1450.6</ele>
        <time>2020-08-05T11:11:14Z</time>
      </trkpt>
      <trkpt lat="45.08972" lon="6.03364">
        <ele>1448.7</ele>
        <time>2020-08-05T11:11:16Z</time>
      </trkpt>
      <trkpt lat="45.08994" lon="6.03356">
        <ele>1446.8</ele>
        <time>2020-08-05T11:11:18Z</time>
      </trkpt>
      <trkpt lat="45.09015" lon="6.03353">
        <ele>1445.1</ele>
        <time>2020-08-05T11:11:20Z</time>
      </trkpt>
      <trkpt lat="45.09027" lon="6.03351">
        <ele>1444.1</ele>
        <time>2020-08-05T11:11:21Z</time>
      </trkpt>
      <trkpt lat="45.09039" lon="6.03349">
        <ele>1445.3</ele>
        <time>2020-08-05T11:11:22Z</time>
      </trkpt>
      <trkpt lat="45.09051" lon="6.03347">
        <ele>1446.3</ele>
        <time>2020-08-05T11:11:23Z</time>
      </trkpt>
      <trkpt lat="45.09076" lon="6.03347">
        <ele>1448.1</ele>
        <time>2020-08-05T11:11:25Z</time>
      </trkpt>
      <trkpt lat="45.09089" lon="6.03349">
        <ele>1449</ele>
        <time>2020-08-05T11:11:26Z</time>
      </trkpt>
      <trkpt lat="45.0911" lon="6.03355">
        <ele>1450.6</ele>
        <time>2020-08-05T11:11:28Z</time>
      </trkpt>
      <trkpt lat="45.09124" lon="6.03366">
        <ele>1451.5</ele>
        <time>2020-08-05T11:11:30Z</time>
      </trkpt>
      <trkpt lat="45.0913" lon="6.03371">
        <ele>1450.4</ele>
        <time>2020-08-05T11:11:31Z</time>
      </trkpt>
      <trkpt lat="45.09136" lon="6.03373">
        <ele>1449.7</ele>
        <time>2020-08-05T11:11:32Z</time>
      </trkpt>
      <trkpt lat="45.09148" lon="6.03361">
        <ele>1448.2</ele>
        <time>2020-08-05T11:11:34Z</time>
      </trkpt>
      <trkpt lat="45.09153" lon="6.03342">
        <ele>1447</ele>
        <time>2020-08-05T11:11:36Z</time>
      </trkpt>
      <trkpt lat="45.09155" lon="6.03332">
        <ele>1446.6</ele>
        <time>2020-08-05T11:11:37Z</time>
      </trkpt>
      <trkpt lat="45.09157" lon="6.03322">
        <ele>1446.1</ele>
        <time>2020-08-05T11:11:38Z</time>
      </trkpt>
      <trkpt lat="45.09158" lon="6.03301">
        <ele>1445.3</ele>
        <time>2020-08-05T11:11:40Z</time>
      </trkpt>
      <trkpt lat="45.09158" lon="6.03279">
        <ele>1444.4</ele>
        <time>2020-08-05T11:11:42Z</time>
      </trkpt>
      <trkpt lat="45.09158" lon="6.03256">
        <ele>1443.8</ele>
        <time>2020-08-05T11:11:44Z</time>
      </trkpt>
      <trkpt lat="45.0916" lon="6.03245">
        <ele>1443.6</ele>
        <time>2020-08-05T11:11:45Z</time>
      </trkpt>
      <trkpt lat="45.09163" lon="6.03223">
        <ele>1443.3</ele>
        <time>2020-08-05T11:11:47Z</time>
      </trkpt>
      <trkpt lat="45.09169" lon="6.03203">
        <ele>1443</ele>
        <time>2020-08-05T11:11:49Z</time>
      </trkpt>
      <trkpt lat="45.09174" lon="6.03182">
        <ele>1443.3</ele>
        <time>2020-08-05T11:11:51Z</time>
      </trkpt>
      <trkpt lat="45.09174" lon="6.03171">
        <ele>1443.6</ele>
        <time>2020-08-05T11:11:52Z</time>
      </trkpt>
      <trkpt lat="45.0917" lon="6.03153">
        <ele>1444</ele>
        <time>2020-08-05T11:11:54Z</time>
      </trkpt>
      <trkpt lat="45.09166" lon="6.03146">
        <ele>1444.1</ele>
        <time>2020-08-05T11:11:55Z</time>
      </trkpt>
      <trkpt lat="45.0916" lon="6.03134">
        <ele>1442.3</ele>
        <time>2020-08-05T11:11:57Z</time>
      </trkpt>
      <trkpt lat="45.09159" lon="6.03128">
        <ele>1441.5</ele>
        <time>2020-08-05T11:11:58Z</time>
      </trkpt>
      <trkpt lat="45.0916" lon="6.0311">
        <ele>1440.3</ele>
        <time>2020-08-05T11:12:00Z</time>
      </trkpt>
      <trkpt lat="45.09165" lon="6.031">
        <ele>1439.9</ele>
        <time>2020-08-05T11:12:01Z</time>
      </trkpt>
      <trkpt lat="45.09178" lon="6.03085">
        <ele>1439.4</ele>
        <time>2020-08-05T11:12:03Z</time>
      </trkpt>
      <trkpt lat="45.09189" lon="6.03072">
        <ele>1439.1</ele>
        <time>2020-08-05T11:12:05Z</time>
      </trkpt>
      <trkpt lat="45.09193" lon="6.03065">
        <ele>1439.1</ele>
        <time>2020-08-05T11:12:06Z</time>
      </trkpt>
      <trkpt lat="45.09195" lon="6.03058">
        <ele>1439</ele>
        <time>2020-08-05T11:12:07Z</time>
      </trkpt>
      <trkpt lat="45.09202" lon="6.03044">
        <ele>1438.7</ele>
        <time>2020-08-05T11:12:09Z</time>
      </trkpt>
      <trkpt lat="45.0921" lon="6.03038">
        <ele>1438.2</ele>
        <time>2020-08-05T11:12:11Z</time>
      </trkpt>
      <trkpt lat="45.09215" lon="6.03037">
        <ele>1438</ele>
        <time>2020-08-05T11:12:12Z</time>
      </trkpt>
      <trkpt lat="45.09222" lon="6.03038">
        <ele>1438.7</ele>
        <time>2020-08-05T11:12:14Z</time>
      </trkpt>
      <trkpt lat="45.09225" lon="6.03039">
        <ele>1439.2</ele>
        <time>2020-08-05T11:12:15Z</time>
      </trkpt>
      <trkpt lat="45.09228" lon="6.03039">
        <ele>1439.6</ele>
        <time>2020-08-05T11:12:16Z</time>
      </trkpt>
      <trkpt lat="45.09233" lon="6.0304">
        <ele>1440.3</ele>
        <time>2020-08-05T11:12:17Z</time>
      </trkpt>
      <trkpt lat="45.09236" lon="6.03041">
        <ele>1440.6</ele>
        <time>2020-08-05T11:12:18Z</time>
      </trkpt>
      <trkpt lat="45.09239" lon="6.03043">
        <ele>1441</ele>
        <time>2020-08-05T11:12:21Z</time>
      </trkpt>
      <trkpt lat="45.09242" lon="6.03045">
        <ele>1441.4</ele>
        <time>2020-08-05T11:12:22Z</time>
      </trkpt>
      <trkpt lat="45.09242" lon="6.03047">
        <ele>1441.6</ele>
        <time>2020-08-05T11:12:24Z</time>
      </trkpt>
      <trkpt lat="45.09241" lon="6.03049">
        <ele>1441.8</ele>
        <time>2020-08-05T11:12:26Z</time>
      </trkpt>
      <trkpt lat="45.09243" lon="6.03049">
        <ele>1442</ele>
        <time>2020-08-05T11:12:27Z</time>
      </trkpt>
      <trkpt lat="45.09246" lon="6.03049">
        <ele>1442.4</ele>
        <time>2020-08-05T11:12:29Z</time>
      </trkpt>
      <trkpt lat="45.09253" lon="6.03049">
        <ele>1443.2</ele>
        <time>2020-08-05T11:12:31Z</time>
      </trkpt>
      <trkpt lat="45.09259" lon="6.0305">
        <ele>1443.9</ele>
        <time>2020-08-05T11:12:33Z</time>
      </trkpt>
      <trkpt lat="45.09265" lon="6.03053">
        <ele>1444.5</ele>
        <time>2020-08-05T11:12:34Z</time>
      </trkpt>
      <trkpt lat="45.09268" lon="6.03053">
        <ele>1444.9</ele>
        <time>2020-08-05T11:12:35Z</time>
      </trkpt>
      <trkpt lat="45.09272" lon="6.03054">
        <ele>1445.3</ele>
        <time>2020-08-05T11:12:38Z</time>
      </trkpt>
      <trkpt lat="45.09276" lon="6.03055">
        <ele>1445.8</ele>
        <time>2020-08-05T11:12:39Z</time>
      </trkpt>
      <trkpt lat="45.0928" lon="6.03055">
        <ele>1446.2</ele>
        <time>2020-08-05T11:12:40Z</time>
      </trkpt>
      <trkpt lat="45.09282" lon="6.03056">
        <ele>1446.5</ele>
        <time>2020-08-05T11:12:42Z</time>
      </trkpt>
      <trkpt lat="45.09285" lon="6.03061">
        <ele>1447</ele>
        <time>2020-08-05T11:12:44Z</time>
      </trkpt>
      <trkpt lat="45.09288" lon="6.03064">
        <ele>1447.5</ele>
        <time>2020-08-05T11:12:46Z</time>
      </trkpt>
      <trkpt lat="45.0929" lon="6.03064">
        <ele>1447.6</ele>
        <time>2020-08-05T11:12:47Z</time>
      </trkpt>
      <trkpt lat="45.09291" lon="6.03065">
        <ele>1447.8</ele>
        <time>2020-08-05T11:12:48Z</time>
      </trkpt>
      <trkpt lat="45.09295" lon="6.03062">
        <ele>1448.3</ele>
        <time>2020-08-05T11:12:50Z</time>
      </trkpt>
      <trkpt lat="45.09302" lon="6.03059">
        <ele>1448.9</ele>
        <time>2020-08-05T11:12:52Z</time>
      </trkpt>
      <trkpt lat="45.09305" lon="6.03058">
        <ele>1449.2</ele>
        <time>2020-08-05T11:12:55Z</time>
      </trkpt>
      <trkpt lat="45.0931" lon="6.03067">
        <ele>1449.9</ele>
        <time>2020-08-05T11:12:57Z</time>
      </trkpt>
      <trkpt lat="45.09313" lon="6.03065">
        <ele>1450.2</ele>
        <time>2020-08-05T11:12:58Z</time>
      </trkpt>
      <trkpt lat="45.09316" lon="6.03064">
        <ele>1450.5</ele>
        <time>2020-08-05T11:12:59Z</time>
      </trkpt>
      <trkpt lat="45.09322" lon="6.03064">
        <ele>1451.1</ele>
        <time>2020-08-05T11:13:02Z</time>
      </trkpt>
      <trkpt lat="45.09325" lon="6.03064">
        <ele>1451.4</ele>
        <time>2020-08-05T11:13:03Z</time>
      </trkpt>
      <trkpt lat="45.09329" lon="6.03065">
        <ele>1451.7</ele>
        <time>2020-08-05T11:13:05Z</time>
      </trkpt>
      <trkpt lat="45.0933" lon="6.03065">
        <ele>1451.8</ele>
        <time>2020-08-05T11:13:06Z</time>
      </trkpt>
      <trkpt lat="45.09335" lon="6.03068">
        <ele>1452.4</ele>
        <time>2020-08-05T11:13:08Z</time>
      </trkpt>
      <trkpt lat="45.09337" lon="6.03068">
        <ele>1452.6</ele>
        <time>2020-08-05T11:13:10Z</time>
      </trkpt>
      <trkpt lat="45.09346" lon="6.03071">
        <ele>1453.4</ele>
        <time>2020-08-05T11:13:13Z</time>
      </trkpt>
      <trkpt lat="45.09349" lon="6.03072">
        <ele>1453.7</ele>
        <time>2020-08-05T11:13:16Z</time>
      </trkpt>
      <trkpt lat="45.09357" lon="6.03072">
        <ele>1454.5</ele>
        <time>2020-08-05T11:13:18Z</time>
      </trkpt>
      <trkpt lat="45.09362" lon="6.03072">
        <ele>1454.9</ele>
        <time>2020-08-05T11:13:21Z</time>
      </trkpt>
      <trkpt lat="45.09364" lon="6.03073">
        <ele>1455.1</ele>
        <time>2020-08-05T11:13:23Z</time>
      </trkpt>
      <trkpt lat="45.09368" lon="6.03073">
        <ele>1455.5</ele>
        <time>2020-08-05T11:13:25Z</time>
      </trkpt>
      <trkpt lat="45.09373" lon="6.03075">
        <ele>1455.9</ele>
        <time>2020-08-05T11:13:26Z</time>
      </trkpt>
      <trkpt lat="45.09375" lon="6.03076">
        <ele>1456.1</ele>
        <time>2020-08-05T11:13:27Z</time>
      </trkpt>
      <trkpt lat="45.09379" lon="6.03078">
        <ele>1456.3</ele>
        <time>2020-08-05T11:13:28Z</time>
      </trkpt>
      <trkpt lat="45.0938" lon="6.03079">
        <ele>1456.4</ele>
        <time>2020-08-05T11:13:29Z</time>
      </trkpt>
      <trkpt lat="45.09382" lon="6.03081">
        <ele>1456.6</ele>
        <time>2020-08-05T11:13:30Z</time>
      </trkpt>
      <trkpt lat="45.09385" lon="6.03083">
        <ele>1456.7</ele>
        <time>2020-08-05T11:13:33Z</time>
      </trkpt>
      <trkpt lat="45.09388" lon="6.03084">
        <ele>1456.8</ele>
        <time>2020-08-05T11:13:34Z</time>
      </trkpt>
      <trkpt lat="45.09389" lon="6.03085">
        <ele>1456.8</ele>
        <time>2020-08-05T11:13:35Z</time>
      </trkpt>
      <trkpt lat="45.09394" lon="6.03085">
        <ele>1456.7</ele>
        <time>2020-08-05T11:13:37Z</time>
      </trkpt>
      <trkpt lat="45.09397" lon="6.03084">
        <ele>1456.7</ele>
        <time>2020-08-05T11:13:38Z</time>
      </trkpt>
      <trkpt lat="45.09402" lon="6.03081">
        <ele>1456.5</ele>
        <time>2020-08-05T11:13:39Z</time>
      </trkpt>
      <trkpt lat="45.09408" lon="6.0308">
        <ele>1456.3</ele>
        <time>2020-08-05T11:13:41Z</time>
      </trkpt>
      <trkpt lat="45.09414" lon="6.03078">
        <ele>1456</ele>
        <time>2020-08-05T11:13:42Z</time>
      </trkpt>
      <trkpt lat="45.09418" lon="6.03077">
        <ele>1455.7</ele>
        <time>2020-08-05T11:13:44Z</time>
      </trkpt>
      <trkpt lat="45.09424" lon="6.03077">
        <ele>1455.4</ele>
        <time>2020-08-05T11:13:45Z</time>
      </trkpt>
      <trkpt lat="45.0943" lon="6.03077">
        <ele>1455</ele>
        <time>2020-08-05T11:13:46Z</time>
      </trkpt>
      <trkpt lat="45.09436" lon="6.03078">
        <ele>1454.7</ele>
        <time>2020-08-05T11:13:47Z</time>
      </trkpt>
      <trkpt lat="45.09446" lon="6.03081">
        <ele>1454.1</ele>
        <time>2020-08-05T11:13:49Z</time>
      </trkpt>
      <trkpt lat="45.09458" lon="6.03085">
        <ele>1453.5</ele>
        <time>2020-08-05T11:13:51Z</time>
      </trkpt>
      <trkpt lat="45.0947" lon="6.03088">
        <ele>1452.8</ele>
        <time>2020-08-05T11:13:53Z</time>
      </trkpt>
      <trkpt lat="45.09475" lon="6.0309">
        <ele>1452.5</ele>
        <time>2020-08-05T11:13:54Z</time>
      </trkpt>
      <trkpt lat="45.09487" lon="6.03094">
        <ele>1451.8</ele>
        <time>2020-08-05T11:13:56Z</time>
      </trkpt>
      <trkpt lat="45.09493" lon="6.03096">
        <ele>1451.4</ele>
        <time>2020-08-05T11:13:57Z</time>
      </trkpt>
      <trkpt lat="45.09504" lon="6.031">
        <ele>1450.5</ele>
        <time>2020-08-05T11:13:59Z</time>
      </trkpt>
      <trkpt lat="45.0951" lon="6.03103">
        <ele>1450.1</ele>
        <time>2020-08-05T11:14:00Z</time>
      </trkpt>
      <trkpt lat="45.09523" lon="6.03109">
        <ele>1449</ele>
        <time>2020-08-05T11:14:02Z</time>
      </trkpt>
      <trkpt lat="45.09538" lon="6.03116">
        <ele>1447.7</ele>
        <time>2020-08-05T11:14:04Z</time>
      </trkpt>
      <trkpt lat="45.09546" lon="6.03119">
        <ele>1447</ele>
        <time>2020-08-05T11:14:05Z</time>
      </trkpt>
      <trkpt lat="45.09562" lon="6.03126">
        <ele>1445.5</ele>
        <time>2020-08-05T11:14:07Z</time>
      </trkpt>
      <trkpt lat="45.0957" lon="6.03131">
        <ele>1444.6</ele>
        <time>2020-08-05T11:14:08Z</time>
      </trkpt>
      <trkpt lat="45.09587" lon="6.03141">
        <ele>1442.9</ele>
        <time>2020-08-05T11:14:10Z</time>
      </trkpt>
      <trkpt lat="45.09604" lon="6.03154">
        <ele>1441.1</ele>
        <time>2020-08-05T11:14:12Z</time>
      </trkpt>
      <trkpt lat="45.09613" lon="6.03161">
        <ele>1440.2</ele>
        <time>2020-08-05T11:14:13Z</time>
      </trkpt>
      <trkpt lat="45.09622" lon="6.03167">
        <ele>1439.4</ele>
        <time>2020-08-05T11:14:14Z</time>
      </trkpt>
      <trkpt lat="45.0964" lon="6.03183">
        <ele>1438</ele>
        <time>2020-08-05T11:14:16Z</time>
      </trkpt>
      <trkpt lat="45.09649" lon="6.03191">
        <ele>1437.3</ele>
        <time>2020-08-05T11:14:17Z</time>
      </trkpt>
      <trkpt lat="45.09657" lon="6.032">
        <ele>1436.7</ele>
        <time>2020-08-05T11:14:18Z</time>
      </trkpt>
      <trkpt lat="45.09674" lon="6.03218">
        <ele>1435.3</ele>
        <time>2020-08-05T11:14:20Z</time>
      </trkpt>
      <trkpt lat="45.09682" lon="6.03227">
        <ele>1434.7</ele>
        <time>2020-08-05T11:14:21Z</time>
      </trkpt>
      <trkpt lat="45.09699" lon="6.03247">
        <ele>1433.2</ele>
        <time>2020-08-05T11:14:23Z</time>
      </trkpt>
      <trkpt lat="45.09708" lon="6.03257">
        <ele>1432.4</ele>
        <time>2020-08-05T11:14:24Z</time>
      </trkpt>
      <trkpt lat="45.09717" lon="6.03267">
        <ele>1431.6</ele>
        <time>2020-08-05T11:14:25Z</time>
      </trkpt>
      <trkpt lat="45.09734" lon="6.03287">
        <ele>1429.9</ele>
        <time>2020-08-05T11:14:27Z</time>
      </trkpt>
      <trkpt lat="45.09753" lon="6.03307">
        <ele>1428.2</ele>
        <time>2020-08-05T11:14:29Z</time>
      </trkpt>
      <trkpt lat="45.09773" lon="6.03325">
        <ele>1426.4</ele>
        <time>2020-08-05T11:14:31Z</time>
      </trkpt>
      <trkpt lat="45.09798" lon="6.03332">
        <ele>1424.6</ele>
        <time>2020-08-05T11:14:33Z</time>
      </trkpt>
      <trkpt lat="45.0981" lon="6.0333">
        <ele>1423.8</ele>
        <time>2020-08-05T11:14:34Z</time>
      </trkpt>
      <trkpt lat="45.09835" lon="6.03327">
        <ele>1422.2</ele>
        <time>2020-08-05T11:14:36Z</time>
      </trkpt>
      <trkpt lat="45.09859" lon="6.03333">
        <ele>1420.5</ele>
        <time>2020-08-05T11:14:38Z</time>
      </trkpt>
      <trkpt lat="45.09871" lon="6.03339">
        <ele>1419.7</ele>
        <time>2020-08-05T11:14:39Z</time>
      </trkpt>
      <trkpt lat="45.09891" lon="6.03358">
        <ele>1418.1</ele>
        <time>2020-08-05T11:14:41Z</time>
      </trkpt>
      <trkpt lat="45.099" lon="6.03369">
        <ele>1417.2</ele>
        <time>2020-08-05T11:14:42Z</time>
      </trkpt>
      <trkpt lat="45.0991" lon="6.0338">
        <ele>1416.2</ele>
        <time>2020-08-05T11:14:43Z</time>
      </trkpt>
      <trkpt lat="45.0993" lon="6.03397">
        <ele>1414.4</ele>
        <time>2020-08-05T11:14:45Z</time>
      </trkpt>
      <trkpt lat="45.0995" lon="6.03415">
        <ele>1412.7</ele>
        <time>2020-08-05T11:14:47Z</time>
      </trkpt>
      <trkpt lat="45.09968" lon="6.03437">
        <ele>1410.9</ele>
        <time>2020-08-05T11:14:49Z</time>
      </trkpt>
      <trkpt lat="45.09976" lon="6.03449">
        <ele>1409.8</ele>
        <time>2020-08-05T11:14:50Z</time>
      </trkpt>
      <trkpt lat="45.09984" lon="6.03461">
        <ele>1408.7</ele>
        <time>2020-08-05T11:14:51Z</time>
      </trkpt>
      <trkpt lat="45.10001" lon="6.03485">
        <ele>1406.9</ele>
        <time>2020-08-05T11:14:53Z</time>
      </trkpt>
      <trkpt lat="45.10019" lon="6.03505">
        <ele>1405.4</ele>
        <time>2020-08-05T11:14:55Z</time>
      </trkpt>
      <trkpt lat="45.10038" lon="6.03523">
        <ele>1404.1</ele>
        <time>2020-08-05T11:14:57Z</time>
      </trkpt>
      <trkpt lat="45.10048" lon="6.03532">
        <ele>1403.4</ele>
        <time>2020-08-05T11:14:58Z</time>
      </trkpt>
      <trkpt lat="45.10067" lon="6.03552">
        <ele>1402.2</ele>
        <time>2020-08-05T11:15:00Z</time>
      </trkpt>
      <trkpt lat="45.10079" lon="6.0358">
        <ele>1401</ele>
        <time>2020-08-05T11:15:02Z</time>
      </trkpt>
      <trkpt lat="45.10094" lon="6.03606">
        <ele>1399.7</ele>
        <time>2020-08-05T11:15:04Z</time>
      </trkpt>
      <trkpt lat="45.10104" lon="6.03617">
        <ele>1398.9</ele>
        <time>2020-08-05T11:15:05Z</time>
      </trkpt>
      <trkpt lat="45.10127" lon="6.03632">
        <ele>1397.3</ele>
        <time>2020-08-05T11:15:07Z</time>
      </trkpt>
      <trkpt lat="45.1014" lon="6.03637">
        <ele>1396.6</ele>
        <time>2020-08-05T11:15:08Z</time>
      </trkpt>
      <trkpt lat="45.10152" lon="6.03642">
        <ele>1395.8</ele>
        <time>2020-08-05T11:15:09Z</time>
      </trkpt>
      <trkpt lat="45.10164" lon="6.03647">
        <ele>1395</ele>
        <time>2020-08-05T11:15:10Z</time>
      </trkpt>
      <trkpt lat="45.10188" lon="6.03656">
        <ele>1393.5</ele>
        <time>2020-08-05T11:15:12Z</time>
      </trkpt>
      <trkpt lat="45.102" lon="6.0366">
        <ele>1392.7</ele>
        <time>2020-08-05T11:15:13Z</time>
      </trkpt>
      <trkpt lat="45.10212" lon="6.03665">
        <ele>1391.9</ele>
        <time>2020-08-05T11:15:14Z</time>
      </trkpt>
      <trkpt lat="45.10236" lon="6.03681">
        <ele>1390</ele>
        <time>2020-08-05T11:15:16Z</time>
      </trkpt>
      <trkpt lat="45.10246" lon="6.03694">
        <ele>1388.9</ele>
        <time>2020-08-05T11:15:17Z</time>
      </trkpt>
      <trkpt lat="45.10264" lon="6.03724">
        <ele>1386.9</ele>
        <time>2020-08-05T11:15:19Z</time>
      </trkpt>
      <trkpt lat="45.10272" lon="6.03739">
        <ele>1386.1</ele>
        <time>2020-08-05T11:15:20Z</time>
      </trkpt>
      <trkpt lat="45.10289" lon="6.03769">
        <ele>1384.7</ele>
        <time>2020-08-05T11:15:22Z</time>
      </trkpt>
      <trkpt lat="45.10309" lon="6.03793">
        <ele>1383.4</ele>
        <time>2020-08-05T11:15:24Z</time>
      </trkpt>
      <trkpt lat="45.10329" lon="6.03814">
        <ele>1382.1</ele>
        <time>2020-08-05T11:15:26Z</time>
      </trkpt>
      <trkpt lat="45.10338" lon="6.03827">
        <ele>1381.4</ele>
        <time>2020-08-05T11:15:27Z</time>
      </trkpt>
      <trkpt lat="45.10351" lon="6.03857">
        <ele>1380.3</ele>
        <time>2020-08-05T11:15:29Z</time>
      </trkpt>
      <trkpt lat="45.10365" lon="6.03883">
        <ele>1379.6</ele>
        <time>2020-08-05T11:15:31Z</time>
      </trkpt>
      <trkpt lat="45.10388" lon="6.0389">
        <ele>1378.7</ele>
        <time>2020-08-05T11:15:33Z</time>
      </trkpt>
      <trkpt lat="45.10412" lon="6.03884">
        <ele>1377.7</ele>
        <time>2020-08-05T11:15:35Z</time>
      </trkpt>
      <trkpt lat="45.10423" lon="6.03878">
        <ele>1377.3</ele>
        <time>2020-08-05T11:15:36Z</time>
      </trkpt>
      <trkpt lat="45.10445" lon="6.03878">
        <ele>1376.2</ele>
        <time>2020-08-05T11:15:38Z</time>
      </trkpt>
      <trkpt lat="45.10457" lon="6.03884">
        <ele>1375.4</ele>
        <time>2020-08-05T11:15:39Z</time>
      </trkpt>
      <trkpt lat="45.10479" lon="6.03905">
        <ele>1373.8</ele>
        <time>2020-08-05T11:15:41Z</time>
      </trkpt>
      <trkpt lat="45.10502" lon="6.0392">
        <ele>1372.1</ele>
        <time>2020-08-05T11:15:43Z</time>
      </trkpt>
      <trkpt lat="45.10515" lon="6.03921">
        <ele>1371.3</ele>
        <time>2020-08-05T11:15:44Z</time>
      </trkpt>
      <trkpt lat="45.1054" lon="6.03912">
        <ele>1369.5</ele>
        <time>2020-08-05T11:15:46Z</time>
      </trkpt>
      <trkpt lat="45.10565" lon="6.03897">
        <ele>1367.5</ele>
        <time>2020-08-05T11:15:48Z</time>
      </trkpt>
      <trkpt lat="45.10578" lon="6.0389">
        <ele>1366.5</ele>
        <time>2020-08-05T11:15:49Z</time>
      </trkpt>
      <trkpt lat="45.10603" lon="6.03876">
        <ele>1364.6</ele>
        <time>2020-08-05T11:15:51Z</time>
      </trkpt>
      <trkpt lat="45.10628" lon="6.0386">
        <ele>1362.8</ele>
        <time>2020-08-05T11:15:53Z</time>
      </trkpt>
      <trkpt lat="45.10649" lon="6.03834">
        <ele>1361.2</ele>
        <time>2020-08-05T11:15:55Z</time>
      </trkpt>
      <trkpt lat="45.10665" lon="6.03807">
        <ele>1359.2</ele>
        <time>2020-08-05T11:15:57Z</time>
      </trkpt>
      <trkpt lat="45.10685" lon="6.03796">
        <ele>1357.5</ele>
        <time>2020-08-05T11:15:59Z</time>
      </trkpt>
      <trkpt lat="45.10698" lon="6.03799">
        <ele>1356.3</ele>
        <time>2020-08-05T11:16:00Z</time>
      </trkpt>
      <trkpt lat="45.10722" lon="6.03807">
        <ele>1354.1</ele>
        <time>2020-08-05T11:16:02Z</time>
      </trkpt>
      <trkpt lat="45.10746" lon="6.03821">
        <ele>1351.9</ele>
        <time>2020-08-05T11:16:04Z</time>
      </trkpt>
      <trkpt lat="45.10758" lon="6.03832">
        <ele>1350.7</ele>
        <time>2020-08-05T11:16:05Z</time>
      </trkpt>
      <trkpt lat="45.10782" lon="6.03855">
        <ele>1348.7</ele>
        <time>2020-08-05T11:16:07Z</time>
      </trkpt>
      <trkpt lat="45.10794" lon="6.03864">
        <ele>1347.8</ele>
        <time>2020-08-05T11:16:08Z</time>
      </trkpt>
      <trkpt lat="45.10821" lon="6.03865">
        <ele>1346.1</ele>
        <time>2020-08-05T11:16:10Z</time>
      </trkpt>
      <trkpt lat="45.10834" lon="6.03858">
        <ele>1345.1</ele>
        <time>2020-08-05T11:16:11Z</time>
      </trkpt>
      <trkpt lat="45.10856" lon="6.0384">
        <ele>1343.3</ele>
        <time>2020-08-05T11:16:13Z</time>
      </trkpt>
      <trkpt lat="45.1088" lon="6.0383">
        <ele>1341.5</ele>
        <time>2020-08-05T11:16:15Z</time>
      </trkpt>
      <trkpt lat="45.10905" lon="6.03813">
        <ele>1338.6</ele>
        <time>2020-08-05T11:16:17Z</time>
      </trkpt>
      <trkpt lat="45.10917" lon="6.03799">
        <ele>1336.9</ele>
        <time>2020-08-05T11:16:18Z</time>
      </trkpt>
      <trkpt lat="45.10927" lon="6.03785">
        <ele>1335.5</ele>
        <time>2020-08-05T11:16:19Z</time>
      </trkpt>
      <trkpt lat="45.10949" lon="6.03759">
        <ele>1333.2</ele>
        <time>2020-08-05T11:16:21Z</time>
      </trkpt>
      <trkpt lat="45.10963" lon="6.03752">
        <ele>1332.1</ele>
        <time>2020-08-05T11:16:22Z</time>
      </trkpt>
      <trkpt lat="45.10978" lon="6.03744">
        <ele>1331</ele>
        <time>2020-08-05T11:16:23Z</time>
      </trkpt>
      <trkpt lat="45.11005" lon="6.0372">
        <ele>1328.4</ele>
        <time>2020-08-05T11:16:25Z</time>
      </trkpt>
      <trkpt lat="45.11017" lon="6.03705">
        <ele>1327.4</ele>
        <time>2020-08-05T11:16:26Z</time>
      </trkpt>
      <trkpt lat="45.11027" lon="6.03692">
        <ele>1326.7</ele>
        <time>2020-08-05T11:16:27Z</time>
      </trkpt>
      <trkpt lat="45.11037" lon="6.03684">
        <ele>1326.1</ele>
        <time>2020-08-05T11:16:28Z</time>
      </trkpt>
      <trkpt lat="45.11061" lon="6.03687">
        <ele>1324.3</ele>
        <time>2020-08-05T11:16:30Z</time>
      </trkpt>
      <trkpt lat="45.11074" lon="6.03693">
        <ele>1323</ele>
        <time>2020-08-05T11:16:31Z</time>
      </trkpt>
      <trkpt lat="45.11102" lon="6.03698">
        <ele>1321</ele>
        <time>2020-08-05T11:16:33Z</time>
      </trkpt>
      <trkpt lat="45.11116" lon="6.03697">
        <ele>1320.2</ele>
        <time>2020-08-05T11:16:34Z</time>
      </trkpt>
      <trkpt lat="45.11143" lon="6.03695">
        <ele>1319</ele>
        <time>2020-08-05T11:16:36Z</time>
      </trkpt>
      <trkpt lat="45.1117" lon="6.03693">
        <ele>1318.2</ele>
        <time>2020-08-05T11:16:38Z</time>
      </trkpt>
      <trkpt lat="45.11198" lon="6.03691">
        <ele>1317.3</ele>
        <time>2020-08-05T11:16:40Z</time>
      </trkpt>
      <trkpt lat="45.11225" lon="6.03692">
        <ele>1316.4</ele>
        <time>2020-08-05T11:16:42Z</time>
      </trkpt>
      <trkpt lat="45.11238" lon="6.03691">
        <ele>1316</ele>
        <time>2020-08-05T11:16:43Z</time>
      </trkpt>
      <trkpt lat="45.11265" lon="6.03683">
        <ele>1314.9</ele>
        <time>2020-08-05T11:16:45Z</time>
      </trkpt>
      <trkpt lat="45.11278" lon="6.03673">
        <ele>1314.2</ele>
        <time>2020-08-05T11:16:46Z</time>
      </trkpt>
      <trkpt lat="45.11299" lon="6.03648">
        <ele>1313.3</ele>
        <time>2020-08-05T11:16:48Z</time>
      </trkpt>
      <trkpt lat="45.11308" lon="6.03636">
        <ele>1313</ele>
        <time>2020-08-05T11:16:49Z</time>
      </trkpt>
      <trkpt lat="45.11321" lon="6.03622">
        <ele>1312.5</ele>
        <time>2020-08-05T11:16:51Z</time>
      </trkpt>
      <trkpt lat="45.11328" lon="6.03622">
        <ele>1311.2</ele>
        <time>2020-08-05T11:16:52Z</time>
      </trkpt>
      <trkpt lat="45.11334" lon="6.03628">
        <ele>1310</ele>
        <time>2020-08-05T11:16:53Z</time>
      </trkpt>
      <trkpt lat="45.11338" lon="6.03654">
        <ele>1307.4</ele>
        <time>2020-08-05T11:16:55Z</time>
      </trkpt>
      <trkpt lat="45.11336" lon="6.03684">
        <ele>1305</ele>
        <time>2020-08-05T11:16:57Z</time>
      </trkpt>
      <trkpt lat="45.11335" lon="6.037">
        <ele>1303.9</ele>
        <time>2020-08-05T11:16:58Z</time>
      </trkpt>
      <trkpt lat="45.11331" lon="6.03732">
        <ele>1301.6</ele>
        <time>2020-08-05T11:17:00Z</time>
      </trkpt>
      <trkpt lat="45.11327" lon="6.03749">
        <ele>1300.4</ele>
        <time>2020-08-05T11:17:01Z</time>
      </trkpt>
      <trkpt lat="45.11323" lon="6.03768">
        <ele>1299</ele>
        <time>2020-08-05T11:17:02Z</time>
      </trkpt>
      <trkpt lat="45.11315" lon="6.03805">
        <ele>1296.3</ele>
        <time>2020-08-05T11:17:04Z</time>
      </trkpt>
      <trkpt lat="45.1131" lon="6.03824">
        <ele>1295</ele>
        <time>2020-08-05T11:17:05Z</time>
      </trkpt>
      <trkpt lat="45.11306" lon="6.03843">
        <ele>1293.6</ele>
        <time>2020-08-05T11:17:06Z</time>
      </trkpt>
      <trkpt lat="45.11296" lon="6.03882">
        <ele>1291</ele>
        <time>2020-08-05T11:17:08Z</time>
      </trkpt>
      <trkpt lat="45.11291" lon="6.03902">
        <ele>1289.7</ele>
        <time>2020-08-05T11:17:09Z</time>
      </trkpt>
      <trkpt lat="45.11282" lon="6.03941">
        <ele>1287.2</ele>
        <time>2020-08-05T11:17:11Z</time>
      </trkpt>
      <trkpt lat="45.11274" lon="6.03982">
        <ele>1284.7</ele>
        <time>2020-08-05T11:17:13Z</time>
      </trkpt>
      <trkpt lat="45.11268" lon="6.04024">
        <ele>1282.1</ele>
        <time>2020-08-05T11:17:15Z</time>
      </trkpt>
      <trkpt lat="45.11263" lon="6.04066">
        <ele>1279.5</ele>
        <time>2020-08-05T11:17:17Z</time>
      </trkpt>
      <trkpt lat="45.11259" lon="6.04108">
        <ele>1277</ele>
        <time>2020-08-05T11:17:19Z</time>
      </trkpt>
      <trkpt lat="45.11256" lon="6.0413">
        <ele>1275.6</ele>
        <time>2020-08-05T11:17:20Z</time>
      </trkpt>
      <trkpt lat="45.11254" lon="6.04151">
        <ele>1274.4</ele>
        <time>2020-08-05T11:17:21Z</time>
      </trkpt>
      <trkpt lat="45.11247" lon="6.04194">
        <ele>1272.2</ele>
        <time>2020-08-05T11:17:23Z</time>
      </trkpt>
      <trkpt lat="45.1124" lon="6.04236">
        <ele>1270.5</ele>
        <time>2020-08-05T11:17:25Z</time>
      </trkpt>
      <trkpt lat="45.11237" lon="6.04257">
        <ele>1269.8</ele>
        <time>2020-08-05T11:17:26Z</time>
      </trkpt>
      <trkpt lat="45.11228" lon="6.04297">
        <ele>1268.6</ele>
        <time>2020-08-05T11:17:28Z</time>
      </trkpt>
      <trkpt lat="45.11223" lon="6.04316">
        <ele>1268.2</ele>
        <time>2020-08-05T11:17:29Z</time>
      </trkpt>
      <trkpt lat="45.11213" lon="6.04347">
        <ele>1267.9</ele>
        <time>2020-08-05T11:17:31Z</time>
      </trkpt>
      <trkpt lat="45.11209" lon="6.0436">
        <ele>1267.8</ele>
        <time>2020-08-05T11:17:32Z</time>
      </trkpt>
      <trkpt lat="45.1121" lon="6.04382">
        <ele>1267.4</ele>
        <time>2020-08-05T11:17:34Z</time>
      </trkpt>
      <trkpt lat="45.11218" lon="6.04389">
        <ele>1266.6</ele>
        <time>2020-08-05T11:17:35Z</time>
      </trkpt>
      <trkpt lat="45.11237" lon="6.04375">
        <ele>1264.3</ele>
        <time>2020-08-05T11:17:37Z</time>
      </trkpt>
      <trkpt lat="45.11247" lon="6.04346">
        <ele>1261.6</ele>
        <time>2020-08-05T11:17:39Z</time>
      </trkpt>
      <trkpt lat="45.11254" lon="6.04313">
        <ele>1259.1</ele>
        <time>2020-08-05T11:17:41Z</time>
      </trkpt>
      <trkpt lat="45.11264" lon="6.04276">
        <ele>1256.6</ele>
        <time>2020-08-05T11:17:43Z</time>
      </trkpt>
      <trkpt lat="45.11274" lon="6.04237">
        <ele>1253.9</ele>
        <time>2020-08-05T11:17:45Z</time>
      </trkpt>
      <trkpt lat="45.1128" lon="6.04217">
        <ele>1252.5</ele>
        <time>2020-08-05T11:17:46Z</time>
      </trkpt>
      <trkpt lat="45.11285" lon="6.04196">
        <ele>1251</ele>
        <time>2020-08-05T11:17:47Z</time>
      </trkpt>
      <trkpt lat="45.11297" lon="6.04156">
        <ele>1248.5</ele>
        <time>2020-08-05T11:17:49Z</time>
      </trkpt>
      <trkpt lat="45.11302" lon="6.04136">
        <ele>1247.3</ele>
        <time>2020-08-05T11:17:50Z</time>
      </trkpt>
      <trkpt lat="45.11308" lon="6.04115">
        <ele>1246.1</ele>
        <time>2020-08-05T11:17:51Z</time>
      </trkpt>
      <trkpt lat="45.11318" lon="6.04076">
        <ele>1243.8</ele>
        <time>2020-08-05T11:17:53Z</time>
      </trkpt>
      <trkpt lat="45.11329" lon="6.04038">
        <ele>1241.8</ele>
        <time>2020-08-05T11:17:55Z</time>
      </trkpt>
      <trkpt lat="45.11336" lon="6.0402">
        <ele>1240.9</ele>
        <time>2020-08-05T11:17:56Z</time>
      </trkpt>
      <trkpt lat="45.11349" lon="6.03983">
        <ele>1239.6</ele>
        <time>2020-08-05T11:17:58Z</time>
      </trkpt>
      <trkpt lat="45.11362" lon="6.03948">
        <ele>1240</ele>
        <time>2020-08-05T11:18:00Z</time>
      </trkpt>
      <trkpt lat="45.11369" lon="6.0393">
        <ele>1239.2</ele>
        <time>2020-08-05T11:18:01Z</time>
      </trkpt>
      <trkpt lat="45.11377" lon="6.03912">
        <ele>1238</ele>
        <time>2020-08-05T11:18:02Z</time>
      </trkpt>
      <trkpt lat="45.11393" lon="6.03876">
        <ele>1235.4</ele>
        <time>2020-08-05T11:18:04Z</time>
      </trkpt>
      <trkpt lat="45.11401" lon="6.03857">
        <ele>1234.2</ele>
        <time>2020-08-05T11:18:05Z</time>
      </trkpt>
      <trkpt lat="45.11413" lon="6.03819">
        <ele>1231.8</ele>
        <time>2020-08-05T11:18:07Z</time>
      </trkpt>
      <trkpt lat="45.11424" lon="6.03778">
        <ele>1229.1</ele>
        <time>2020-08-05T11:18:09Z</time>
      </trkpt>
      <trkpt lat="45.11428" lon="6.03756">
        <ele>1227.7</ele>
        <time>2020-08-05T11:18:10Z</time>
      </trkpt>
      <trkpt lat="45.11433" lon="6.03735">
        <ele>1226.2</ele>
        <time>2020-08-05T11:18:11Z</time>
      </trkpt>
      <trkpt lat="45.1144" lon="6.0369">
        <ele>1223.8</ele>
        <time>2020-08-05T11:18:13Z</time>
      </trkpt>
      <trkpt lat="45.11445" lon="6.03646">
        <ele>1222.3</ele>
        <time>2020-08-05T11:18:15Z</time>
      </trkpt>
      <trkpt lat="45.11447" lon="6.03606">
        <ele>1221.7</ele>
        <time>2020-08-05T11:18:17Z</time>
      </trkpt>
      <trkpt lat="45.11446" lon="6.03572">
        <ele>1221.8</ele>
        <time>2020-08-05T11:18:19Z</time>
      </trkpt>
      <trkpt lat="45.11445" lon="6.03557">
        <ele>1222</ele>
        <time>2020-08-05T11:18:20Z</time>
      </trkpt>
      <trkpt lat="45.11443" lon="6.03544">
        <ele>1222.2</ele>
        <time>2020-08-05T11:18:21Z</time>
      </trkpt>
      <trkpt lat="45.11438" lon="6.03525">
        <ele>1222.6</ele>
        <time>2020-08-05T11:18:23Z</time>
      </trkpt>
      <trkpt lat="45.1144" lon="6.03512">
        <ele>1222.8</ele>
        <time>2020-08-05T11:18:25Z</time>
      </trkpt>
      <trkpt lat="45.11451" lon="6.03518">
        <ele>1222.4</ele>
        <time>2020-08-05T11:18:27Z</time>
      </trkpt>
      <trkpt lat="45.11455" lon="6.03531">
        <ele>1221.3</ele>
        <time>2020-08-05T11:18:28Z</time>
      </trkpt>
      <trkpt lat="45.11457" lon="6.03557">
        <ele>1218.7</ele>
        <time>2020-08-05T11:18:30Z</time>
      </trkpt>
      <trkpt lat="45.11459" lon="6.03584">
        <ele>1216.2</ele>
        <time>2020-08-05T11:18:32Z</time>
      </trkpt>
      <trkpt lat="45.11461" lon="6.03613">
        <ele>1213.5</ele>
        <time>2020-08-05T11:18:34Z</time>
      </trkpt>
      <trkpt lat="45.11462" lon="6.03629">
        <ele>1212.1</ele>
        <time>2020-08-05T11:18:35Z</time>
      </trkpt>
      <trkpt lat="45.11463" lon="6.03645">
        <ele>1210.6</ele>
        <time>2020-08-05T11:18:36Z</time>
      </trkpt>
      <trkpt lat="45.11464" lon="6.03662">
        <ele>1209.1</ele>
        <time>2020-08-05T11:18:37Z</time>
      </trkpt>
      <trkpt lat="45.11465" lon="6.03679">
        <ele>1207.5</ele>
        <time>2020-08-05T11:18:38Z</time>
      </trkpt>
      <trkpt lat="45.11468" lon="6.03715">
        <ele>1204.2</ele>
        <time>2020-08-05T11:18:40Z</time>
      </trkpt>
      <trkpt lat="45.11469" lon="6.03735">
        <ele>1202.5</ele>
        <time>2020-08-05T11:18:41Z</time>
      </trkpt>
      <trkpt lat="45.11469" lon="6.03754">
        <ele>1200.9</ele>
        <time>2020-08-05T11:18:42Z</time>
      </trkpt>
      <trkpt lat="45.1147" lon="6.03773">
        <ele>1199.4</ele>
        <time>2020-08-05T11:18:43Z</time>
      </trkpt>
      <trkpt lat="45.11469" lon="6.0381">
        <ele>1196.9</ele>
        <time>2020-08-05T11:18:45Z</time>
      </trkpt>
      <trkpt lat="45.11467" lon="6.03847">
        <ele>1194</ele>
        <time>2020-08-05T11:18:47Z</time>
      </trkpt>
      <trkpt lat="45.11461" lon="6.03884">
        <ele>1191.3</ele>
        <time>2020-08-05T11:18:49Z</time>
      </trkpt>
      <trkpt lat="45.11459" lon="6.03904">
        <ele>1190.1</ele>
        <time>2020-08-05T11:18:50Z</time>
      </trkpt>
      <trkpt lat="45.11456" lon="6.03924">
        <ele>1188.8</ele>
        <time>2020-08-05T11:18:51Z</time>
      </trkpt>
      <trkpt lat="45.11451" lon="6.03964">
        <ele>1186.4</ele>
        <time>2020-08-05T11:18:53Z</time>
      </trkpt>
      <trkpt lat="45.11445" lon="6.04003">
        <ele>1184.1</ele>
        <time>2020-08-05T11:18:55Z</time>
      </trkpt>
      <trkpt lat="45.11439" lon="6.04042">
        <ele>1181.9</ele>
        <time>2020-08-05T11:18:57Z</time>
      </trkpt>
      <trkpt lat="45.11434" lon="6.04082">
        <ele>1180.2</ele>
        <time>2020-08-05T11:18:59Z</time>
      </trkpt>
      <trkpt lat="45.11429" lon="6.04122">
        <ele>1179.2</ele>
        <time>2020-08-05T11:19:01Z</time>
      </trkpt>
      <trkpt lat="45.11424" lon="6.04159">
        <ele>1179.3</ele>
        <time>2020-08-05T11:19:03Z</time>
      </trkpt>
      <trkpt lat="45.11422" lon="6.04188">
        <ele>1180.1</ele>
        <time>2020-08-05T11:19:05Z</time>
      </trkpt>
      <trkpt lat="45.11425" lon="6.042">
        <ele>1180.6</ele>
        <time>2020-08-05T11:19:06Z</time>
      </trkpt>
      <trkpt lat="45.11439" lon="6.04207">
        <ele>1180.7</ele>
        <time>2020-08-05T11:19:08Z</time>
      </trkpt>
      <trkpt lat="45.11447" lon="6.04198">
        <ele>1179.9</ele>
        <time>2020-08-05T11:19:09Z</time>
      </trkpt>
      <trkpt lat="45.11452" lon="6.04185">
        <ele>1177.7</ele>
        <time>2020-08-05T11:19:10Z</time>
      </trkpt>
      <trkpt lat="45.11455" lon="6.04155">
        <ele>1174.4</ele>
        <time>2020-08-05T11:19:12Z</time>
      </trkpt>
      <trkpt lat="45.11456" lon="6.0414">
        <ele>1173.4</ele>
        <time>2020-08-05T11:19:13Z</time>
      </trkpt>
      <trkpt lat="45.11459" lon="6.04108">
        <ele>1171.3</ele>
        <time>2020-08-05T11:19:15Z</time>
      </trkpt>
      <trkpt lat="45.11466" lon="6.04074">
        <ele>1168.9</ele>
        <time>2020-08-05T11:19:17Z</time>
      </trkpt>
      <trkpt lat="45.11476" lon="6.04038">
        <ele>1166.5</ele>
        <time>2020-08-05T11:19:19Z</time>
      </trkpt>
      <trkpt lat="45.11487" lon="6.04002">
        <ele>1163.9</ele>
        <time>2020-08-05T11:19:21Z</time>
      </trkpt>
      <trkpt lat="45.11499" lon="6.03964">
        <ele>1161.1</ele>
        <time>2020-08-05T11:19:23Z</time>
      </trkpt>
      <trkpt lat="45.11511" lon="6.03926">
        <ele>1158.2</ele>
        <time>2020-08-05T11:19:25Z</time>
      </trkpt>
      <trkpt lat="45.11517" lon="6.03906">
        <ele>1156.7</ele>
        <time>2020-08-05T11:19:26Z</time>
      </trkpt>
      <trkpt lat="45.11522" lon="6.03885">
        <ele>1155.2</ele>
        <time>2020-08-05T11:19:27Z</time>
      </trkpt>
      <trkpt lat="45.11532" lon="6.03843">
        <ele>1152.1</ele>
        <time>2020-08-05T11:19:29Z</time>
      </trkpt>
      <trkpt lat="45.11541" lon="6.03799">
        <ele>1149.3</ele>
        <time>2020-08-05T11:19:31Z</time>
      </trkpt>
      <trkpt lat="45.11546" lon="6.03777">
        <ele>1147.8</ele>
        <time>2020-08-05T11:19:32Z</time>
      </trkpt>
      <trkpt lat="45.11557" lon="6.03731">
        <ele>1144.7</ele>
        <time>2020-08-05T11:19:34Z</time>
      </trkpt>
      <trkpt lat="45.11566" lon="6.03684">
        <ele>1142.1</ele>
        <time>2020-08-05T11:19:36Z</time>
      </trkpt>
      <trkpt lat="45.11569" lon="6.0366">
        <ele>1141</ele>
        <time>2020-08-05T11:19:37Z</time>
      </trkpt>
      <trkpt lat="45.1157" lon="6.03636">
        <ele>1140.3</ele>
        <time>2020-08-05T11:19:38Z</time>
      </trkpt>
      <trkpt lat="45.11564" lon="6.03596">
        <ele>1139.5</ele>
        <time>2020-08-05T11:19:40Z</time>
      </trkpt>
      <trkpt lat="45.11556" lon="6.03579">
        <ele>1139.2</ele>
        <time>2020-08-05T11:19:41Z</time>
      </trkpt>
      <trkpt lat="45.11549" lon="6.03566">
        <ele>1138.9</ele>
        <time>2020-08-05T11:19:42Z</time>
      </trkpt>
      <trkpt lat="45.1154" lon="6.03545">
        <ele>1138.3</ele>
        <time>2020-08-05T11:19:44Z</time>
      </trkpt>
      <trkpt lat="45.11538" lon="6.03536">
        <ele>1137.8</ele>
        <time>2020-08-05T11:19:45Z</time>
      </trkpt>
      <trkpt lat="45.11539" lon="6.03528">
        <ele>1137.3</ele>
        <time>2020-08-05T11:19:46Z</time>
      </trkpt>
      <trkpt lat="45.11553" lon="6.03529">
        <ele>1135.2</ele>
        <time>2020-08-05T11:19:48Z</time>
      </trkpt>
      <trkpt lat="45.11562" lon="6.0356">
        <ele>1131.2</ele>
        <time>2020-08-05T11:19:50Z</time>
      </trkpt>
      <trkpt lat="45.11569" lon="6.0359">
        <ele>1128.2</ele>
        <time>2020-08-05T11:19:52Z</time>
      </trkpt>
      <trkpt lat="45.11574" lon="6.03605">
        <ele>1126.7</ele>
        <time>2020-08-05T11:19:53Z</time>
      </trkpt>
      <trkpt lat="45.11583" lon="6.03638">
        <ele>1123.6</ele>
        <time>2020-08-05T11:19:55Z</time>
      </trkpt>
      <trkpt lat="45.1159" lon="6.03676">
        <ele>1120.4</ele>
        <time>2020-08-05T11:19:57Z</time>
      </trkpt>
      <trkpt lat="45.11593" lon="6.03696">
        <ele>1118.7</ele>
        <time>2020-08-05T11:19:58Z</time>
      </trkpt>
      <trkpt lat="45.11595" lon="6.03717">
        <ele>1117</ele>
        <time>2020-08-05T11:19:59Z</time>
      </trkpt>
      <trkpt lat="45.11598" lon="6.03759">
        <ele>1113.5</ele>
        <time>2020-08-05T11:20:01Z</time>
      </trkpt>
      <trkpt lat="45.116" lon="6.03802">
        <ele>1110</ele>
        <time>2020-08-05T11:20:03Z</time>
      </trkpt>
      <trkpt lat="45.11601" lon="6.03847">
        <ele>1106.4</ele>
        <time>2020-08-05T11:20:05Z</time>
      </trkpt>
      <trkpt lat="45.116" lon="6.03892">
        <ele>1102.9</ele>
        <time>2020-08-05T11:20:07Z</time>
      </trkpt>
      <trkpt lat="45.11599" lon="6.03937">
        <ele>1099.7</ele>
        <time>2020-08-05T11:20:09Z</time>
      </trkpt>
      <trkpt lat="45.11599" lon="6.03961">
        <ele>1098.1</ele>
        <time>2020-08-05T11:20:10Z</time>
      </trkpt>
      <trkpt lat="45.11599" lon="6.03985">
        <ele>1096.7</ele>
        <time>2020-08-05T11:20:11Z</time>
      </trkpt>
      <trkpt lat="45.11602" lon="6.04033">
        <ele>1094</ele>
        <time>2020-08-05T11:20:13Z</time>
      </trkpt>
      <trkpt lat="45.11605" lon="6.04078">
        <ele>1092</ele>
        <time>2020-08-05T11:20:15Z</time>
      </trkpt>
      <trkpt lat="45.11607" lon="6.041">
        <ele>1091.5</ele>
        <time>2020-08-05T11:20:16Z</time>
      </trkpt>
      <trkpt lat="45.1161" lon="6.0412">
        <ele>1091.6</ele>
        <time>2020-08-05T11:20:17Z</time>
      </trkpt>
      <trkpt lat="45.11619" lon="6.04153">
        <ele>1090.2</ele>
        <time>2020-08-05T11:20:19Z</time>
      </trkpt>
      <trkpt lat="45.11624" lon="6.04167">
        <ele>1089.7</ele>
        <time>2020-08-05T11:20:20Z</time>
      </trkpt>
      <trkpt lat="45.1163" lon="6.04189">
        <ele>1088.9</ele>
        <time>2020-08-05T11:20:22Z</time>
      </trkpt>
      <trkpt lat="45.1164" lon="6.04199">
        <ele>1088</ele>
        <time>2020-08-05T11:20:24Z</time>
      </trkpt>
      <trkpt lat="45.11646" lon="6.04196">
        <ele>1087.2</ele>
        <time>2020-08-05T11:20:25Z</time>
      </trkpt>
      <trkpt lat="45.1165" lon="6.04186">
        <ele>1086.1</ele>
        <time>2020-08-05T11:20:26Z</time>
      </trkpt>
      <trkpt lat="45.11648" lon="6.04162">
        <ele>1083.8</ele>
        <time>2020-08-05T11:20:28Z</time>
      </trkpt>
      <trkpt lat="45.11643" lon="6.04138">
        <ele>1081.7</ele>
        <time>2020-08-05T11:20:30Z</time>
      </trkpt>
      <trkpt lat="45.1164" lon="6.04124">
        <ele>1080.7</ele>
        <time>2020-08-05T11:20:31Z</time>
      </trkpt>
      <trkpt lat="45.11638" lon="6.0411">
        <ele>1079.7</ele>
        <time>2020-08-05T11:20:32Z</time>
      </trkpt>
      <trkpt lat="45.11637" lon="6.04094">
        <ele>1078.7</ele>
        <time>2020-08-05T11:20:33Z</time>
      </trkpt>
      <trkpt lat="45.11639" lon="6.04061">
        <ele>1076.7</ele>
        <time>2020-08-05T11:20:35Z</time>
      </trkpt>
      <trkpt lat="45.11642" lon="6.04028">
        <ele>1074.7</ele>
        <time>2020-08-05T11:20:37Z</time>
      </trkpt>
      <trkpt lat="45.11647" lon="6.03992">
        <ele>1072.5</ele>
        <time>2020-08-05T11:20:39Z</time>
      </trkpt>
      <trkpt lat="45.11652" lon="6.03955">
        <ele>1070.1</ele>
        <time>2020-08-05T11:20:41Z</time>
      </trkpt>
      <trkpt lat="45.11657" lon="6.03915">
        <ele>1067.6</ele>
        <time>2020-08-05T11:20:43Z</time>
      </trkpt>
      <trkpt lat="45.11662" lon="6.03875">
        <ele>1065.3</ele>
        <time>2020-08-05T11:20:45Z</time>
      </trkpt>
      <trkpt lat="45.11664" lon="6.03855">
        <ele>1064.2</ele>
        <time>2020-08-05T11:20:46Z</time>
      </trkpt>
      <trkpt lat="45.11671" lon="6.03816">
        <ele>1062</ele>
        <time>2020-08-05T11:20:48Z</time>
      </trkpt>
      <trkpt lat="45.11677" lon="6.03778">
        <ele>1059.9</ele>
        <time>2020-08-05T11:20:50Z</time>
      </trkpt>
      <trkpt lat="45.11681" lon="6.03759">
        <ele>1058.8</ele>
        <time>2020-08-05T11:20:51Z</time>
      </trkpt>
      <trkpt lat="45.11687" lon="6.0372">
        <ele>1057</ele>
        <time>2020-08-05T11:20:53Z</time>
      </trkpt>
      <trkpt lat="45.11689" lon="6.0368">
        <ele>1055.2</ele>
        <time>2020-08-05T11:20:55Z</time>
      </trkpt>
      <trkpt lat="45.11686" lon="6.0366">
        <ele>1054.4</ele>
        <time>2020-08-05T11:20:56Z</time>
      </trkpt>
      <trkpt lat="45.11677" lon="6.03625">
        <ele>1053.7</ele>
        <time>2020-08-05T11:20:58Z</time>
      </trkpt>
      <trkpt lat="45.1167" lon="6.03598">
        <ele>1053.8</ele>
        <time>2020-08-05T11:21:00Z</time>
      </trkpt>
      <trkpt lat="45.11667" lon="6.03588">
        <ele>1054</ele>
        <time>2020-08-05T11:21:01Z</time>
      </trkpt>
      <trkpt lat="45.11664" lon="6.03578">
        <ele>1054.1</ele>
        <time>2020-08-05T11:21:02Z</time>
      </trkpt>
      <trkpt lat="45.1166" lon="6.03564">
        <ele>1054</ele>
        <time>2020-08-05T11:21:04Z</time>
      </trkpt>
      <trkpt lat="45.11661" lon="6.03558">
        <ele>1053.8</ele>
        <time>2020-08-05T11:21:05Z</time>
      </trkpt>
      <trkpt lat="45.11671" lon="6.03557">
        <ele>1052.8</ele>
        <time>2020-08-05T11:21:07Z</time>
      </trkpt>
      <trkpt lat="45.11679" lon="6.03582">
        <ele>1049.8</ele>
        <time>2020-08-05T11:21:09Z</time>
      </trkpt>
      <trkpt lat="45.11685" lon="6.03609">
        <ele>1047.1</ele>
        <time>2020-08-05T11:21:11Z</time>
      </trkpt>
      <trkpt lat="45.11695" lon="6.03638">
        <ele>1044.2</ele>
        <time>2020-08-05T11:21:13Z</time>
      </trkpt>
      <trkpt lat="45.11706" lon="6.03673">
        <ele>1040.9</ele>
        <time>2020-08-05T11:21:15Z</time>
      </trkpt>
      <trkpt lat="45.1171" lon="6.03692">
        <ele>1039.1</ele>
        <time>2020-08-05T11:21:16Z</time>
      </trkpt>
      <trkpt lat="45.11717" lon="6.03734">
        <ele>1035.1</ele>
        <time>2020-08-05T11:21:18Z</time>
      </trkpt>
      <trkpt lat="45.11723" lon="6.03777">
        <ele>1030.9</ele>
        <time>2020-08-05T11:21:20Z</time>
      </trkpt>
      <trkpt lat="45.11726" lon="6.03799">
        <ele>1028.6</ele>
        <time>2020-08-05T11:21:21Z</time>
      </trkpt>
      <trkpt lat="45.11734" lon="6.03844">
        <ele>1024.6</ele>
        <time>2020-08-05T11:21:23Z</time>
      </trkpt>
      <trkpt lat="45.11741" lon="6.03889">
        <ele>1020.8</ele>
        <time>2020-08-05T11:21:25Z</time>
      </trkpt>
      <trkpt lat="45.11751" lon="6.03934">
        <ele>1017.4</ele>
        <time>2020-08-05T11:21:27Z</time>
      </trkpt>
      <trkpt lat="45.11757" lon="6.03955">
        <ele>1016.1</ele>
        <time>2020-08-05T11:21:28Z</time>
      </trkpt>
      <trkpt lat="45.1177" lon="6.03997">
        <ele>1013.8</ele>
        <time>2020-08-05T11:21:30Z</time>
      </trkpt>
      <trkpt lat="45.11777" lon="6.04017">
        <ele>1012.3</ele>
        <time>2020-08-05T11:21:31Z</time>
      </trkpt>
      <trkpt lat="45.11789" lon="6.04059">
        <ele>1009.2</ele>
        <time>2020-08-05T11:21:33Z</time>
      </trkpt>
      <trkpt lat="45.11794" lon="6.04081">
        <ele>1007.8</ele>
        <time>2020-08-05T11:21:34Z</time>
      </trkpt>
      <trkpt lat="45.11805" lon="6.04115">
        <ele>1005.4</ele>
        <time>2020-08-05T11:21:36Z</time>
      </trkpt>
      <trkpt lat="45.11824" lon="6.04138">
        <ele>1002.9</ele>
        <time>2020-08-05T11:21:38Z</time>
      </trkpt>
      <trkpt lat="45.11835" lon="6.04147">
        <ele>1001.6</ele>
        <time>2020-08-05T11:21:39Z</time>
      </trkpt>
      <trkpt lat="45.11859" lon="6.04157">
        <ele>999.3</ele>
        <time>2020-08-05T11:21:41Z</time>
      </trkpt>
      <trkpt lat="45.11885" lon="6.04156">
        <ele>998.1</ele>
        <time>2020-08-05T11:21:43Z</time>
      </trkpt>
      <trkpt lat="45.11897" lon="6.0415">
        <ele>997.4</ele>
        <time>2020-08-05T11:21:44Z</time>
      </trkpt>
      <trkpt lat="45.11918" lon="6.04135">
        <ele>995</ele>
        <time>2020-08-05T11:21:46Z</time>
      </trkpt>
      <trkpt lat="45.11929" lon="6.04124">
        <ele>993.6</ele>
        <time>2020-08-05T11:21:47Z</time>
      </trkpt>
      <trkpt lat="45.11949" lon="6.04102">
        <ele>990.8</ele>
        <time>2020-08-05T11:21:49Z</time>
      </trkpt>
      <trkpt lat="45.11969" lon="6.04086">
        <ele>988.2</ele>
        <time>2020-08-05T11:21:51Z</time>
      </trkpt>
      <trkpt lat="45.1198" lon="6.0408">
        <ele>987</ele>
        <time>2020-08-05T11:21:52Z</time>
      </trkpt>
      <trkpt lat="45.12003" lon="6.04075">
        <ele>984.7</ele>
        <time>2020-08-05T11:21:54Z</time>
      </trkpt>
      <trkpt lat="45.12028" lon="6.04079">
        <ele>982.4</ele>
        <time>2020-08-05T11:21:56Z</time>
      </trkpt>
      <trkpt lat="45.12055" lon="6.04096">
        <ele>978.5</ele>
        <time>2020-08-05T11:21:58Z</time>
      </trkpt>
      <trkpt lat="45.12081" lon="6.04114">
        <ele>975.3</ele>
        <time>2020-08-05T11:22:00Z</time>
      </trkpt>
      <trkpt lat="45.12109" lon="6.04121">
        <ele>972.1</ele>
        <time>2020-08-05T11:22:02Z</time>
      </trkpt>
      <trkpt lat="45.12138" lon="6.04121">
        <ele>969.3</ele>
        <time>2020-08-05T11:22:04Z</time>
      </trkpt>
      <trkpt lat="45.12154" lon="6.04122">
        <ele>968.2</ele>
        <time>2020-08-05T11:22:05Z</time>
      </trkpt>
      <trkpt lat="45.12184" lon="6.04128">
        <ele>966</ele>
        <time>2020-08-05T11:22:07Z</time>
      </trkpt>
      <trkpt lat="45.12198" lon="6.04136">
        <ele>964.5</ele>
        <time>2020-08-05T11:22:08Z</time>
      </trkpt>
      <trkpt lat="45.12226" lon="6.04159">
        <ele>960.9</ele>
        <time>2020-08-05T11:22:10Z</time>
      </trkpt>
      <trkpt lat="45.12251" lon="6.0419">
        <ele>957.6</ele>
        <time>2020-08-05T11:22:12Z</time>
      </trkpt>
      <trkpt lat="45.12275" lon="6.04223">
        <ele>954.9</ele>
        <time>2020-08-05T11:22:14Z</time>
      </trkpt>
      <trkpt lat="45.12288" lon="6.0424">
        <ele>953.6</ele>
        <time>2020-08-05T11:22:15Z</time>
      </trkpt>
      <trkpt lat="45.12312" lon="6.04273">
        <ele>951.1</ele>
        <time>2020-08-05T11:22:17Z</time>
      </trkpt>
      <trkpt lat="45.12324" lon="6.04289">
        <ele>950.1</ele>
        <time>2020-08-05T11:22:18Z</time>
      </trkpt>
      <trkpt lat="45.1235" lon="6.04317">
        <ele>948.3</ele>
        <time>2020-08-05T11:22:20Z</time>
      </trkpt>
      <trkpt lat="45.12372" lon="6.04343">
        <ele>947.1</ele>
        <time>2020-08-05T11:22:22Z</time>
      </trkpt>
      <trkpt lat="45.12381" lon="6.04356">
        <ele>946.8</ele>
        <time>2020-08-05T11:22:23Z</time>
      </trkpt>
      <trkpt lat="45.12393" lon="6.04382">
        <ele>946.7</ele>
        <time>2020-08-05T11:22:25Z</time>
      </trkpt>
      <trkpt lat="45.12395" lon="6.04392">
        <ele>946.8</ele>
        <time>2020-08-05T11:22:26Z</time>
      </trkpt>
      <trkpt lat="45.12403" lon="6.04393">
        <ele>946.7</ele>
        <time>2020-08-05T11:22:28Z</time>
      </trkpt>
      <trkpt lat="45.12412" lon="6.04374">
        <ele>945.4</ele>
        <time>2020-08-05T11:22:30Z</time>
      </trkpt>
      <trkpt lat="45.12411" lon="6.04363">
        <ele>944.4</ele>
        <time>2020-08-05T11:22:31Z</time>
      </trkpt>
      <trkpt lat="45.12402" lon="6.0434">
        <ele>941.8</ele>
        <time>2020-08-05T11:22:33Z</time>
      </trkpt>
      <trkpt lat="45.12389" lon="6.04313">
        <ele>938.7</ele>
        <time>2020-08-05T11:22:35Z</time>
      </trkpt>
      <trkpt lat="45.12382" lon="6.04297">
        <ele>937.1</ele>
        <time>2020-08-05T11:22:36Z</time>
      </trkpt>
      <trkpt lat="45.12375" lon="6.0428">
        <ele>935.6</ele>
        <time>2020-08-05T11:22:37Z</time>
      </trkpt>
      <trkpt lat="45.12367" lon="6.04242">
        <ele>932.7</ele>
        <time>2020-08-05T11:22:39Z</time>
      </trkpt>
      <trkpt lat="45.12367" lon="6.04222">
        <ele>931.4</ele>
        <time>2020-08-05T11:22:40Z</time>
      </trkpt>
      <trkpt lat="45.12363" lon="6.04183">
        <ele>928.7</ele>
        <time>2020-08-05T11:22:42Z</time>
      </trkpt>
      <trkpt lat="45.12352" lon="6.04143">
        <ele>925.8</ele>
        <time>2020-08-05T11:22:44Z</time>
      </trkpt>
      <trkpt lat="45.12336" lon="6.04107">
        <ele>922.8</ele>
        <time>2020-08-05T11:22:46Z</time>
      </trkpt>
      <trkpt lat="45.12325" lon="6.04091">
        <ele>921.2</ele>
        <time>2020-08-05T11:22:47Z</time>
      </trkpt>
      <trkpt lat="45.12314" lon="6.04076">
        <ele>919.8</ele>
        <time>2020-08-05T11:22:48Z</time>
      </trkpt>
      <trkpt lat="45.12289" lon="6.04047">
        <ele>916.6</ele>
        <time>2020-08-05T11:22:50Z</time>
      </trkpt>
      <trkpt lat="45.12263" lon="6.04017">
        <ele>913.9</ele>
        <time>2020-08-05T11:22:52Z</time>
      </trkpt>
      <trkpt lat="45.1224" lon="6.03986">
        <ele>912.1</ele>
        <time>2020-08-05T11:22:54Z</time>
      </trkpt>
      <trkpt lat="45.12231" lon="6.03969">
        <ele>911.3</ele>
        <time>2020-08-05T11:22:55Z</time>
      </trkpt>
      <trkpt lat="45.12216" lon="6.03937">
        <ele>910.1</ele>
        <time>2020-08-05T11:22:57Z</time>
      </trkpt>
      <trkpt lat="45.12208" lon="6.03924">
        <ele>909.7</ele>
        <time>2020-08-05T11:22:58Z</time>
      </trkpt>
      <trkpt lat="45.12185" lon="6.0391">
        <ele>909.2</ele>
        <time>2020-08-05T11:23:00Z</time>
      </trkpt>
      <trkpt lat="45.12174" lon="6.03906">
        <ele>909.2</ele>
        <time>2020-08-05T11:23:01Z</time>
      </trkpt>
      <trkpt lat="45.12163" lon="6.03901">
        <ele>909.4</ele>
        <time>2020-08-05T11:23:02Z</time>
      </trkpt>
      <trkpt lat="45.12153" lon="6.03885">
        <ele>908.8</ele>
        <time>2020-08-05T11:23:04Z</time>
      </trkpt>
      <trkpt lat="45.12158" lon="6.03877">
        <ele>908.1</ele>
        <time>2020-08-05T11:23:05Z</time>
      </trkpt>
      <trkpt lat="45.12179" lon="6.03877">
        <ele>906.2</ele>
        <time>2020-08-05T11:23:07Z</time>
      </trkpt>
      <trkpt lat="45.12189" lon="6.03886">
        <ele>905.2</ele>
        <time>2020-08-05T11:23:08Z</time>
      </trkpt>
      <trkpt lat="45.12204" lon="6.03904">
        <ele>903.7</ele>
        <time>2020-08-05T11:23:10Z</time>
      </trkpt>
      <trkpt lat="45.12222" lon="6.03923">
        <ele>901.7</ele>
        <time>2020-08-05T11:23:12Z</time>
      </trkpt>
      <trkpt lat="45.12232" lon="6.03932">
        <ele>900.6</ele>
        <time>2020-08-05T11:23:13Z</time>
      </trkpt>
      <trkpt lat="45.12252" lon="6.03952">
        <ele>898.1</ele>
        <time>2020-08-05T11:23:15Z</time>
      </trkpt>
      <trkpt lat="45.12274" lon="6.0397">
        <ele>895.5</ele>
        <time>2020-08-05T11:23:17Z</time>
      </trkpt>
      <trkpt lat="45.12297" lon="6.03991">
        <ele>893.1</ele>
        <time>2020-08-05T11:23:19Z</time>
      </trkpt>
      <trkpt lat="45.12309" lon="6.04003">
        <ele>891.9</ele>
        <time>2020-08-05T11:23:20Z</time>
      </trkpt>
      <trkpt lat="45.12334" lon="6.04025">
        <ele>889.3</ele>
        <time>2020-08-05T11:23:22Z</time>
      </trkpt>
      <trkpt lat="45.12359" lon="6.04051">
        <ele>886.4</ele>
        <time>2020-08-05T11:23:24Z</time>
      </trkpt>
      <trkpt lat="45.12382" lon="6.04083">
        <ele>883.7</ele>
        <time>2020-08-05T11:23:26Z</time>
      </trkpt>
      <trkpt lat="45.12394" lon="6.04102">
        <ele>882.3</ele>
        <time>2020-08-05T11:23:27Z</time>
      </trkpt>
      <trkpt lat="45.12416" lon="6.04136">
        <ele>879.5</ele>
        <time>2020-08-05T11:23:29Z</time>
      </trkpt>
      <trkpt lat="45.12438" lon="6.04171">
        <ele>876.2</ele>
        <time>2020-08-05T11:23:31Z</time>
      </trkpt>
      <trkpt lat="45.12449" lon="6.0419">
        <ele>874.7</ele>
        <time>2020-08-05T11:23:32Z</time>
      </trkpt>
      <trkpt lat="45.1246" lon="6.0421">
        <ele>873.3</ele>
        <time>2020-08-05T11:23:33Z</time>
      </trkpt>
      <trkpt lat="45.12477" lon="6.0425">
        <ele>870.7</ele>
        <time>2020-08-05T11:23:35Z</time>
      </trkpt>
      <trkpt lat="45.12485" lon="6.04271">
        <ele>869.6</ele>
        <time>2020-08-05T11:23:36Z</time>
      </trkpt>
      <trkpt lat="45.12499" lon="6.04314">
        <ele>867.9</ele>
        <time>2020-08-05T11:23:38Z</time>
      </trkpt>
      <trkpt lat="45.12512" lon="6.04354">
        <ele>866.5</ele>
        <time>2020-08-05T11:23:40Z</time>
      </trkpt>
      <trkpt lat="45.1252" lon="6.0439">
        <ele>865.3</ele>
        <time>2020-08-05T11:23:42Z</time>
      </trkpt>
      <trkpt lat="45.12526" lon="6.0442">
        <ele>863.9</ele>
        <time>2020-08-05T11:23:44Z</time>
      </trkpt>
      <trkpt lat="45.12542" lon="6.04441">
        <ele>862.5</ele>
        <time>2020-08-05T11:23:46Z</time>
      </trkpt>
      <trkpt lat="45.12561" lon="6.04456">
        <ele>861.1</ele>
        <time>2020-08-05T11:23:48Z</time>
      </trkpt>
      <trkpt lat="45.12569" lon="6.04466">
        <ele>860.4</ele>
        <time>2020-08-05T11:23:49Z</time>
      </trkpt>
      <trkpt lat="45.12583" lon="6.0449">
        <ele>859.2</ele>
        <time>2020-08-05T11:23:51Z</time>
      </trkpt>
      <trkpt lat="45.12597" lon="6.04516">
        <ele>857.9</ele>
        <time>2020-08-05T11:23:53Z</time>
      </trkpt>
      <trkpt lat="45.12614" lon="6.04543">
        <ele>856</ele>
        <time>2020-08-05T11:23:55Z</time>
      </trkpt>
      <trkpt lat="45.1263" lon="6.0457">
        <ele>854</ele>
        <time>2020-08-05T11:23:57Z</time>
      </trkpt>
      <trkpt lat="45.12637" lon="6.04585">
        <ele>853</ele>
        <time>2020-08-05T11:23:58Z</time>
      </trkpt>
      <trkpt lat="45.12643" lon="6.046">
        <ele>852</ele>
        <time>2020-08-05T11:23:59Z</time>
      </trkpt>
      <trkpt lat="45.12658" lon="6.04631">
        <ele>849.9</ele>
        <time>2020-08-05T11:24:01Z</time>
      </trkpt>
      <trkpt lat="45.12667" lon="6.04646">
        <ele>848.8</ele>
        <time>2020-08-05T11:24:02Z</time>
      </trkpt>
      <trkpt lat="45.12686" lon="6.04676">
        <ele>846.9</ele>
        <time>2020-08-05T11:24:04Z</time>
      </trkpt>
      <trkpt lat="45.12695" lon="6.04692">
        <ele>846.2</ele>
        <time>2020-08-05T11:24:05Z</time>
      </trkpt>
      <trkpt lat="45.12705" lon="6.04708">
        <ele>845.7</ele>
        <time>2020-08-05T11:24:06Z</time>
      </trkpt>
      <trkpt lat="45.12721" lon="6.04739">
        <ele>845.2</ele>
        <time>2020-08-05T11:24:08Z</time>
      </trkpt>
      <trkpt lat="45.12726" lon="6.04751">
        <ele>845.1</ele>
        <time>2020-08-05T11:24:09Z</time>
      </trkpt>
      <trkpt lat="45.12736" lon="6.04764">
        <ele>844.8</ele>
        <time>2020-08-05T11:24:11Z</time>
      </trkpt>
      <trkpt lat="45.12749" lon="6.04755">
        <ele>844.3</ele>
        <time>2020-08-05T11:24:13Z</time>
      </trkpt>
      <trkpt lat="45.12751" lon="6.04744">
        <ele>843.9</ele>
        <time>2020-08-05T11:24:14Z</time>
      </trkpt>
      <trkpt lat="45.12744" lon="6.04721">
        <ele>842.3</ele>
        <time>2020-08-05T11:24:16Z</time>
      </trkpt>
      <trkpt lat="45.12739" lon="6.0471">
        <ele>841.2</ele>
        <time>2020-08-05T11:24:17Z</time>
      </trkpt>
      <trkpt lat="45.12731" lon="6.04686">
        <ele>839.1</ele>
        <time>2020-08-05T11:24:19Z</time>
      </trkpt>
      <trkpt lat="45.12726" lon="6.04672">
        <ele>837.9</ele>
        <time>2020-08-05T11:24:20Z</time>
      </trkpt>
      <trkpt lat="45.12716" lon="6.04641">
        <ele>835.1</ele>
        <time>2020-08-05T11:24:22Z</time>
      </trkpt>
      <trkpt lat="45.1271" lon="6.04625">
        <ele>833.7</ele>
        <time>2020-08-05T11:24:23Z</time>
      </trkpt>
      <trkpt lat="45.12701" lon="6.04591">
        <ele>830.7</ele>
        <time>2020-08-05T11:24:25Z</time>
      </trkpt>
      <trkpt lat="45.12696" lon="6.04572">
        <ele>829</ele>
        <time>2020-08-05T11:24:26Z</time>
      </trkpt>
      <trkpt lat="45.12685" lon="6.04536">
        <ele>826.1</ele>
        <time>2020-08-05T11:24:28Z</time>
      </trkpt>
      <trkpt lat="45.12678" lon="6.04518">
        <ele>824.8</ele>
        <time>2020-08-05T11:24:29Z</time>
      </trkpt>
      <trkpt lat="45.1266" lon="6.04484">
        <ele>822.2</ele>
        <time>2020-08-05T11:24:31Z</time>
      </trkpt>
      <trkpt lat="45.12642" lon="6.0445">
        <ele>820.4</ele>
        <time>2020-08-05T11:24:33Z</time>
      </trkpt>
      <trkpt lat="45.12629" lon="6.04416">
        <ele>818.8</ele>
        <time>2020-08-05T11:24:35Z</time>
      </trkpt>
      <trkpt lat="45.12623" lon="6.044">
        <ele>818.2</ele>
        <time>2020-08-05T11:24:36Z</time>
      </trkpt>
      <trkpt lat="45.1261" lon="6.04375">
        <ele>817.4</ele>
        <time>2020-08-05T11:24:38Z</time>
      </trkpt>
      <trkpt lat="45.12589" lon="6.04371">
        <ele>816.9</ele>
        <time>2020-08-05T11:24:40Z</time>
      </trkpt>
      <trkpt lat="45.12572" lon="6.04371">
        <ele>816.7</ele>
        <time>2020-08-05T11:24:42Z</time>
      </trkpt>
      <trkpt lat="45.12566" lon="6.04363">
        <ele>816.5</ele>
        <time>2020-08-05T11:24:43Z</time>
      </trkpt>
      <trkpt lat="45.12569" lon="6.04334">
        <ele>815.8</ele>
        <time>2020-08-05T11:24:45Z</time>
      </trkpt>
      <trkpt lat="45.12579" lon="6.04307">
        <ele>815.2</ele>
        <time>2020-08-05T11:24:47Z</time>
      </trkpt>
      <trkpt lat="45.12575" lon="6.04279">
        <ele>814.7</ele>
        <time>2020-08-05T11:24:49Z</time>
      </trkpt>
      <trkpt lat="45.1257" lon="6.04266">
        <ele>814.4</ele>
        <time>2020-08-05T11:24:50Z</time>
      </trkpt>
      <trkpt lat="45.12566" lon="6.04252">
        <ele>814.1</ele>
        <time>2020-08-05T11:24:51Z</time>
      </trkpt>
      <trkpt lat="45.12561" lon="6.04239">
        <ele>813.9</ele>
        <time>2020-08-05T11:24:52Z</time>
      </trkpt>
      <trkpt lat="45.12552" lon="6.04211">
        <ele>813.2</ele>
        <time>2020-08-05T11:24:54Z</time>
      </trkpt>
      <trkpt lat="45.12545" lon="6.04183">
        <ele>812.4</ele>
        <time>2020-08-05T11:24:56Z</time>
      </trkpt>
      <trkpt lat="45.12542" lon="6.04169">
        <ele>812.1</ele>
        <time>2020-08-05T11:24:57Z</time>
      </trkpt>
      <trkpt lat="45.1254" lon="6.04155">
        <ele>811.7</ele>
        <time>2020-08-05T11:24:58Z</time>
      </trkpt>
      <trkpt lat="45.12533" lon="6.04129">
        <ele>811.1</ele>
        <time>2020-08-05T11:25:00Z</time>
      </trkpt>
      <trkpt lat="45.12523" lon="6.04104">
        <ele>810.6</ele>
        <time>2020-08-05T11:25:02Z</time>
      </trkpt>
      <trkpt lat="45.12519" lon="6.04092">
        <ele>810.4</ele>
        <time>2020-08-05T11:25:03Z</time>
      </trkpt>
      <trkpt lat="45.12515" lon="6.04081">
        <ele>810.1</ele>
        <time>2020-08-05T11:25:04Z</time>
      </trkpt>
      <trkpt lat="45.12507" lon="6.04058">
        <ele>809.7</ele>
        <time>2020-08-05T11:25:06Z</time>
      </trkpt>
      <trkpt lat="45.12503" lon="6.04048">
        <ele>809.5</ele>
        <time>2020-08-05T11:25:07Z</time>
      </trkpt>
      <trkpt lat="45.12497" lon="6.04031">
        <ele>809.2</ele>
        <time>2020-08-05T11:25:09Z</time>
      </trkpt>
      <trkpt lat="45.12496" lon="6.04025">
        <ele>809.1</ele>
        <time>2020-08-05T11:25:10Z</time>
      </trkpt>
      <trkpt lat="45.12494" lon="6.0402">
        <ele>809</ele>
        <time>2020-08-05T11:25:11Z</time>
      </trkpt>
      <trkpt lat="45.12494" lon="6.04018">
        <ele>808.9</ele>
        <time>2020-08-05T11:25:12Z</time>
      </trkpt>
      <trkpt lat="45.12496" lon="6.04013">
        <ele>807.7</ele>
        <time>2020-08-05T11:25:14Z</time>
      </trkpt>
      <trkpt lat="45.12498" lon="6.04013">
        <ele>807.6</ele>
        <time>2020-08-05T11:25:15Z</time>
      </trkpt>
      <trkpt lat="45.125" lon="6.04017">
        <ele>807.5</ele>
        <time>2020-08-05T11:25:17Z</time>
      </trkpt>
      <trkpt lat="45.125" lon="6.04018">
        <ele>807.5</ele>
        <time>2020-08-05T11:25:19Z</time>
      </trkpt>
      <trkpt lat="45.125" lon="6.04018">
        <ele>807.4</ele>
        <time>2020-08-05T11:25:20Z</time>
      </trkpt>
      <trkpt lat="45.125" lon="6.04018">
        <ele>807.4</ele>
        <time>2020-08-05T11:25:21Z</time>
      </trkpt>
      <trkpt lat="45.125" lon="6.04018">
        <ele>807.4</ele>
        <time>2020-08-05T11:25:23Z</time>
      </trkpt>
      <trkpt lat="45.125" lon="6.04018">
        <ele>807.4</ele>
        <time>2020-08-05T11:25:24Z</time>
      </trkpt>
      <trkpt lat="45.125" lon="6.04017">
        <ele>807.4</ele>
        <time>2020-08-05T11:25:25Z</time>
      </trkpt>
      <trkpt lat="45.125" lon="6.04017">
        <ele>807.4</ele>
        <time>2020-08-05T11:25:27Z</time>
      </trkpt>
      <trkpt lat="45.12501" lon="6.04012">
        <ele>807.2</ele>
        <time>2020-08-05T11:26:47Z</time>
      </trkpt>
      <trkpt lat="45.12501" lon="6.04013">
        <ele>807.2</ele>
        <time>2020-08-05T11:26:49Z</time>
      </trkpt>
      <trkpt lat="45.12501" lon="6.04013">
        <ele>807.2</ele>
        <time>2020-08-05T11:26:51Z</time>
      </trkpt>
      <trkpt lat="45.12501" lon="6.04014">
        <ele>807.2</ele>
        <time>2020-08-05T11:26:53Z</time>
      </trkpt>
      <trkpt lat="45.12501" lon="6.04015">
        <ele>807.1</ele>
        <time>2020-08-05T11:26:54Z</time>
      </trkpt>
      <trkpt lat="45.12501" lon="6.04015">
        <ele>807.1</ele>
        <time>2020-08-05T11:26:57Z</time>
      </trkpt>
      <trkpt lat="45.12501" lon="6.04016">
        <ele>807.1</ele>
        <time>2020-08-05T11:26:59Z</time>
      </trkpt>
      <trkpt lat="45.12501" lon="6.04016">
        <ele>807.1</ele>
        <time>2020-08-05T11:27:00Z</time>
      </trkpt>
      <trkpt lat="45.12503" lon="6.04017">
        <ele>807</ele>
        <time>2020-08-05T11:27:01Z</time>
      </trkpt>
      <trkpt lat="45.12504" lon="6.04017">
        <ele>807</ele>
        <time>2020-08-05T11:27:03Z</time>
      </trkpt>
      <trkpt lat="45.12505" lon="6.04018">
        <ele>806.9</ele>
        <time>2020-08-05T11:27:04Z</time>
      </trkpt>
      <trkpt lat="45.12509" lon="6.0403">
        <ele>806.3</ele>
        <time>2020-08-05T11:27:05Z</time>
      </trkpt>
      <trkpt lat="45.12512" lon="6.04039">
        <ele>805.8</ele>
        <time>2020-08-05T11:27:07Z</time>
      </trkpt>
      <trkpt lat="45.12514" lon="6.04049">
        <ele>805.3</ele>
        <time>2020-08-05T11:27:08Z</time>
      </trkpt>
      <trkpt lat="45.12517" lon="6.04058">
        <ele>804.8</ele>
        <time>2020-08-05T11:27:09Z</time>
      </trkpt>
      <trkpt lat="45.1252" lon="6.04067">
        <ele>804.2</ele>
        <time>2020-08-05T11:27:10Z</time>
      </trkpt>
      <trkpt lat="45.12528" lon="6.04086">
        <ele>802.9</ele>
        <time>2020-08-05T11:27:12Z</time>
      </trkpt>
      <trkpt lat="45.12539" lon="6.04105">
        <ele>801.4</ele>
        <time>2020-08-05T11:27:14Z</time>
      </trkpt>
      <trkpt lat="45.12544" lon="6.04117">
        <ele>800.5</ele>
        <time>2020-08-05T11:27:15Z</time>
      </trkpt>
      <trkpt lat="45.12556" lon="6.04142">
        <ele>798.5</ele>
        <time>2020-08-05T11:27:17Z</time>
      </trkpt>
      <trkpt lat="45.12563" lon="6.04156">
        <ele>797.4</ele>
        <time>2020-08-05T11:27:18Z</time>
      </trkpt>
      <trkpt lat="45.12575" lon="6.04186">
        <ele>795.1</ele>
        <time>2020-08-05T11:27:20Z</time>
      </trkpt>
      <trkpt lat="45.12587" lon="6.04217">
        <ele>792.9</ele>
        <time>2020-08-05T11:27:22Z</time>
      </trkpt>
      <trkpt lat="45.12593" lon="6.04232">
        <ele>791.8</ele>
        <time>2020-08-05T11:27:23Z</time>
      </trkpt>
      <trkpt lat="45.12604" lon="6.04263">
        <ele>789.8</ele>
        <time>2020-08-05T11:27:25Z</time>
      </trkpt>
      <trkpt lat="45.12612" lon="6.04294">
        <ele>787.8</ele>
        <time>2020-08-05T11:27:27Z</time>
      </trkpt>
      <trkpt lat="45.12617" lon="6.04308">
        <ele>786.9</ele>
        <time>2020-08-05T11:27:28Z</time>
      </trkpt>
      <trkpt lat="45.12632" lon="6.0433">
        <ele>785</ele>
        <time>2020-08-05T11:27:30Z</time>
      </trkpt>
      <trkpt lat="45.12644" lon="6.04337">
        <ele>783.9</ele>
        <time>2020-08-05T11:27:31Z</time>
      </trkpt>
      <trkpt lat="45.12655" lon="6.04343">
        <ele>782.7</ele>
        <time>2020-08-05T11:27:32Z</time>
      </trkpt>
      <trkpt lat="45.12678" lon="6.04361">
        <ele>780.1</ele>
        <time>2020-08-05T11:27:34Z</time>
      </trkpt>
      <trkpt lat="45.1269" lon="6.04374">
        <ele>778.6</ele>
        <time>2020-08-05T11:27:35Z</time>
      </trkpt>
      <trkpt lat="45.1271" lon="6.044">
        <ele>776</ele>
        <time>2020-08-05T11:27:37Z</time>
      </trkpt>
      <trkpt lat="45.1273" lon="6.04419">
        <ele>774.1</ele>
        <time>2020-08-05T11:27:39Z</time>
      </trkpt>
      <trkpt lat="45.12748" lon="6.0444">
        <ele>772.7</ele>
        <time>2020-08-05T11:27:41Z</time>
      </trkpt>
      <trkpt lat="45.12762" lon="6.04467">
        <ele>771.8</ele>
        <time>2020-08-05T11:27:43Z</time>
      </trkpt>
      <trkpt lat="45.12768" lon="6.04479">
        <ele>771.7</ele>
        <time>2020-08-05T11:27:44Z</time>
      </trkpt>
      <trkpt lat="45.1278" lon="6.04503">
        <ele>771.5</ele>
        <time>2020-08-05T11:27:46Z</time>
      </trkpt>
      <trkpt lat="45.12786" lon="6.04514">
        <ele>771.5</ele>
        <time>2020-08-05T11:27:47Z</time>
      </trkpt>
      <trkpt lat="45.12794" lon="6.04532">
        <ele>771.7</ele>
        <time>2020-08-05T11:27:49Z</time>
      </trkpt>
      <trkpt lat="45.12803" lon="6.04541">
        <ele>772</ele>
        <time>2020-08-05T11:27:51Z</time>
      </trkpt>
      <trkpt lat="45.12815" lon="6.04535">
        <ele>771.9</ele>
        <time>2020-08-05T11:27:53Z</time>
      </trkpt>
      <trkpt lat="45.1282" lon="6.04528">
        <ele>771.8</ele>
        <time>2020-08-05T11:27:54Z</time>
      </trkpt>
      <trkpt lat="45.1283" lon="6.04512">
        <ele>771.8</ele>
        <time>2020-08-05T11:27:56Z</time>
      </trkpt>
      <trkpt lat="45.12835" lon="6.04503">
        <ele>771.9</ele>
        <time>2020-08-05T11:27:57Z</time>
      </trkpt>
      <trkpt lat="45.12848" lon="6.04483">
        <ele>772</ele>
        <time>2020-08-05T11:27:59Z</time>
      </trkpt>
      <trkpt lat="45.12854" lon="6.04472">
        <ele>772.1</ele>
        <time>2020-08-05T11:28:00Z</time>
      </trkpt>
      <trkpt lat="45.12868" lon="6.04449">
        <ele>772.3</ele>
        <time>2020-08-05T11:28:02Z</time>
      </trkpt>
      <trkpt lat="45.12883" lon="6.04424">
        <ele>772.7</ele>
        <time>2020-08-05T11:28:04Z</time>
      </trkpt>
      <trkpt lat="45.12898" lon="6.04399">
        <ele>773</ele>
        <time>2020-08-05T11:28:06Z</time>
      </trkpt>
      <trkpt lat="45.12906" lon="6.04386">
        <ele>773.1</ele>
        <time>2020-08-05T11:28:07Z</time>
      </trkpt>
      <trkpt lat="45.12922" lon="6.04361">
        <ele>773.4</ele>
        <time>2020-08-05T11:28:09Z</time>
      </trkpt>
      <trkpt lat="45.12929" lon="6.04349">
        <ele>773.6</ele>
        <time>2020-08-05T11:28:10Z</time>
      </trkpt>
      <trkpt lat="45.12937" lon="6.04337">
        <ele>773.7</ele>
        <time>2020-08-05T11:28:11Z</time>
      </trkpt>
      <trkpt lat="45.12951" lon="6.04314">
        <ele>774</ele>
        <time>2020-08-05T11:28:13Z</time>
      </trkpt>
      <trkpt lat="45.12965" lon="6.04292">
        <ele>774.4</ele>
        <time>2020-08-05T11:28:15Z</time>
      </trkpt>
      <trkpt lat="45.12971" lon="6.04281">
        <ele>774.6</ele>
        <time>2020-08-05T11:28:16Z</time>
      </trkpt>
      <trkpt lat="45.12985" lon="6.04259">
        <ele>774.9</ele>
        <time>2020-08-05T11:28:18Z</time>
      </trkpt>
      <trkpt lat="45.12991" lon="6.04248">
        <ele>775.1</ele>
        <time>2020-08-05T11:28:19Z</time>
      </trkpt>
      <trkpt lat="45.13005" lon="6.04227">
        <ele>775.4</ele>
        <time>2020-08-05T11:28:21Z</time>
      </trkpt>
      <trkpt lat="45.13011" lon="6.04217">
        <ele>775.6</ele>
        <time>2020-08-05T11:28:22Z</time>
      </trkpt>
      <trkpt lat="45.13024" lon="6.04197">
        <ele>776</ele>
        <time>2020-08-05T11:28:24Z</time>
      </trkpt>
      <trkpt lat="45.13035" lon="6.04178">
        <ele>776.4</ele>
        <time>2020-08-05T11:28:26Z</time>
      </trkpt>
      <trkpt lat="45.13046" lon="6.0416">
        <ele>776.7</ele>
        <time>2020-08-05T11:28:28Z</time>
      </trkpt>
      <trkpt lat="45.13051" lon="6.0415">
        <ele>776.9</ele>
        <time>2020-08-05T11:28:29Z</time>
      </trkpt>
      <trkpt lat="45.13062" lon="6.04133">
        <ele>777.2</ele>
        <time>2020-08-05T11:28:31Z</time>
      </trkpt>
      <trkpt lat="45.13067" lon="6.04124">
        <ele>777.3</ele>
        <time>2020-08-05T11:28:32Z</time>
      </trkpt>
      <trkpt lat="45.13077" lon="6.04107">
        <ele>777.5</ele>
        <time>2020-08-05T11:28:34Z</time>
      </trkpt>
      <trkpt lat="45.13077" lon="6.04086">
        <ele>777.5</ele>
        <time>2020-08-05T11:28:36Z</time>
      </trkpt>
      <trkpt lat="45.13073" lon="6.04077">
        <ele>777.4</ele>
        <time>2020-08-05T11:28:37Z</time>
      </trkpt>
      <trkpt lat="45.13061" lon="6.04069">
        <ele>777.2</ele>
        <time>2020-08-05T11:28:39Z</time>
      </trkpt>
      <trkpt lat="45.13049" lon="6.04082">
        <ele>776.4</ele>
        <time>2020-08-05T11:28:41Z</time>
      </trkpt>
      <trkpt lat="45.13046" lon="6.04093">
        <ele>775.9</ele>
        <time>2020-08-05T11:28:42Z</time>
      </trkpt>
      <trkpt lat="45.13041" lon="6.04116">
        <ele>774.8</ele>
        <time>2020-08-05T11:28:44Z</time>
      </trkpt>
      <trkpt lat="45.13032" lon="6.0414">
        <ele>773.6</ele>
        <time>2020-08-05T11:28:46Z</time>
      </trkpt>
      <trkpt lat="45.13018" lon="6.04162">
        <ele>772.1</ele>
        <time>2020-08-05T11:28:48Z</time>
      </trkpt>
      <trkpt lat="45.13001" lon="6.04181">
        <ele>770.6</ele>
        <time>2020-08-05T11:28:50Z</time>
      </trkpt>
      <trkpt lat="45.12984" lon="6.04203">
        <ele>768.7</ele>
        <time>2020-08-05T11:28:52Z</time>
      </trkpt>
      <trkpt lat="45.12965" lon="6.04226">
        <ele>766.7</ele>
        <time>2020-08-05T11:28:54Z</time>
      </trkpt>
      <trkpt lat="45.12946" lon="6.0425">
        <ele>764.6</ele>
        <time>2020-08-05T11:28:56Z</time>
      </trkpt>
      <trkpt lat="45.12936" lon="6.04262">
        <ele>763.5</ele>
        <time>2020-08-05T11:28:57Z</time>
      </trkpt>
      <trkpt lat="45.12926" lon="6.04275">
        <ele>762.4</ele>
        <time>2020-08-05T11:28:58Z</time>
      </trkpt>
      <trkpt lat="45.12906" lon="6.043">
        <ele>760.2</ele>
        <time>2020-08-05T11:29:00Z</time>
      </trkpt>
      <trkpt lat="45.12896" lon="6.04313">
        <ele>759.1</ele>
        <time>2020-08-05T11:29:01Z</time>
      </trkpt>
      <trkpt lat="45.12876" lon="6.0434">
        <ele>757</ele>
        <time>2020-08-05T11:29:03Z</time>
      </trkpt>
      <trkpt lat="45.12856" lon="6.04366">
        <ele>754.9</ele>
        <time>2020-08-05T11:29:05Z</time>
      </trkpt>
      <trkpt lat="45.12837" lon="6.04391">
        <ele>752.7</ele>
        <time>2020-08-05T11:29:07Z</time>
      </trkpt>
      <trkpt lat="45.12829" lon="6.04402">
        <ele>751.9</ele>
        <time>2020-08-05T11:29:08Z</time>
      </trkpt>
      <trkpt lat="45.12815" lon="6.04415">
        <ele>750.7</ele>
        <time>2020-08-05T11:29:10Z</time>
      </trkpt>
      <trkpt lat="45.12808" lon="6.04413">
        <ele>750.3</ele>
        <time>2020-08-05T11:29:11Z</time>
      </trkpt>
      <trkpt lat="45.12799" lon="6.04392">
        <ele>749.3</ele>
        <time>2020-08-05T11:29:13Z</time>
      </trkpt>
      <trkpt lat="45.12807" lon="6.04373">
        <ele>748.2</ele>
        <time>2020-08-05T11:29:15Z</time>
      </trkpt>
      <trkpt lat="45.12826" lon="6.04361">
        <ele>746.8</ele>
        <time>2020-08-05T11:29:17Z</time>
      </trkpt>
      <trkpt lat="45.12843" lon="6.04344">
        <ele>745.4</ele>
        <time>2020-08-05T11:29:19Z</time>
      </trkpt>
      <trkpt lat="45.1285" lon="6.04332">
        <ele>744.7</ele>
        <time>2020-08-05T11:29:20Z</time>
      </trkpt>
      <trkpt lat="45.12862" lon="6.04305">
        <ele>743.2</ele>
        <time>2020-08-05T11:29:22Z</time>
      </trkpt>
      <trkpt lat="45.12876" lon="6.04278">
        <ele>741.7</ele>
        <time>2020-08-05T11:29:24Z</time>
      </trkpt>
      <trkpt lat="45.12883" lon="6.04264">
        <ele>740.9</ele>
        <time>2020-08-05T11:29:25Z</time>
      </trkpt>
      <trkpt lat="45.1289" lon="6.04249">
        <ele>740.2</ele>
        <time>2020-08-05T11:29:26Z</time>
      </trkpt>
      <trkpt lat="45.12905" lon="6.0422">
        <ele>738.5</ele>
        <time>2020-08-05T11:29:28Z</time>
      </trkpt>
      <trkpt lat="45.12912" lon="6.04205">
        <ele>737.6</ele>
        <time>2020-08-05T11:29:29Z</time>
      </trkpt>
      <trkpt lat="45.12924" lon="6.04174">
        <ele>736.2</ele>
        <time>2020-08-05T11:29:31Z</time>
      </trkpt>
      <trkpt lat="45.12925" lon="6.04142">
        <ele>734.7</ele>
        <time>2020-08-05T11:29:33Z</time>
      </trkpt>
      <trkpt lat="45.12921" lon="6.04127">
        <ele>734.5</ele>
        <time>2020-08-05T11:29:34Z</time>
      </trkpt>
      <trkpt lat="45.12917" lon="6.04114">
        <ele>734.3</ele>
        <time>2020-08-05T11:29:35Z</time>
      </trkpt>
      <trkpt lat="45.12906" lon="6.04091">
        <ele>733.9</ele>
        <time>2020-08-05T11:29:37Z</time>
      </trkpt>
      <trkpt lat="45.12896" lon="6.04069">
        <ele>734</ele>
        <time>2020-08-05T11:29:39Z</time>
      </trkpt>
      <trkpt lat="45.12892" lon="6.04059">
        <ele>734</ele>
        <time>2020-08-05T11:29:40Z</time>
      </trkpt>
      <trkpt lat="45.12882" lon="6.04048">
        <ele>732.8</ele>
        <time>2020-08-05T11:29:42Z</time>
      </trkpt>
      <trkpt lat="45.12877" lon="6.04047">
        <ele>732.8</ele>
        <time>2020-08-05T11:29:43Z</time>
      </trkpt>
      <trkpt lat="45.12871" lon="6.04052">
        <ele>732.7</ele>
        <time>2020-08-05T11:29:45Z</time>
      </trkpt>
      <trkpt lat="45.12865" lon="6.04056">
        <ele>732.6</ele>
        <time>2020-08-05T11:29:47Z</time>
      </trkpt>
      <trkpt lat="45.12862" lon="6.04058">
        <ele>732.5</ele>
        <time>2020-08-05T11:29:48Z</time>
      </trkpt>
      <trkpt lat="45.12859" lon="6.0406">
        <ele>732.5</ele>
        <time>2020-08-05T11:29:50Z</time>
      </trkpt>
      <trkpt lat="45.1286" lon="6.0406">
        <ele>732.5</ele>
        <time>2020-08-05T11:29:52Z</time>
      </trkpt>
      <trkpt lat="45.1286" lon="6.0406">
        <ele>732.5</ele>
        <time>2020-08-05T11:29:53Z</time>
      </trkpt>
      <trkpt lat="45.1286" lon="6.04059">
        <ele>732.5</ele>
        <time>2020-08-05T11:29:55Z</time>
      </trkpt>
      <trkpt lat="45.1286" lon="6.04059">
        <ele>732.5</ele>
        <time>2020-08-05T11:29:56Z</time>
      </trkpt>
      <trkpt lat="45.1286" lon="6.04059">
        <ele>732.5</ele>
        <time>2020-08-05T11:29:57Z</time>
      </trkpt>
      <trkpt lat="45.1286" lon="6.04059">
        <ele>732.5</ele>
        <time>2020-08-05T11:29:59Z</time>
      </trkpt>
    </trkseg>
  </trk>
</gpx>